<?xml version="1.0" encoding="UTF-8" standalone="no" ?>
<gpx xmlns="http://www.topografix.com/GPX/1/1" xmlns:xsi="http://www.w3.org/2001/XMLSchema-instance" xsi:schemaLocation="http://www.topografix.com/GPX/1/1 http://www.topografix.com/GPX/1/1/gpx.xsd" version="1.1" creator="VisuGPX - https://www.visugpx.com">
  <metadata>
    <name>2017-11-15 - Liliental, Katharinenkapelle, Badberg</name>
    <desc><![CDATA[2017-11-15 - Liliental, Katharinenkapelle, Badberg - Club vosgien Colmar - 22 participants - Guide : Denis Vouin]]></desc>
  </metadata>
  <trk>
    <name><![CDATA[15 nov. 2017]]></name>
    <cmt><![CDATA[9:27:19 AM]]></cmt>
    <desc><![CDATA[comment ...]]></desc>
    <trkseg>
      <trkpt lat="48.06889" lon="7.67563">
        <ele>304</ele>
        <time>2017-11-15T08:27:22Z</time>
      </trkpt>
      <trkpt lat="48.0689" lon="7.67565">
        <ele>304</ele>
        <time>2017-11-15T08:27:23Z</time>
      </trkpt>
      <trkpt lat="48.06897" lon="7.67573">
        <ele>300</ele>
        <time>2017-11-15T08:27:28Z</time>
      </trkpt>
      <trkpt lat="48.06915" lon="7.67582">
        <ele>299</ele>
        <time>2017-11-15T08:27:46Z</time>
      </trkpt>
      <trkpt lat="48.06918" lon="7.67585">
        <ele>297</ele>
        <time>2017-11-15T08:27:54Z</time>
      </trkpt>
      <trkpt lat="48.06922" lon="7.67589">
        <ele>295</ele>
        <time>2017-11-15T08:28:11Z</time>
      </trkpt>
      <trkpt lat="48.06951" lon="7.67604">
        <ele>296</ele>
        <time>2017-11-15T08:28:45Z</time>
      </trkpt>
      <trkpt lat="48.06959" lon="7.67609">
        <ele>296</ele>
        <time>2017-11-15T08:28:54Z</time>
      </trkpt>
      <trkpt lat="48.06978" lon="7.67622">
        <ele>305</ele>
        <time>2017-11-15T08:29:12Z</time>
      </trkpt>
      <trkpt lat="48.06997" lon="7.67628">
        <ele>304</ele>
        <time>2017-11-15T08:29:30Z</time>
      </trkpt>
      <trkpt lat="48.07012" lon="7.67637">
        <ele>307</ele>
        <time>2017-11-15T08:29:47Z</time>
      </trkpt>
      <trkpt lat="48.07022" lon="7.67649">
        <ele>309</ele>
        <time>2017-11-15T08:30:01Z</time>
      </trkpt>
      <trkpt lat="48.07043" lon="7.6767">
        <ele>309</ele>
        <time>2017-11-15T08:30:25Z</time>
      </trkpt>
      <trkpt lat="48.07065" lon="7.67669">
        <ele>312</ele>
        <time>2017-11-15T08:30:35Z</time>
      </trkpt>
      <trkpt lat="48.07066" lon="7.67678">
        <ele>313</ele>
        <time>2017-11-15T08:30:48Z</time>
      </trkpt>
      <trkpt lat="48.07066" lon="7.67686">
        <ele>314</ele>
        <time>2017-11-15T08:30:57Z</time>
      </trkpt>
      <trkpt lat="48.07064" lon="7.67693">
        <ele>317</ele>
        <time>2017-11-15T08:31:01Z</time>
      </trkpt>
      <trkpt lat="48.07056" lon="7.67697">
        <ele>317</ele>
        <time>2017-11-15T08:31:09Z</time>
      </trkpt>
      <trkpt lat="48.07051" lon="7.67699">
        <ele>317</ele>
        <time>2017-11-15T08:31:15Z</time>
      </trkpt>
      <trkpt lat="48.07046" lon="7.67699">
        <ele>317</ele>
        <time>2017-11-15T08:31:18Z</time>
      </trkpt>
      <trkpt lat="48.07037" lon="7.67697">
        <ele>315</ele>
        <time>2017-11-15T08:31:27Z</time>
      </trkpt>
      <trkpt lat="48.07033" lon="7.67693">
        <ele>319</ele>
        <time>2017-11-15T08:32:50Z</time>
      </trkpt>
      <trkpt lat="48.0701" lon="7.67701">
        <ele>319</ele>
        <time>2017-11-15T08:33:11Z</time>
      </trkpt>
      <trkpt lat="48.07006" lon="7.67706">
        <ele>321</ele>
        <time>2017-11-15T08:33:16Z</time>
      </trkpt>
      <trkpt lat="48.06998" lon="7.6771">
        <ele>323</ele>
        <time>2017-11-15T08:33:23Z</time>
      </trkpt>
      <trkpt lat="48.06984" lon="7.67715">
        <ele>324</ele>
        <time>2017-11-15T08:33:36Z</time>
      </trkpt>
      <trkpt lat="48.0698" lon="7.67717">
        <ele>328</ele>
        <time>2017-11-15T08:33:40Z</time>
      </trkpt>
      <trkpt lat="48.06977" lon="7.67721">
        <ele>331</ele>
        <time>2017-11-15T08:33:45Z</time>
      </trkpt>
      <trkpt lat="48.06976" lon="7.67727">
        <ele>328</ele>
        <time>2017-11-15T08:33:50Z</time>
      </trkpt>
      <trkpt lat="48.06977" lon="7.67735">
        <ele>326</ele>
        <time>2017-11-15T08:33:55Z</time>
      </trkpt>
      <trkpt lat="48.06981" lon="7.67747">
        <ele>323</ele>
        <time>2017-11-15T08:34:04Z</time>
      </trkpt>
      <trkpt lat="48.0699" lon="7.67755">
        <ele>326</ele>
        <time>2017-11-15T08:34:14Z</time>
      </trkpt>
      <trkpt lat="48.07003" lon="7.67762">
        <ele>329</ele>
        <time>2017-11-15T08:34:30Z</time>
      </trkpt>
      <trkpt lat="48.07038" lon="7.6777">
        <ele>333</ele>
        <time>2017-11-15T08:35:03Z</time>
      </trkpt>
      <trkpt lat="48.07047" lon="7.67772">
        <ele>334</ele>
        <time>2017-11-15T08:35:12Z</time>
      </trkpt>
      <trkpt lat="48.0705" lon="7.67776">
        <ele>334</ele>
        <time>2017-11-15T08:35:35Z</time>
      </trkpt>
      <trkpt lat="48.07055" lon="7.67777">
        <ele>333</ele>
        <time>2017-11-15T08:35:52Z</time>
      </trkpt>
      <trkpt lat="48.0706" lon="7.67778">
        <ele>333</ele>
        <time>2017-11-15T08:35:58Z</time>
      </trkpt>
      <trkpt lat="48.07069" lon="7.67781">
        <ele>332</ele>
        <time>2017-11-15T08:36:09Z</time>
      </trkpt>
      <trkpt lat="48.07074" lon="7.67783">
        <ele>332</ele>
        <time>2017-11-15T08:36:12Z</time>
      </trkpt>
      <trkpt lat="48.07092" lon="7.67787">
        <ele>334</ele>
        <time>2017-11-15T08:36:27Z</time>
      </trkpt>
      <trkpt lat="48.07099" lon="7.67793">
        <ele>335</ele>
        <time>2017-11-15T08:36:36Z</time>
      </trkpt>
      <trkpt lat="48.07108" lon="7.67793">
        <ele>336</ele>
        <time>2017-11-15T08:36:46Z</time>
      </trkpt>
      <trkpt lat="48.07113" lon="7.67795">
        <ele>336</ele>
        <time>2017-11-15T08:36:52Z</time>
      </trkpt>
      <trkpt lat="48.07126" lon="7.67786">
        <ele>335</ele>
        <time>2017-11-15T08:37:06Z</time>
      </trkpt>
      <trkpt lat="48.07129" lon="7.67779">
        <ele>335</ele>
        <time>2017-11-15T08:37:10Z</time>
      </trkpt>
      <trkpt lat="48.07137" lon="7.6777">
        <ele>335</ele>
        <time>2017-11-15T08:37:21Z</time>
      </trkpt>
      <trkpt lat="48.07144" lon="7.67761">
        <ele>339</ele>
        <time>2017-11-15T08:37:30Z</time>
      </trkpt>
      <trkpt lat="48.07148" lon="7.6776">
        <ele>338</ele>
        <time>2017-11-15T08:37:35Z</time>
      </trkpt>
      <trkpt lat="48.07152" lon="7.67756">
        <ele>340</ele>
        <time>2017-11-15T08:37:42Z</time>
      </trkpt>
      <trkpt lat="48.07157" lon="7.67746">
        <ele>340</ele>
        <time>2017-11-15T08:37:50Z</time>
      </trkpt>
      <trkpt lat="48.07161" lon="7.67741">
        <ele>340</ele>
        <time>2017-11-15T08:37:55Z</time>
      </trkpt>
      <trkpt lat="48.07165" lon="7.67738">
        <ele>340</ele>
        <time>2017-11-15T08:38:00Z</time>
      </trkpt>
      <trkpt lat="48.07174" lon="7.67738">
        <ele>341</ele>
        <time>2017-11-15T08:38:10Z</time>
      </trkpt>
      <trkpt lat="48.07179" lon="7.67737">
        <ele>342</ele>
        <time>2017-11-15T08:38:14Z</time>
      </trkpt>
      <trkpt lat="48.07188" lon="7.67737">
        <ele>344</ele>
        <time>2017-11-15T08:38:22Z</time>
      </trkpt>
      <trkpt lat="48.07193" lon="7.67739">
        <ele>344</ele>
        <time>2017-11-15T08:38:26Z</time>
      </trkpt>
      <trkpt lat="48.07207" lon="7.6774">
        <ele>345</ele>
        <time>2017-11-15T08:38:39Z</time>
      </trkpt>
      <trkpt lat="48.07227" lon="7.6774">
        <ele>345</ele>
        <time>2017-11-15T08:38:59Z</time>
      </trkpt>
      <trkpt lat="48.07231" lon="7.6774">
        <ele>345</ele>
        <time>2017-11-15T08:39:03Z</time>
      </trkpt>
      <trkpt lat="48.07236" lon="7.67739">
        <ele>345</ele>
        <time>2017-11-15T08:39:08Z</time>
      </trkpt>
      <trkpt lat="48.0724" lon="7.67741">
        <ele>345</ele>
        <time>2017-11-15T08:39:13Z</time>
      </trkpt>
      <trkpt lat="48.0725" lon="7.67742">
        <ele>346</ele>
        <time>2017-11-15T08:39:22Z</time>
      </trkpt>
      <trkpt lat="48.07264" lon="7.67742">
        <ele>347</ele>
        <time>2017-11-15T08:39:34Z</time>
      </trkpt>
      <trkpt lat="48.07276" lon="7.67743">
        <ele>350</ele>
        <time>2017-11-15T08:39:44Z</time>
      </trkpt>
      <trkpt lat="48.07285" lon="7.67744">
        <ele>352</ele>
        <time>2017-11-15T08:39:53Z</time>
      </trkpt>
      <trkpt lat="48.0729" lon="7.67745">
        <ele>354</ele>
        <time>2017-11-15T08:39:57Z</time>
      </trkpt>
      <trkpt lat="48.073" lon="7.67744">
        <ele>353</ele>
        <time>2017-11-15T08:40:07Z</time>
      </trkpt>
      <trkpt lat="48.07304" lon="7.67744">
        <ele>354</ele>
        <time>2017-11-15T08:40:12Z</time>
      </trkpt>
      <trkpt lat="48.07324" lon="7.67742">
        <ele>358</ele>
        <time>2017-11-15T08:40:38Z</time>
      </trkpt>
      <trkpt lat="48.07329" lon="7.6774">
        <ele>358</ele>
        <time>2017-11-15T08:40:42Z</time>
      </trkpt>
      <trkpt lat="48.07339" lon="7.67739">
        <ele>361</ele>
        <time>2017-11-15T08:40:51Z</time>
      </trkpt>
      <trkpt lat="48.07361" lon="7.6773">
        <ele>362</ele>
        <time>2017-11-15T08:41:16Z</time>
      </trkpt>
      <trkpt lat="48.07388" lon="7.67732">
        <ele>363</ele>
        <time>2017-11-15T08:41:39Z</time>
      </trkpt>
      <trkpt lat="48.07393" lon="7.67736">
        <ele>363</ele>
        <time>2017-11-15T08:41:44Z</time>
      </trkpt>
      <trkpt lat="48.07403" lon="7.67736">
        <ele>364</ele>
        <time>2017-11-15T08:41:54Z</time>
      </trkpt>
      <trkpt lat="48.07425" lon="7.67729">
        <ele>364</ele>
        <time>2017-11-15T08:42:16Z</time>
      </trkpt>
      <trkpt lat="48.07452" lon="7.67715">
        <ele>362</ele>
        <time>2017-11-15T08:42:41Z</time>
      </trkpt>
      <trkpt lat="48.07466" lon="7.67709">
        <ele>361</ele>
        <time>2017-11-15T08:42:52Z</time>
      </trkpt>
      <trkpt lat="48.07484" lon="7.67702">
        <ele>360</ele>
        <time>2017-11-15T08:43:09Z</time>
      </trkpt>
      <trkpt lat="48.07495" lon="7.677">
        <ele>360</ele>
        <time>2017-11-15T08:43:21Z</time>
      </trkpt>
      <trkpt lat="48.07503" lon="7.67704">
        <ele>371</ele>
        <time>2017-11-15T08:43:27Z</time>
      </trkpt>
      <trkpt lat="48.07507" lon="7.67708">
        <ele>364</ele>
        <time>2017-11-15T08:43:39Z</time>
      </trkpt>
      <trkpt lat="48.07513" lon="7.6771">
        <ele>361</ele>
        <time>2017-11-15T08:47:18Z</time>
      </trkpt>
      <trkpt lat="48.07517" lon="7.67714">
        <ele>364</ele>
        <time>2017-11-15T08:47:33Z</time>
      </trkpt>
      <trkpt lat="48.07521" lon="7.67714">
        <ele>363</ele>
        <time>2017-11-15T08:47:53Z</time>
      </trkpt>
      <trkpt lat="48.07531" lon="7.67718">
        <ele>359</ele>
        <time>2017-11-15T08:48:29Z</time>
      </trkpt>
      <trkpt lat="48.07536" lon="7.67726">
        <ele>362</ele>
        <time>2017-11-15T08:48:35Z</time>
      </trkpt>
      <trkpt lat="48.07538" lon="7.67732">
        <ele>363</ele>
        <time>2017-11-15T08:48:41Z</time>
      </trkpt>
      <trkpt lat="48.07542" lon="7.67736">
        <ele>363</ele>
        <time>2017-11-15T08:48:45Z</time>
      </trkpt>
      <trkpt lat="48.07547" lon="7.67738">
        <ele>367</ele>
        <time>2017-11-15T08:48:49Z</time>
      </trkpt>
      <trkpt lat="48.07572" lon="7.67761">
        <ele>361</ele>
        <time>2017-11-15T08:49:19Z</time>
      </trkpt>
      <trkpt lat="48.07606" lon="7.67781">
        <ele>370</ele>
        <time>2017-11-15T08:49:53Z</time>
      </trkpt>
      <trkpt lat="48.07619" lon="7.6779">
        <ele>370</ele>
        <time>2017-11-15T08:50:05Z</time>
      </trkpt>
      <trkpt lat="48.07625" lon="7.67793">
        <ele>369</ele>
        <time>2017-11-15T08:50:15Z</time>
      </trkpt>
      <trkpt lat="48.07636" lon="7.67792">
        <ele>370</ele>
        <time>2017-11-15T08:50:29Z</time>
      </trkpt>
      <trkpt lat="48.07663" lon="7.67808">
        <ele>375</ele>
        <time>2017-11-15T08:50:54Z</time>
      </trkpt>
      <trkpt lat="48.07672" lon="7.6781">
        <ele>375</ele>
        <time>2017-11-15T08:51:06Z</time>
      </trkpt>
      <trkpt lat="48.07688" lon="7.67819">
        <ele>379</ele>
        <time>2017-11-15T08:51:26Z</time>
      </trkpt>
      <trkpt lat="48.07694" lon="7.6782">
        <ele>378</ele>
        <time>2017-11-15T08:51:31Z</time>
      </trkpt>
      <trkpt lat="48.07715" lon="7.67823">
        <ele>387</ele>
        <time>2017-11-15T08:51:56Z</time>
      </trkpt>
      <trkpt lat="48.07722" lon="7.67822">
        <ele>389</ele>
        <time>2017-11-15T08:52:04Z</time>
      </trkpt>
      <trkpt lat="48.07731" lon="7.67827">
        <ele>387</ele>
        <time>2017-11-15T08:52:14Z</time>
      </trkpt>
      <trkpt lat="48.07738" lon="7.67828">
        <ele>386</ele>
        <time>2017-11-15T08:52:22Z</time>
      </trkpt>
      <trkpt lat="48.07745" lon="7.67828">
        <ele>386</ele>
        <time>2017-11-15T08:52:29Z</time>
      </trkpt>
      <trkpt lat="48.07752" lon="7.67828">
        <ele>384</ele>
        <time>2017-11-15T08:52:38Z</time>
      </trkpt>
      <trkpt lat="48.07773" lon="7.67829">
        <ele>386</ele>
        <time>2017-11-15T08:52:59Z</time>
      </trkpt>
      <trkpt lat="48.07778" lon="7.67831">
        <ele>388</ele>
        <time>2017-11-15T08:53:04Z</time>
      </trkpt>
      <trkpt lat="48.07786" lon="7.67831">
        <ele>390</ele>
        <time>2017-11-15T08:53:11Z</time>
      </trkpt>
      <trkpt lat="48.07815" lon="7.67828">
        <ele>393</ele>
        <time>2017-11-15T08:53:41Z</time>
      </trkpt>
      <trkpt lat="48.07819" lon="7.6783">
        <ele>394</ele>
        <time>2017-11-15T08:53:46Z</time>
      </trkpt>
      <trkpt lat="48.07824" lon="7.67835">
        <ele>395</ele>
        <time>2017-11-15T08:53:53Z</time>
      </trkpt>
      <trkpt lat="48.07838" lon="7.67849">
        <ele>404</ele>
        <time>2017-11-15T08:54:09Z</time>
      </trkpt>
      <trkpt lat="48.07844" lon="7.67855">
        <ele>399</ele>
        <time>2017-11-15T08:54:22Z</time>
      </trkpt>
      <trkpt lat="48.07844" lon="7.67862">
        <ele>402</ele>
        <time>2017-11-15T08:54:40Z</time>
      </trkpt>
      <trkpt lat="48.07848" lon="7.67866">
        <ele>403</ele>
        <time>2017-11-15T08:54:47Z</time>
      </trkpt>
      <trkpt lat="48.07854" lon="7.67869">
        <ele>402</ele>
        <time>2017-11-15T08:54:57Z</time>
      </trkpt>
      <trkpt lat="48.07862" lon="7.67875">
        <ele>401</ele>
        <time>2017-11-15T08:55:06Z</time>
      </trkpt>
      <trkpt lat="48.0787" lon="7.67885">
        <ele>396</ele>
        <time>2017-11-15T08:55:17Z</time>
      </trkpt>
      <trkpt lat="48.07876" lon="7.67894">
        <ele>393</ele>
        <time>2017-11-15T08:55:24Z</time>
      </trkpt>
      <trkpt lat="48.07887" lon="7.67908">
        <ele>396</ele>
        <time>2017-11-15T08:55:35Z</time>
      </trkpt>
      <trkpt lat="48.07904" lon="7.67945">
        <ele>407</ele>
        <time>2017-11-15T08:55:55Z</time>
      </trkpt>
      <trkpt lat="48.07911" lon="7.67957">
        <ele>410</ele>
        <time>2017-11-15T08:56:04Z</time>
      </trkpt>
      <trkpt lat="48.07942" lon="7.68005">
        <ele>413</ele>
        <time>2017-11-15T08:56:39Z</time>
      </trkpt>
      <trkpt lat="48.07951" lon="7.68012">
        <ele>414</ele>
        <time>2017-11-15T08:56:44Z</time>
      </trkpt>
      <trkpt lat="48.07959" lon="7.68018">
        <ele>411</ele>
        <time>2017-11-15T08:56:54Z</time>
      </trkpt>
      <trkpt lat="48.07973" lon="7.68015">
        <ele>407</ele>
        <time>2017-11-15T08:57:05Z</time>
      </trkpt>
      <trkpt lat="48.08002" lon="7.68">
        <ele>406</ele>
        <time>2017-11-15T08:57:39Z</time>
      </trkpt>
      <trkpt lat="48.08006" lon="7.67996">
        <ele>409</ele>
        <time>2017-11-15T08:57:51Z</time>
      </trkpt>
      <trkpt lat="48.08007" lon="7.67995">
        <ele>407</ele>
        <time>2017-11-15T08:58:21Z</time>
      </trkpt>
      <trkpt lat="48.08011" lon="7.67995">
        <ele>407</ele>
        <time>2017-11-15T08:58:59Z</time>
      </trkpt>
      <trkpt lat="48.08019" lon="7.67993">
        <ele>406</ele>
        <time>2017-11-15T08:59:18Z</time>
      </trkpt>
      <trkpt lat="48.08041" lon="7.67983">
        <ele>408</ele>
        <time>2017-11-15T08:59:41Z</time>
      </trkpt>
      <trkpt lat="48.08076" lon="7.67971">
        <ele>405</ele>
        <time>2017-11-15T09:00:16Z</time>
      </trkpt>
      <trkpt lat="48.08087" lon="7.67972">
        <ele>401</ele>
        <time>2017-11-15T09:00:24Z</time>
      </trkpt>
      <trkpt lat="48.08095" lon="7.67977">
        <ele>401</ele>
        <time>2017-11-15T09:00:30Z</time>
      </trkpt>
      <trkpt lat="48.08104" lon="7.6799">
        <ele>406</ele>
        <time>2017-11-15T09:00:40Z</time>
      </trkpt>
      <trkpt lat="48.08112" lon="7.68005">
        <ele>409</ele>
        <time>2017-11-15T09:00:50Z</time>
      </trkpt>
      <trkpt lat="48.08112" lon="7.6801">
        <ele>415</ele>
        <time>2017-11-15T09:01:23Z</time>
      </trkpt>
      <trkpt lat="48.08112" lon="7.68019">
        <ele>415</ele>
        <time>2017-11-15T09:02:31Z</time>
      </trkpt>
      <trkpt lat="48.08112" lon="7.68029">
        <ele>410</ele>
        <time>2017-11-15T09:02:35Z</time>
      </trkpt>
      <trkpt lat="48.08112" lon="7.68039">
        <ele>409</ele>
        <time>2017-11-15T09:02:39Z</time>
      </trkpt>
      <trkpt lat="48.08114" lon="7.68048">
        <ele>410</ele>
        <time>2017-11-15T09:02:44Z</time>
      </trkpt>
      <trkpt lat="48.08116" lon="7.68061">
        <ele>411</ele>
        <time>2017-11-15T09:02:51Z</time>
      </trkpt>
      <trkpt lat="48.08121" lon="7.68081">
        <ele>405</ele>
        <time>2017-11-15T09:03:03Z</time>
      </trkpt>
      <trkpt lat="48.08124" lon="7.68111">
        <ele>399</ele>
        <time>2017-11-15T09:03:21Z</time>
      </trkpt>
      <trkpt lat="48.08127" lon="7.68125">
        <ele>404</ele>
        <time>2017-11-15T09:03:27Z</time>
      </trkpt>
      <trkpt lat="48.08146" lon="7.68165">
        <ele>405</ele>
        <time>2017-11-15T09:03:51Z</time>
      </trkpt>
      <trkpt lat="48.08168" lon="7.68178">
        <ele>404</ele>
        <time>2017-11-15T09:04:06Z</time>
      </trkpt>
      <trkpt lat="48.08184" lon="7.68196">
        <ele>402</ele>
        <time>2017-11-15T09:04:22Z</time>
      </trkpt>
      <trkpt lat="48.08193" lon="7.68204">
        <ele>406</ele>
        <time>2017-11-15T09:04:29Z</time>
      </trkpt>
      <trkpt lat="48.082" lon="7.68214">
        <ele>406</ele>
        <time>2017-11-15T09:04:36Z</time>
      </trkpt>
      <trkpt lat="48.08208" lon="7.68217">
        <ele>404</ele>
        <time>2017-11-15T09:04:41Z</time>
      </trkpt>
      <trkpt lat="48.08218" lon="7.68214">
        <ele>407</ele>
        <time>2017-11-15T09:04:50Z</time>
      </trkpt>
      <trkpt lat="48.08238" lon="7.68211">
        <ele>413</ele>
        <time>2017-11-15T09:05:05Z</time>
      </trkpt>
      <trkpt lat="48.08246" lon="7.68211">
        <ele>416</ele>
        <time>2017-11-15T09:05:17Z</time>
      </trkpt>
      <trkpt lat="48.08254" lon="7.6822">
        <ele>417</ele>
        <time>2017-11-15T09:05:28Z</time>
      </trkpt>
      <trkpt lat="48.08261" lon="7.68231">
        <ele>418</ele>
        <time>2017-11-15T09:05:35Z</time>
      </trkpt>
      <trkpt lat="48.08269" lon="7.68244">
        <ele>418</ele>
        <time>2017-11-15T09:05:48Z</time>
      </trkpt>
      <trkpt lat="48.08274" lon="7.68255">
        <ele>421</ele>
        <time>2017-11-15T09:05:55Z</time>
      </trkpt>
      <trkpt lat="48.0828" lon="7.68264">
        <ele>419</ele>
        <time>2017-11-15T09:06:01Z</time>
      </trkpt>
      <trkpt lat="48.08285" lon="7.68277">
        <ele>419</ele>
        <time>2017-11-15T09:06:05Z</time>
      </trkpt>
      <trkpt lat="48.08292" lon="7.68282">
        <ele>421</ele>
        <time>2017-11-15T09:06:10Z</time>
      </trkpt>
      <trkpt lat="48.08306" lon="7.68285">
        <ele>418</ele>
        <time>2017-11-15T09:06:24Z</time>
      </trkpt>
      <trkpt lat="48.08314" lon="7.68291">
        <ele>417</ele>
        <time>2017-11-15T09:06:35Z</time>
      </trkpt>
      <trkpt lat="48.08319" lon="7.68301">
        <ele>417</ele>
        <time>2017-11-15T09:06:42Z</time>
      </trkpt>
      <trkpt lat="48.08326" lon="7.68315">
        <ele>415</ele>
        <time>2017-11-15T09:06:55Z</time>
      </trkpt>
      <trkpt lat="48.08329" lon="7.68333">
        <ele>413</ele>
        <time>2017-11-15T09:07:04Z</time>
      </trkpt>
      <trkpt lat="48.0833" lon="7.68349">
        <ele>418</ele>
        <time>2017-11-15T09:07:15Z</time>
      </trkpt>
      <trkpt lat="48.08327" lon="7.68364">
        <ele>419</ele>
        <time>2017-11-15T09:07:21Z</time>
      </trkpt>
      <trkpt lat="48.08323" lon="7.6842">
        <ele>417</ele>
        <time>2017-11-15T09:07:51Z</time>
      </trkpt>
      <trkpt lat="48.08315" lon="7.68456">
        <ele>416</ele>
        <time>2017-11-15T09:08:11Z</time>
      </trkpt>
      <trkpt lat="48.08313" lon="7.68473">
        <ele>415</ele>
        <time>2017-11-15T09:08:22Z</time>
      </trkpt>
      <trkpt lat="48.08311" lon="7.6849">
        <ele>418</ele>
        <time>2017-11-15T09:08:30Z</time>
      </trkpt>
      <trkpt lat="48.08313" lon="7.68504">
        <ele>417</ele>
        <time>2017-11-15T09:08:38Z</time>
      </trkpt>
      <trkpt lat="48.08317" lon="7.68522">
        <ele>415</ele>
        <time>2017-11-15T09:08:49Z</time>
      </trkpt>
      <trkpt lat="48.08316" lon="7.68532">
        <ele>419</ele>
        <time>2017-11-15T09:08:56Z</time>
      </trkpt>
      <trkpt lat="48.08318" lon="7.68541">
        <ele>422</ele>
        <time>2017-11-15T09:09:01Z</time>
      </trkpt>
      <trkpt lat="48.08313" lon="7.68568">
        <ele>420</ele>
        <time>2017-11-15T09:09:17Z</time>
      </trkpt>
      <trkpt lat="48.08313" lon="7.68577">
        <ele>419</ele>
        <time>2017-11-15T09:09:23Z</time>
      </trkpt>
      <trkpt lat="48.08315" lon="7.68592">
        <ele>417</ele>
        <time>2017-11-15T09:09:31Z</time>
      </trkpt>
      <trkpt lat="48.08319" lon="7.68614">
        <ele>419</ele>
        <time>2017-11-15T09:09:43Z</time>
      </trkpt>
      <trkpt lat="48.08327" lon="7.68623">
        <ele>421</ele>
        <time>2017-11-15T09:09:56Z</time>
      </trkpt>
      <trkpt lat="48.08356" lon="7.68621">
        <ele>419</ele>
        <time>2017-11-15T09:10:19Z</time>
      </trkpt>
      <trkpt lat="48.08363" lon="7.68619">
        <ele>419</ele>
        <time>2017-11-15T09:10:26Z</time>
      </trkpt>
      <trkpt lat="48.0837" lon="7.68618">
        <ele>417</ele>
        <time>2017-11-15T09:10:33Z</time>
      </trkpt>
      <trkpt lat="48.08391" lon="7.68621">
        <ele>412</ele>
        <time>2017-11-15T09:10:52Z</time>
      </trkpt>
      <trkpt lat="48.08401" lon="7.68624">
        <ele>411</ele>
        <time>2017-11-15T09:10:59Z</time>
      </trkpt>
      <trkpt lat="48.0841" lon="7.68629">
        <ele>409</ele>
        <time>2017-11-15T09:11:07Z</time>
      </trkpt>
      <trkpt lat="48.08419" lon="7.68633">
        <ele>408</ele>
        <time>2017-11-15T09:11:14Z</time>
      </trkpt>
      <trkpt lat="48.08434" lon="7.68652">
        <ele>416</ele>
        <time>2017-11-15T09:11:29Z</time>
      </trkpt>
      <trkpt lat="48.08444" lon="7.68658">
        <ele>422</ele>
        <time>2017-11-15T09:11:38Z</time>
      </trkpt>
      <trkpt lat="48.08459" lon="7.68686">
        <ele>424</ele>
        <time>2017-11-15T09:11:53Z</time>
      </trkpt>
      <trkpt lat="48.08462" lon="7.68694">
        <ele>427</ele>
        <time>2017-11-15T09:11:57Z</time>
      </trkpt>
      <trkpt lat="48.08466" lon="7.68704">
        <ele>425</ele>
        <time>2017-11-15T09:12:05Z</time>
      </trkpt>
      <trkpt lat="48.08476" lon="7.68719">
        <ele>419</ele>
        <time>2017-11-15T09:12:17Z</time>
      </trkpt>
      <trkpt lat="48.08482" lon="7.68734">
        <ele>421</ele>
        <time>2017-11-15T09:12:28Z</time>
      </trkpt>
      <trkpt lat="48.0849" lon="7.68746">
        <ele>416</ele>
        <time>2017-11-15T09:12:38Z</time>
      </trkpt>
      <trkpt lat="48.08497" lon="7.68753">
        <ele>412</ele>
        <time>2017-11-15T09:12:45Z</time>
      </trkpt>
      <trkpt lat="48.08534" lon="7.68798">
        <ele>413</ele>
        <time>2017-11-15T09:13:20Z</time>
      </trkpt>
      <trkpt lat="48.0854" lon="7.68808">
        <ele>412</ele>
        <time>2017-11-15T09:13:26Z</time>
      </trkpt>
      <trkpt lat="48.08548" lon="7.68832">
        <ele>409</ele>
        <time>2017-11-15T09:13:42Z</time>
      </trkpt>
      <trkpt lat="48.08554" lon="7.68844">
        <ele>409</ele>
        <time>2017-11-15T09:13:49Z</time>
      </trkpt>
      <trkpt lat="48.08557" lon="7.6885">
        <ele>410</ele>
        <time>2017-11-15T09:13:53Z</time>
      </trkpt>
      <trkpt lat="48.08555" lon="7.68847">
        <ele>407</ele>
        <time>2017-11-15T09:15:38Z</time>
      </trkpt>
      <trkpt lat="48.08556" lon="7.68855">
        <ele>406</ele>
        <time>2017-11-15T09:16:27Z</time>
      </trkpt>
      <trkpt lat="48.08558" lon="7.68861">
        <ele>406</ele>
        <time>2017-11-15T09:24:45Z</time>
      </trkpt>
      <trkpt lat="48.08555" lon="7.68865">
        <ele>406</ele>
        <time>2017-11-15T09:25:37Z</time>
      </trkpt>
      <trkpt lat="48.08554" lon="7.68872">
        <ele>404</ele>
        <time>2017-11-15T09:26:32Z</time>
      </trkpt>
      <trkpt lat="48.08553" lon="7.68888">
        <ele>403</ele>
        <time>2017-11-15T09:26:40Z</time>
      </trkpt>
      <trkpt lat="48.08556" lon="7.68924">
        <ele>400</ele>
        <time>2017-11-15T09:26:57Z</time>
      </trkpt>
      <trkpt lat="48.08563" lon="7.68942">
        <ele>401</ele>
        <time>2017-11-15T09:27:08Z</time>
      </trkpt>
      <trkpt lat="48.0856" lon="7.68936">
        <ele>400</ele>
        <time>2017-11-15T09:27:17Z</time>
      </trkpt>
      <trkpt lat="48.08561" lon="7.68937">
        <ele>400</ele>
        <time>2017-11-15T09:27:37Z</time>
      </trkpt>
      <trkpt lat="48.08576" lon="7.68973">
        <ele>401</ele>
        <time>2017-11-15T09:27:56Z</time>
      </trkpt>
      <trkpt lat="48.08579" lon="7.68988">
        <ele>401</ele>
        <time>2017-11-15T09:28:03Z</time>
      </trkpt>
      <trkpt lat="48.08582" lon="7.69017">
        <ele>399</ele>
        <time>2017-11-15T09:28:16Z</time>
      </trkpt>
      <trkpt lat="48.08594" lon="7.6909">
        <ele>394</ele>
        <time>2017-11-15T09:28:47Z</time>
      </trkpt>
      <trkpt lat="48.08596" lon="7.69097">
        <ele>394</ele>
        <time>2017-11-15T09:28:50Z</time>
      </trkpt>
      <trkpt lat="48.08596" lon="7.69111">
        <ele>394</ele>
        <time>2017-11-15T09:28:56Z</time>
      </trkpt>
      <trkpt lat="48.08597" lon="7.69126">
        <ele>394</ele>
        <time>2017-11-15T09:29:02Z</time>
      </trkpt>
      <trkpt lat="48.08598" lon="7.69141">
        <ele>393</ele>
        <time>2017-11-15T09:29:08Z</time>
      </trkpt>
      <trkpt lat="48.08596" lon="7.69147">
        <ele>392</ele>
        <time>2017-11-15T09:29:11Z</time>
      </trkpt>
      <trkpt lat="48.08588" lon="7.69157">
        <ele>390</ele>
        <time>2017-11-15T09:29:17Z</time>
      </trkpt>
      <trkpt lat="48.0856" lon="7.69172">
        <ele>386</ele>
        <time>2017-11-15T09:29:35Z</time>
      </trkpt>
      <trkpt lat="48.08531" lon="7.69211">
        <ele>382</ele>
        <time>2017-11-15T09:29:59Z</time>
      </trkpt>
      <trkpt lat="48.08529" lon="7.69217">
        <ele>382</ele>
        <time>2017-11-15T09:30:02Z</time>
      </trkpt>
      <trkpt lat="48.08529" lon="7.69225">
        <ele>382</ele>
        <time>2017-11-15T09:30:05Z</time>
      </trkpt>
      <trkpt lat="48.08533" lon="7.6923">
        <ele>382</ele>
        <time>2017-11-15T09:30:08Z</time>
      </trkpt>
      <trkpt lat="48.08555" lon="7.69216">
        <ele>379</ele>
        <time>2017-11-15T09:30:24Z</time>
      </trkpt>
      <trkpt lat="48.08584" lon="7.69204">
        <ele>378</ele>
        <time>2017-11-15T09:30:43Z</time>
      </trkpt>
      <trkpt lat="48.08619" lon="7.69221">
        <ele>376</ele>
        <time>2017-11-15T09:31:10Z</time>
      </trkpt>
      <trkpt lat="48.0863" lon="7.69228">
        <ele>373</ele>
        <time>2017-11-15T09:31:17Z</time>
      </trkpt>
      <trkpt lat="48.08642" lon="7.6923">
        <ele>371</ele>
        <time>2017-11-15T09:31:24Z</time>
      </trkpt>
      <trkpt lat="48.08647" lon="7.69232">
        <ele>371</ele>
        <time>2017-11-15T09:31:27Z</time>
      </trkpt>
      <trkpt lat="48.08652" lon="7.69228">
        <ele>370</ele>
        <time>2017-11-15T09:33:19Z</time>
      </trkpt>
      <trkpt lat="48.08664" lon="7.6922">
        <ele>371</ele>
        <time>2017-11-15T09:33:31Z</time>
      </trkpt>
      <trkpt lat="48.08667" lon="7.69214">
        <ele>372</ele>
        <time>2017-11-15T09:33:36Z</time>
      </trkpt>
      <trkpt lat="48.08659" lon="7.69196">
        <ele>374</ele>
        <time>2017-11-15T09:33:48Z</time>
      </trkpt>
      <trkpt lat="48.08656" lon="7.69183">
        <ele>375</ele>
        <time>2017-11-15T09:33:56Z</time>
      </trkpt>
      <trkpt lat="48.08659" lon="7.69133">
        <ele>382</ele>
        <time>2017-11-15T09:34:26Z</time>
      </trkpt>
      <trkpt lat="48.08662" lon="7.69119">
        <ele>384</ele>
        <time>2017-11-15T09:34:35Z</time>
      </trkpt>
      <trkpt lat="48.08667" lon="7.691">
        <ele>389</ele>
        <time>2017-11-15T09:34:51Z</time>
      </trkpt>
      <trkpt lat="48.08675" lon="7.69082">
        <ele>390</ele>
        <time>2017-11-15T09:35:05Z</time>
      </trkpt>
      <trkpt lat="48.08681" lon="7.69072">
        <ele>392</ele>
        <time>2017-11-15T09:35:16Z</time>
      </trkpt>
      <trkpt lat="48.08685" lon="7.69068">
        <ele>393</ele>
        <time>2017-11-15T09:35:21Z</time>
      </trkpt>
      <trkpt lat="48.0869" lon="7.69067">
        <ele>393</ele>
        <time>2017-11-15T09:35:26Z</time>
      </trkpt>
      <trkpt lat="48.08708" lon="7.69068">
        <ele>395</ele>
        <time>2017-11-15T09:35:47Z</time>
      </trkpt>
      <trkpt lat="48.08713" lon="7.69069">
        <ele>395</ele>
        <time>2017-11-15T09:35:52Z</time>
      </trkpt>
      <trkpt lat="48.08721" lon="7.69073">
        <ele>397</ele>
        <time>2017-11-15T09:36:01Z</time>
      </trkpt>
      <trkpt lat="48.08727" lon="7.69084">
        <ele>398</ele>
        <time>2017-11-15T09:36:11Z</time>
      </trkpt>
      <trkpt lat="48.08753" lon="7.69114">
        <ele>405</ele>
        <time>2017-11-15T09:36:42Z</time>
      </trkpt>
      <trkpt lat="48.08767" lon="7.69133">
        <ele>406</ele>
        <time>2017-11-15T09:36:58Z</time>
      </trkpt>
      <trkpt lat="48.08775" lon="7.6915">
        <ele>405</ele>
        <time>2017-11-15T09:37:11Z</time>
      </trkpt>
      <trkpt lat="48.08807" lon="7.69178">
        <ele>407</ele>
        <time>2017-11-15T09:37:42Z</time>
      </trkpt>
      <trkpt lat="48.08835" lon="7.69203">
        <ele>412</ele>
        <time>2017-11-15T09:38:12Z</time>
      </trkpt>
      <trkpt lat="48.0886" lon="7.6922">
        <ele>417</ele>
        <time>2017-11-15T09:38:43Z</time>
      </trkpt>
      <trkpt lat="48.08869" lon="7.69227">
        <ele>417</ele>
        <time>2017-11-15T09:38:54Z</time>
      </trkpt>
      <trkpt lat="48.08877" lon="7.69233">
        <ele>418</ele>
        <time>2017-11-15T09:39:05Z</time>
      </trkpt>
      <trkpt lat="48.08895" lon="7.69254">
        <ele>424</ele>
        <time>2017-11-15T09:39:38Z</time>
      </trkpt>
      <trkpt lat="48.08903" lon="7.69262">
        <ele>426</ele>
        <time>2017-11-15T09:39:49Z</time>
      </trkpt>
      <trkpt lat="48.08919" lon="7.69273">
        <ele>429</ele>
        <time>2017-11-15T09:40:09Z</time>
      </trkpt>
      <trkpt lat="48.08927" lon="7.69281">
        <ele>431</ele>
        <time>2017-11-15T09:40:19Z</time>
      </trkpt>
      <trkpt lat="48.08935" lon="7.69288">
        <ele>433</ele>
        <time>2017-11-15T09:40:29Z</time>
      </trkpt>
      <trkpt lat="48.08951" lon="7.693">
        <ele>436</ele>
        <time>2017-11-15T09:40:50Z</time>
      </trkpt>
      <trkpt lat="48.08958" lon="7.69306">
        <ele>438</ele>
        <time>2017-11-15T09:41:00Z</time>
      </trkpt>
      <trkpt lat="48.08977" lon="7.69314">
        <ele>444</ele>
        <time>2017-11-15T09:41:23Z</time>
      </trkpt>
      <trkpt lat="48.08992" lon="7.69318">
        <ele>447</ele>
        <time>2017-11-15T09:41:37Z</time>
      </trkpt>
      <trkpt lat="48.09" lon="7.69323">
        <ele>447</ele>
        <time>2017-11-15T09:41:47Z</time>
      </trkpt>
      <trkpt lat="48.08997" lon="7.69318">
        <ele>447</ele>
        <time>2017-11-15T09:41:54Z</time>
      </trkpt>
      <trkpt lat="48.08998" lon="7.69319">
        <ele>445</ele>
        <time>2017-11-15T09:43:51Z</time>
      </trkpt>
      <trkpt lat="48.09003" lon="7.6932">
        <ele>444</ele>
        <time>2017-11-15T09:43:58Z</time>
      </trkpt>
      <trkpt lat="48.09007" lon="7.69324">
        <ele>445</ele>
        <time>2017-11-15T09:44:05Z</time>
      </trkpt>
      <trkpt lat="48.09011" lon="7.69327">
        <ele>445</ele>
        <time>2017-11-15T09:44:10Z</time>
      </trkpt>
      <trkpt lat="48.09015" lon="7.6933">
        <ele>445</ele>
        <time>2017-11-15T09:44:13Z</time>
      </trkpt>
      <trkpt lat="48.09019" lon="7.69334">
        <ele>445</ele>
        <time>2017-11-15T09:44:17Z</time>
      </trkpt>
      <trkpt lat="48.09022" lon="7.69339">
        <ele>444</ele>
        <time>2017-11-15T09:44:21Z</time>
      </trkpt>
      <trkpt lat="48.0903" lon="7.69348">
        <ele>445</ele>
        <time>2017-11-15T09:44:29Z</time>
      </trkpt>
      <trkpt lat="48.09048" lon="7.6937">
        <ele>446</ele>
        <time>2017-11-15T09:45:20Z</time>
      </trkpt>
      <trkpt lat="48.09053" lon="7.69369">
        <ele>445</ele>
        <time>2017-11-15T09:45:25Z</time>
      </trkpt>
      <trkpt lat="48.09058" lon="7.6937">
        <ele>444</ele>
        <time>2017-11-15T09:45:29Z</time>
      </trkpt>
      <trkpt lat="48.0907" lon="7.6938">
        <ele>445</ele>
        <time>2017-11-15T09:45:58Z</time>
      </trkpt>
      <trkpt lat="48.09075" lon="7.6938">
        <ele>445</ele>
        <time>2017-11-15T09:46:02Z</time>
      </trkpt>
      <trkpt lat="48.0908" lon="7.6938">
        <ele>445</ele>
        <time>2017-11-15T09:46:08Z</time>
      </trkpt>
      <trkpt lat="48.09084" lon="7.6938">
        <ele>445</ele>
        <time>2017-11-15T09:46:17Z</time>
      </trkpt>
      <trkpt lat="48.09089" lon="7.69377">
        <ele>444</ele>
        <time>2017-11-15T09:46:22Z</time>
      </trkpt>
      <trkpt lat="48.09092" lon="7.69371">
        <ele>445</ele>
        <time>2017-11-15T09:46:26Z</time>
      </trkpt>
      <trkpt lat="48.09094" lon="7.69365">
        <ele>444</ele>
        <time>2017-11-15T09:46:30Z</time>
      </trkpt>
      <trkpt lat="48.09118" lon="7.69361">
        <ele>440</ele>
        <time>2017-11-15T09:46:54Z</time>
      </trkpt>
      <trkpt lat="48.09122" lon="7.69359">
        <ele>440</ele>
        <time>2017-11-15T09:46:59Z</time>
      </trkpt>
      <trkpt lat="48.09132" lon="7.69357">
        <ele>440</ele>
        <time>2017-11-15T09:47:07Z</time>
      </trkpt>
      <trkpt lat="48.09142" lon="7.69359">
        <ele>439</ele>
        <time>2017-11-15T09:47:17Z</time>
      </trkpt>
      <trkpt lat="48.09152" lon="7.6936">
        <ele>439</ele>
        <time>2017-11-15T09:47:27Z</time>
      </trkpt>
      <trkpt lat="48.09166" lon="7.69358">
        <ele>441</ele>
        <time>2017-11-15T09:47:41Z</time>
      </trkpt>
      <trkpt lat="48.09183" lon="7.6936">
        <ele>447</ele>
        <time>2017-11-15T09:48:13Z</time>
      </trkpt>
      <trkpt lat="48.09187" lon="7.69358">
        <ele>450</ele>
        <time>2017-11-15T09:48:18Z</time>
      </trkpt>
      <trkpt lat="48.09191" lon="7.69356">
        <ele>451</ele>
        <time>2017-11-15T09:48:25Z</time>
      </trkpt>
      <trkpt lat="48.0921" lon="7.69349">
        <ele>456</ele>
        <time>2017-11-15T09:48:49Z</time>
      </trkpt>
      <trkpt lat="48.09213" lon="7.69352">
        <ele>456</ele>
        <time>2017-11-15T09:48:53Z</time>
      </trkpt>
      <trkpt lat="48.09218" lon="7.69351">
        <ele>456</ele>
        <time>2017-11-15T09:48:57Z</time>
      </trkpt>
      <trkpt lat="48.09214" lon="7.69346">
        <ele>456</ele>
        <time>2017-11-15T09:49:11Z</time>
      </trkpt>
      <trkpt lat="48.0921" lon="7.69343">
        <ele>455</ele>
        <time>2017-11-15T09:49:17Z</time>
      </trkpt>
      <trkpt lat="48.09214" lon="7.69339">
        <ele>454</ele>
        <time>2017-11-15T09:49:22Z</time>
      </trkpt>
      <trkpt lat="48.09227" lon="7.6934">
        <ele>450</ele>
        <time>2017-11-15T09:49:38Z</time>
      </trkpt>
      <trkpt lat="48.09232" lon="7.6934">
        <ele>449</ele>
        <time>2017-11-15T09:49:43Z</time>
      </trkpt>
      <trkpt lat="48.09242" lon="7.6934">
        <ele>447</ele>
        <time>2017-11-15T09:49:52Z</time>
      </trkpt>
      <trkpt lat="48.09247" lon="7.69341">
        <ele>447</ele>
        <time>2017-11-15T09:49:57Z</time>
      </trkpt>
      <trkpt lat="48.09251" lon="7.69337">
        <ele>446</ele>
        <time>2017-11-15T09:50:06Z</time>
      </trkpt>
      <trkpt lat="48.09255" lon="7.69333">
        <ele>445</ele>
        <time>2017-11-15T09:50:13Z</time>
      </trkpt>
      <trkpt lat="48.09278" lon="7.69338">
        <ele>443</ele>
        <time>2017-11-15T09:50:46Z</time>
      </trkpt>
      <trkpt lat="48.09306" lon="7.69341">
        <ele>443</ele>
        <time>2017-11-15T09:51:09Z</time>
      </trkpt>
      <trkpt lat="48.0931" lon="7.69342">
        <ele>443</ele>
        <time>2017-11-15T09:51:14Z</time>
      </trkpt>
      <trkpt lat="48.09318" lon="7.69336">
        <ele>442</ele>
        <time>2017-11-15T09:51:27Z</time>
      </trkpt>
      <trkpt lat="48.09327" lon="7.69319">
        <ele>442</ele>
        <time>2017-11-15T09:51:41Z</time>
      </trkpt>
      <trkpt lat="48.09341" lon="7.69303">
        <ele>448</ele>
        <time>2017-11-15T09:52:06Z</time>
      </trkpt>
      <trkpt lat="48.09345" lon="7.69301">
        <ele>450</ele>
        <time>2017-11-15T09:52:15Z</time>
      </trkpt>
      <trkpt lat="48.09351" lon="7.69292">
        <ele>450</ele>
        <time>2017-11-15T09:52:25Z</time>
      </trkpt>
      <trkpt lat="48.09355" lon="7.69289">
        <ele>451</ele>
        <time>2017-11-15T09:52:31Z</time>
      </trkpt>
      <trkpt lat="48.09359" lon="7.69286">
        <ele>452</ele>
        <time>2017-11-15T09:56:13Z</time>
      </trkpt>
      <trkpt lat="48.09368" lon="7.69285">
        <ele>452</ele>
        <time>2017-11-15T09:56:26Z</time>
      </trkpt>
      <trkpt lat="48.09377" lon="7.69287">
        <ele>451</ele>
        <time>2017-11-15T09:56:34Z</time>
      </trkpt>
      <trkpt lat="48.09395" lon="7.69298">
        <ele>454</ele>
        <time>2017-11-15T09:56:54Z</time>
      </trkpt>
      <trkpt lat="48.09404" lon="7.69301">
        <ele>454</ele>
        <time>2017-11-15T09:57:04Z</time>
      </trkpt>
      <trkpt lat="48.09408" lon="7.69303">
        <ele>455</ele>
        <time>2017-11-15T09:57:08Z</time>
      </trkpt>
      <trkpt lat="48.09413" lon="7.69306">
        <ele>455</ele>
        <time>2017-11-15T09:57:13Z</time>
      </trkpt>
      <trkpt lat="48.09416" lon="7.69309">
        <ele>456</ele>
        <time>2017-11-15T09:57:17Z</time>
      </trkpt>
      <trkpt lat="48.09424" lon="7.69317">
        <ele>458</ele>
        <time>2017-11-15T09:57:26Z</time>
      </trkpt>
      <trkpt lat="48.09432" lon="7.69323">
        <ele>460</ele>
        <time>2017-11-15T09:57:37Z</time>
      </trkpt>
      <trkpt lat="48.09437" lon="7.69327">
        <ele>460</ele>
        <time>2017-11-15T09:57:42Z</time>
      </trkpt>
      <trkpt lat="48.09441" lon="7.69329">
        <ele>461</ele>
        <time>2017-11-15T09:57:47Z</time>
      </trkpt>
      <trkpt lat="48.09449" lon="7.69326">
        <ele>461</ele>
        <time>2017-11-15T09:57:59Z</time>
      </trkpt>
      <trkpt lat="48.09457" lon="7.6932">
        <ele>460</ele>
        <time>2017-11-15T09:58:11Z</time>
      </trkpt>
      <trkpt lat="48.09462" lon="7.6932">
        <ele>459</ele>
        <time>2017-11-15T09:58:15Z</time>
      </trkpt>
      <trkpt lat="48.09466" lon="7.69322">
        <ele>459</ele>
        <time>2017-11-15T09:58:19Z</time>
      </trkpt>
      <trkpt lat="48.09473" lon="7.69331">
        <ele>459</ele>
        <time>2017-11-15T09:58:29Z</time>
      </trkpt>
      <trkpt lat="48.0948" lon="7.69343">
        <ele>461</ele>
        <time>2017-11-15T09:58:38Z</time>
      </trkpt>
      <trkpt lat="48.09491" lon="7.69354">
        <ele>462</ele>
        <time>2017-11-15T09:58:51Z</time>
      </trkpt>
      <trkpt lat="48.09508" lon="7.69365">
        <ele>461</ele>
        <time>2017-11-15T09:59:07Z</time>
      </trkpt>
      <trkpt lat="48.09512" lon="7.69366">
        <ele>461</ele>
        <time>2017-11-15T09:59:16Z</time>
      </trkpt>
      <trkpt lat="48.09517" lon="7.69368">
        <ele>461</ele>
        <time>2017-11-15T09:59:25Z</time>
      </trkpt>
      <trkpt lat="48.09529" lon="7.6938">
        <ele>458</ele>
        <time>2017-11-15T09:59:36Z</time>
      </trkpt>
      <trkpt lat="48.09542" lon="7.69385">
        <ele>457</ele>
        <time>2017-11-15T09:59:51Z</time>
      </trkpt>
      <trkpt lat="48.09565" lon="7.69381">
        <ele>458</ele>
        <time>2017-11-15T10:00:12Z</time>
      </trkpt>
      <trkpt lat="48.09579" lon="7.69385">
        <ele>456</ele>
        <time>2017-11-15T10:00:27Z</time>
      </trkpt>
      <trkpt lat="48.09598" lon="7.69401">
        <ele>451</ele>
        <time>2017-11-15T10:00:57Z</time>
      </trkpt>
      <trkpt lat="48.09601" lon="7.69406">
        <ele>449</ele>
        <time>2017-11-15T10:01:01Z</time>
      </trkpt>
      <trkpt lat="48.09605" lon="7.6941">
        <ele>448</ele>
        <time>2017-11-15T10:01:05Z</time>
      </trkpt>
      <trkpt lat="48.09624" lon="7.69409">
        <ele>445</ele>
        <time>2017-11-15T10:01:36Z</time>
      </trkpt>
      <trkpt lat="48.09642" lon="7.6941">
        <ele>443</ele>
        <time>2017-11-15T10:01:56Z</time>
      </trkpt>
      <trkpt lat="48.09655" lon="7.69416">
        <ele>441</ele>
        <time>2017-11-15T10:02:08Z</time>
      </trkpt>
      <trkpt lat="48.09669" lon="7.69418">
        <ele>439</ele>
        <time>2017-11-15T10:02:22Z</time>
      </trkpt>
      <trkpt lat="48.09673" lon="7.69417">
        <ele>439</ele>
        <time>2017-11-15T10:02:27Z</time>
      </trkpt>
      <trkpt lat="48.09678" lon="7.69419">
        <ele>438</ele>
        <time>2017-11-15T10:02:32Z</time>
      </trkpt>
      <trkpt lat="48.09675" lon="7.69424">
        <ele>437</ele>
        <time>2017-11-15T10:02:38Z</time>
      </trkpt>
      <trkpt lat="48.09673" lon="7.6943">
        <ele>434</ele>
        <time>2017-11-15T10:02:45Z</time>
      </trkpt>
      <trkpt lat="48.09658" lon="7.69457">
        <ele>429</ele>
        <time>2017-11-15T10:03:10Z</time>
      </trkpt>
      <trkpt lat="48.0966" lon="7.69464">
        <ele>427</ele>
        <time>2017-11-15T10:03:18Z</time>
      </trkpt>
      <trkpt lat="48.09663" lon="7.69468">
        <ele>425</ele>
        <time>2017-11-15T10:03:24Z</time>
      </trkpt>
      <trkpt lat="48.09665" lon="7.69509">
        <ele>421</ele>
        <time>2017-11-15T10:03:51Z</time>
      </trkpt>
      <trkpt lat="48.09664" lon="7.69515">
        <ele>422</ele>
        <time>2017-11-15T10:03:55Z</time>
      </trkpt>
      <trkpt lat="48.09662" lon="7.69522">
        <ele>423</ele>
        <time>2017-11-15T10:03:59Z</time>
      </trkpt>
      <trkpt lat="48.09658" lon="7.69524">
        <ele>424</ele>
        <time>2017-11-15T10:04:05Z</time>
      </trkpt>
      <trkpt lat="48.09659" lon="7.69531">
        <ele>425</ele>
        <time>2017-11-15T10:04:20Z</time>
      </trkpt>
      <trkpt lat="48.09666" lon="7.69539">
        <ele>426</ele>
        <time>2017-11-15T10:04:30Z</time>
      </trkpt>
      <trkpt lat="48.09699" lon="7.69556">
        <ele>425</ele>
        <time>2017-11-15T10:05:01Z</time>
      </trkpt>
      <trkpt lat="48.09704" lon="7.69558">
        <ele>425</ele>
        <time>2017-11-15T10:05:05Z</time>
      </trkpt>
      <trkpt lat="48.09713" lon="7.69562">
        <ele>428</ele>
        <time>2017-11-15T10:05:17Z</time>
      </trkpt>
      <trkpt lat="48.09742" lon="7.69584">
        <ele>429</ele>
        <time>2017-11-15T10:05:46Z</time>
      </trkpt>
      <trkpt lat="48.09761" lon="7.69611">
        <ele>431</ele>
        <time>2017-11-15T10:06:11Z</time>
      </trkpt>
      <trkpt lat="48.09763" lon="7.69617">
        <ele>432</ele>
        <time>2017-11-15T10:06:16Z</time>
      </trkpt>
      <trkpt lat="48.09763" lon="7.69624">
        <ele>432</ele>
        <time>2017-11-15T10:06:21Z</time>
      </trkpt>
      <trkpt lat="48.09766" lon="7.69635">
        <ele>433</ele>
        <time>2017-11-15T10:06:32Z</time>
      </trkpt>
      <trkpt lat="48.09768" lon="7.69642">
        <ele>434</ele>
        <time>2017-11-15T10:06:39Z</time>
      </trkpt>
      <trkpt lat="48.0977" lon="7.69647">
        <ele>435</ele>
        <time>2017-11-15T10:06:44Z</time>
      </trkpt>
      <trkpt lat="48.09776" lon="7.69664">
        <ele>436</ele>
        <time>2017-11-15T10:06:59Z</time>
      </trkpt>
      <trkpt lat="48.09776" lon="7.69671">
        <ele>436</ele>
        <time>2017-11-15T10:07:04Z</time>
      </trkpt>
      <trkpt lat="48.09772" lon="7.69675">
        <ele>436</ele>
        <time>2017-11-15T10:07:10Z</time>
      </trkpt>
      <trkpt lat="48.09776" lon="7.69675">
        <ele>437</ele>
        <time>2017-11-15T10:11:28Z</time>
      </trkpt>
      <trkpt lat="48.0978" lon="7.69672">
        <ele>437</ele>
        <time>2017-11-15T10:11:37Z</time>
      </trkpt>
      <trkpt lat="48.09778" lon="7.69666">
        <ele>438</ele>
        <time>2017-11-15T10:11:43Z</time>
      </trkpt>
      <trkpt lat="48.0978" lon="7.69653">
        <ele>438</ele>
        <time>2017-11-15T10:11:55Z</time>
      </trkpt>
      <trkpt lat="48.09782" lon="7.69646">
        <ele>439</ele>
        <time>2017-11-15T10:12:04Z</time>
      </trkpt>
      <trkpt lat="48.09785" lon="7.69643">
        <ele>439</ele>
        <time>2017-11-15T10:12:08Z</time>
      </trkpt>
      <trkpt lat="48.09789" lon="7.69641">
        <ele>439</ele>
        <time>2017-11-15T10:12:12Z</time>
      </trkpt>
      <trkpt lat="48.09794" lon="7.6964">
        <ele>438</ele>
        <time>2017-11-15T10:12:25Z</time>
      </trkpt>
      <trkpt lat="48.09799" lon="7.6964">
        <ele>439</ele>
        <time>2017-11-15T10:15:53Z</time>
      </trkpt>
      <trkpt lat="48.09822" lon="7.69638">
        <ele>442</ele>
        <time>2017-11-15T10:16:19Z</time>
      </trkpt>
      <trkpt lat="48.09844" lon="7.69639">
        <ele>445</ele>
        <time>2017-11-15T10:16:43Z</time>
      </trkpt>
      <trkpt lat="48.09853" lon="7.69638">
        <ele>446</ele>
        <time>2017-11-15T10:16:57Z</time>
      </trkpt>
      <trkpt lat="48.09866" lon="7.69641">
        <ele>447</ele>
        <time>2017-11-15T10:17:10Z</time>
      </trkpt>
      <trkpt lat="48.09889" lon="7.69644">
        <ele>448</ele>
        <time>2017-11-15T10:17:35Z</time>
      </trkpt>
      <trkpt lat="48.09903" lon="7.69647">
        <ele>448</ele>
        <time>2017-11-15T10:17:47Z</time>
      </trkpt>
      <trkpt lat="48.09907" lon="7.69649">
        <ele>448</ele>
        <time>2017-11-15T10:17:52Z</time>
      </trkpt>
      <trkpt lat="48.09945" lon="7.69656">
        <ele>450</ele>
        <time>2017-11-15T10:18:26Z</time>
      </trkpt>
      <trkpt lat="48.09968" lon="7.69659">
        <ele>452</ele>
        <time>2017-11-15T10:18:46Z</time>
      </trkpt>
      <trkpt lat="48.09987" lon="7.69663">
        <ele>454</ele>
        <time>2017-11-15T10:19:03Z</time>
      </trkpt>
      <trkpt lat="48.09992" lon="7.69663">
        <ele>455</ele>
        <time>2017-11-15T10:19:11Z</time>
      </trkpt>
      <trkpt lat="48.1" lon="7.69665">
        <ele>456</ele>
        <time>2017-11-15T10:19:28Z</time>
      </trkpt>
      <trkpt lat="48.10017" lon="7.69669">
        <ele>462</ele>
        <time>2017-11-15T10:20:04Z</time>
      </trkpt>
      <trkpt lat="48.1004" lon="7.69671">
        <ele>465</ele>
        <time>2017-11-15T10:20:36Z</time>
      </trkpt>
      <trkpt lat="48.10068" lon="7.69681">
        <ele>469</ele>
        <time>2017-11-15T10:21:05Z</time>
      </trkpt>
      <trkpt lat="48.10077" lon="7.69681">
        <ele>471</ele>
        <time>2017-11-15T10:21:17Z</time>
      </trkpt>
      <trkpt lat="48.10081" lon="7.69677">
        <ele>471</ele>
        <time>2017-11-15T10:21:27Z</time>
      </trkpt>
      <trkpt lat="48.10081" lon="7.69671">
        <ele>471</ele>
        <time>2017-11-15T10:22:13Z</time>
      </trkpt>
      <trkpt lat="48.10075" lon="7.69661">
        <ele>471</ele>
        <time>2017-11-15T10:22:22Z</time>
      </trkpt>
      <trkpt lat="48.10071" lon="7.69659">
        <ele>470</ele>
        <time>2017-11-15T10:22:32Z</time>
      </trkpt>
      <trkpt lat="48.1005" lon="7.69615">
        <ele>468</ele>
        <time>2017-11-15T10:23:02Z</time>
      </trkpt>
      <trkpt lat="48.10042" lon="7.69591">
        <ele>468</ele>
        <time>2017-11-15T10:23:17Z</time>
      </trkpt>
      <trkpt lat="48.10039" lon="7.69585">
        <ele>468</ele>
        <time>2017-11-15T10:23:22Z</time>
      </trkpt>
      <trkpt lat="48.10032" lon="7.69533">
        <ele>467</ele>
        <time>2017-11-15T10:23:54Z</time>
      </trkpt>
      <trkpt lat="48.10028" lon="7.69506">
        <ele>468</ele>
        <time>2017-11-15T10:24:10Z</time>
      </trkpt>
      <trkpt lat="48.1003" lon="7.69501">
        <ele>468</ele>
        <time>2017-11-15T10:24:16Z</time>
      </trkpt>
      <trkpt lat="48.10031" lon="7.69487">
        <ele>469</ele>
        <time>2017-11-15T10:24:41Z</time>
      </trkpt>
      <trkpt lat="48.10029" lon="7.69481">
        <ele>469</ele>
        <time>2017-11-15T10:24:48Z</time>
      </trkpt>
      <trkpt lat="48.10026" lon="7.69483">
        <ele>470</ele>
        <time>2017-11-15T10:26:56Z</time>
      </trkpt>
      <trkpt lat="48.10026" lon="7.6949">
        <ele>470</ele>
        <time>2017-11-15T10:27:01Z</time>
      </trkpt>
      <trkpt lat="48.10026" lon="7.69489">
        <ele>470</ele>
        <time>2017-11-15T10:28:11Z</time>
      </trkpt>
      <trkpt lat="48.10025" lon="7.69483">
        <ele>470</ele>
        <time>2017-11-15T10:28:17Z</time>
      </trkpt>
      <trkpt lat="48.10022" lon="7.69478">
        <ele>469</ele>
        <time>2017-11-15T10:31:19Z</time>
      </trkpt>
      <trkpt lat="48.10025" lon="7.69479">
        <ele>470</ele>
        <time>2017-11-15T10:40:00Z</time>
      </trkpt>
      <trkpt lat="48.10024" lon="7.69486">
        <ele>470</ele>
        <time>2017-11-15T10:42:30Z</time>
      </trkpt>
      <trkpt lat="48.10032" lon="7.69498">
        <ele>471</ele>
        <time>2017-11-15T10:42:38Z</time>
      </trkpt>
      <trkpt lat="48.10027" lon="7.69495">
        <ele>473</ele>
        <time>2017-11-15T10:44:26Z</time>
      </trkpt>
      <trkpt lat="48.10025" lon="7.69489">
        <ele>473</ele>
        <time>2017-11-15T10:44:30Z</time>
      </trkpt>
      <trkpt lat="48.10024" lon="7.6949">
        <ele>470</ele>
        <time>2017-11-15T10:45:42Z</time>
      </trkpt>
      <trkpt lat="48.10026" lon="7.69505">
        <ele>467</ele>
        <time>2017-11-15T10:45:53Z</time>
      </trkpt>
      <trkpt lat="48.10025" lon="7.69512">
        <ele>468</ele>
        <time>2017-11-15T10:45:58Z</time>
      </trkpt>
      <trkpt lat="48.10026" lon="7.69518">
        <ele>467</ele>
        <time>2017-11-15T10:46:04Z</time>
      </trkpt>
      <trkpt lat="48.10031" lon="7.69546">
        <ele>467</ele>
        <time>2017-11-15T10:46:22Z</time>
      </trkpt>
      <trkpt lat="48.10042" lon="7.69591">
        <ele>467</ele>
        <time>2017-11-15T10:46:53Z</time>
      </trkpt>
      <trkpt lat="48.10056" lon="7.69636">
        <ele>468</ele>
        <time>2017-11-15T10:47:22Z</time>
      </trkpt>
      <trkpt lat="48.10075" lon="7.69682">
        <ele>471</ele>
        <time>2017-11-15T10:47:54Z</time>
      </trkpt>
      <trkpt lat="48.10079" lon="7.69687">
        <ele>471</ele>
        <time>2017-11-15T10:47:58Z</time>
      </trkpt>
      <trkpt lat="48.10083" lon="7.6969">
        <ele>472</ele>
        <time>2017-11-15T10:48:02Z</time>
      </trkpt>
      <trkpt lat="48.10114" lon="7.69699">
        <ele>473</ele>
        <time>2017-11-15T10:48:33Z</time>
      </trkpt>
      <trkpt lat="48.10119" lon="7.697">
        <ele>473</ele>
        <time>2017-11-15T10:48:37Z</time>
      </trkpt>
      <trkpt lat="48.1015" lon="7.69708">
        <ele>469</ele>
        <time>2017-11-15T10:49:07Z</time>
      </trkpt>
      <trkpt lat="48.10178" lon="7.69712">
        <ele>462</ele>
        <time>2017-11-15T10:49:32Z</time>
      </trkpt>
      <trkpt lat="48.10216" lon="7.69719">
        <ele>458</ele>
        <time>2017-11-15T10:50:03Z</time>
      </trkpt>
      <trkpt lat="48.10255" lon="7.69725">
        <ele>458</ele>
        <time>2017-11-15T10:50:35Z</time>
      </trkpt>
      <trkpt lat="48.10291" lon="7.6973">
        <ele>462</ele>
        <time>2017-11-15T10:51:06Z</time>
      </trkpt>
      <trkpt lat="48.10323" lon="7.69743">
        <ele>462</ele>
        <time>2017-11-15T10:51:36Z</time>
      </trkpt>
      <trkpt lat="48.10358" lon="7.69756">
        <ele>460</ele>
        <time>2017-11-15T10:52:04Z</time>
      </trkpt>
      <trkpt lat="48.10372" lon="7.69765">
        <ele>458</ele>
        <time>2017-11-15T10:52:16Z</time>
      </trkpt>
      <trkpt lat="48.10393" lon="7.69785">
        <ele>456</ele>
        <time>2017-11-15T10:52:37Z</time>
      </trkpt>
      <trkpt lat="48.10414" lon="7.69802">
        <ele>454</ele>
        <time>2017-11-15T10:52:59Z</time>
      </trkpt>
      <trkpt lat="48.1043" lon="7.69816">
        <ele>452</ele>
        <time>2017-11-15T10:53:14Z</time>
      </trkpt>
      <trkpt lat="48.10454" lon="7.69834">
        <ele>453</ele>
        <time>2017-11-15T10:53:40Z</time>
      </trkpt>
      <trkpt lat="48.10466" lon="7.69841">
        <ele>453</ele>
        <time>2017-11-15T10:53:51Z</time>
      </trkpt>
      <trkpt lat="48.10471" lon="7.69843">
        <ele>453</ele>
        <time>2017-11-15T10:53:58Z</time>
      </trkpt>
      <trkpt lat="48.10478" lon="7.69848">
        <ele>452</ele>
        <time>2017-11-15T10:54:06Z</time>
      </trkpt>
      <trkpt lat="48.10486" lon="7.6985">
        <ele>452</ele>
        <time>2017-11-15T10:54:12Z</time>
      </trkpt>
      <trkpt lat="48.10492" lon="7.69854">
        <ele>452</ele>
        <time>2017-11-15T10:54:20Z</time>
      </trkpt>
      <trkpt lat="48.10504" lon="7.6986">
        <ele>452</ele>
        <time>2017-11-15T10:54:35Z</time>
      </trkpt>
      <trkpt lat="48.10508" lon="7.69869">
        <ele>450</ele>
        <time>2017-11-15T10:54:43Z</time>
      </trkpt>
      <trkpt lat="48.10515" lon="7.69879">
        <ele>450</ele>
        <time>2017-11-15T10:54:51Z</time>
      </trkpt>
      <trkpt lat="48.10534" lon="7.69899">
        <ele>448</ele>
        <time>2017-11-15T10:55:09Z</time>
      </trkpt>
      <trkpt lat="48.10556" lon="7.69925">
        <ele>448</ele>
        <time>2017-11-15T10:55:24Z</time>
      </trkpt>
      <trkpt lat="48.10568" lon="7.69948">
        <ele>452</ele>
        <time>2017-11-15T10:55:44Z</time>
      </trkpt>
      <trkpt lat="48.1058" lon="7.69956">
        <ele>454</ele>
        <time>2017-11-15T10:55:56Z</time>
      </trkpt>
      <trkpt lat="48.10589" lon="7.6997">
        <ele>453</ele>
        <time>2017-11-15T10:56:06Z</time>
      </trkpt>
      <trkpt lat="48.10594" lon="7.69976">
        <ele>447</ele>
        <time>2017-11-15T10:56:19Z</time>
      </trkpt>
      <trkpt lat="48.10616" lon="7.69993">
        <ele>446</ele>
        <time>2017-11-15T10:56:34Z</time>
      </trkpt>
      <trkpt lat="48.10648" lon="7.70003">
        <ele>450</ele>
        <time>2017-11-15T10:56:53Z</time>
      </trkpt>
      <trkpt lat="48.10669" lon="7.7001">
        <ele>451</ele>
        <time>2017-11-15T10:57:05Z</time>
      </trkpt>
      <trkpt lat="48.10673" lon="7.70015">
        <ele>453</ele>
        <time>2017-11-15T10:57:10Z</time>
      </trkpt>
      <trkpt lat="48.10683" lon="7.70024">
        <ele>452</ele>
        <time>2017-11-15T10:57:19Z</time>
      </trkpt>
      <trkpt lat="48.10686" lon="7.70031">
        <ele>449</ele>
        <time>2017-11-15T10:57:25Z</time>
      </trkpt>
      <trkpt lat="48.1069" lon="7.70034">
        <ele>447</ele>
        <time>2017-11-15T10:57:30Z</time>
      </trkpt>
      <trkpt lat="48.10695" lon="7.70039">
        <ele>445</ele>
        <time>2017-11-15T10:57:34Z</time>
      </trkpt>
      <trkpt lat="48.10726" lon="7.70046">
        <ele>442</ele>
        <time>2017-11-15T10:58:00Z</time>
      </trkpt>
      <trkpt lat="48.10733" lon="7.70047">
        <ele>442</ele>
        <time>2017-11-15T10:58:06Z</time>
      </trkpt>
      <trkpt lat="48.1075" lon="7.70035">
        <ele>438</ele>
        <time>2017-11-15T10:58:23Z</time>
      </trkpt>
      <trkpt lat="48.10776" lon="7.70028">
        <ele>439</ele>
        <time>2017-11-15T10:59:38Z</time>
      </trkpt>
      <trkpt lat="48.10779" lon="7.70023">
        <ele>439</ele>
        <time>2017-11-15T10:59:42Z</time>
      </trkpt>
      <trkpt lat="48.10783" lon="7.70026">
        <ele>434</ele>
        <time>2017-11-15T11:00:19Z</time>
      </trkpt>
      <trkpt lat="48.10788" lon="7.70023">
        <ele>433</ele>
        <time>2017-11-15T11:00:23Z</time>
      </trkpt>
      <trkpt lat="48.108" lon="7.70021">
        <ele>433</ele>
        <time>2017-11-15T11:00:34Z</time>
      </trkpt>
      <trkpt lat="48.10805" lon="7.7002">
        <ele>433</ele>
        <time>2017-11-15T11:00:37Z</time>
      </trkpt>
      <trkpt lat="48.10809" lon="7.70017">
        <ele>434</ele>
        <time>2017-11-15T11:00:41Z</time>
      </trkpt>
      <trkpt lat="48.10819" lon="7.70018">
        <ele>435</ele>
        <time>2017-11-15T11:00:48Z</time>
      </trkpt>
      <trkpt lat="48.10823" lon="7.70015">
        <ele>436</ele>
        <time>2017-11-15T11:00:52Z</time>
      </trkpt>
      <trkpt lat="48.10832" lon="7.70015">
        <ele>441</ele>
        <time>2017-11-15T11:01:00Z</time>
      </trkpt>
      <trkpt lat="48.1086" lon="7.7002">
        <ele>443</ele>
        <time>2017-11-15T11:01:26Z</time>
      </trkpt>
      <trkpt lat="48.10864" lon="7.70016">
        <ele>444</ele>
        <time>2017-11-15T11:01:31Z</time>
      </trkpt>
      <trkpt lat="48.10867" lon="7.7001">
        <ele>443</ele>
        <time>2017-11-15T11:01:40Z</time>
      </trkpt>
      <trkpt lat="48.10879" lon="7.69981">
        <ele>443</ele>
        <time>2017-11-15T11:02:03Z</time>
      </trkpt>
      <trkpt lat="48.1088" lon="7.69968">
        <ele>444</ele>
        <time>2017-11-15T11:02:11Z</time>
      </trkpt>
      <trkpt lat="48.10885" lon="7.69947">
        <ele>449</ele>
        <time>2017-11-15T11:02:25Z</time>
      </trkpt>
      <trkpt lat="48.10906" lon="7.69955">
        <ele>451</ele>
        <time>2017-11-15T11:02:48Z</time>
      </trkpt>
      <trkpt lat="48.10909" lon="7.69959">
        <ele>452</ele>
        <time>2017-11-15T11:02:53Z</time>
      </trkpt>
      <trkpt lat="48.10919" lon="7.69965">
        <ele>453</ele>
        <time>2017-11-15T11:03:02Z</time>
      </trkpt>
      <trkpt lat="48.10927" lon="7.6997">
        <ele>453</ele>
        <time>2017-11-15T11:03:10Z</time>
      </trkpt>
      <trkpt lat="48.10928" lon="7.69976">
        <ele>453</ele>
        <time>2017-11-15T11:03:16Z</time>
      </trkpt>
      <trkpt lat="48.10931" lon="7.69981">
        <ele>452</ele>
        <time>2017-11-15T11:03:25Z</time>
      </trkpt>
      <trkpt lat="48.10936" lon="7.69979">
        <ele>451</ele>
        <time>2017-11-15T11:03:49Z</time>
      </trkpt>
      <trkpt lat="48.10964" lon="7.70004">
        <ele>456</ele>
        <time>2017-11-15T11:04:13Z</time>
      </trkpt>
      <trkpt lat="48.10969" lon="7.70006">
        <ele>457</ele>
        <time>2017-11-15T11:04:17Z</time>
      </trkpt>
      <trkpt lat="48.10998" lon="7.70003">
        <ele>458</ele>
        <time>2017-11-15T11:04:39Z</time>
      </trkpt>
      <trkpt lat="48.1102" lon="7.69995">
        <ele>456</ele>
        <time>2017-11-15T11:05:01Z</time>
      </trkpt>
      <trkpt lat="48.11032" lon="7.69984">
        <ele>456</ele>
        <time>2017-11-15T11:05:11Z</time>
      </trkpt>
      <trkpt lat="48.11037" lon="7.69985">
        <ele>456</ele>
        <time>2017-11-15T11:05:15Z</time>
      </trkpt>
      <trkpt lat="48.11048" lon="7.69971">
        <ele>455</ele>
        <time>2017-11-15T11:05:27Z</time>
      </trkpt>
      <trkpt lat="48.11051" lon="7.69966">
        <ele>455</ele>
        <time>2017-11-15T11:05:31Z</time>
      </trkpt>
      <trkpt lat="48.1107" lon="7.69949">
        <ele>456</ele>
        <time>2017-11-15T11:05:47Z</time>
      </trkpt>
      <trkpt lat="48.11087" lon="7.69935">
        <ele>455</ele>
        <time>2017-11-15T11:06:05Z</time>
      </trkpt>
      <trkpt lat="48.11096" lon="7.69926">
        <ele>454</ele>
        <time>2017-11-15T11:06:14Z</time>
      </trkpt>
      <trkpt lat="48.111" lon="7.69921">
        <ele>453</ele>
        <time>2017-11-15T11:06:19Z</time>
      </trkpt>
      <trkpt lat="48.11103" lon="7.69914">
        <ele>454</ele>
        <time>2017-11-15T11:06:24Z</time>
      </trkpt>
      <trkpt lat="48.11106" lon="7.69909">
        <ele>456</ele>
        <time>2017-11-15T11:06:28Z</time>
      </trkpt>
      <trkpt lat="48.11114" lon="7.69897">
        <ele>456</ele>
        <time>2017-11-15T11:06:38Z</time>
      </trkpt>
      <trkpt lat="48.11118" lon="7.6989">
        <ele>453</ele>
        <time>2017-11-15T11:06:43Z</time>
      </trkpt>
      <trkpt lat="48.11126" lon="7.69883">
        <ele>451</ele>
        <time>2017-11-15T11:06:52Z</time>
      </trkpt>
      <trkpt lat="48.11133" lon="7.69871">
        <ele>452</ele>
        <time>2017-11-15T11:07:00Z</time>
      </trkpt>
      <trkpt lat="48.11141" lon="7.69862">
        <ele>453</ele>
        <time>2017-11-15T11:07:08Z</time>
      </trkpt>
      <trkpt lat="48.11143" lon="7.69867">
        <ele>452</ele>
        <time>2017-11-15T11:08:31Z</time>
      </trkpt>
      <trkpt lat="48.11147" lon="7.69863">
        <ele>448</ele>
        <time>2017-11-15T11:09:09Z</time>
      </trkpt>
      <trkpt lat="48.11151" lon="7.6986">
        <ele>447</ele>
        <time>2017-11-15T11:09:16Z</time>
      </trkpt>
      <trkpt lat="48.11159" lon="7.69855">
        <ele>446</ele>
        <time>2017-11-15T11:09:24Z</time>
      </trkpt>
      <trkpt lat="48.11167" lon="7.69847">
        <ele>446</ele>
        <time>2017-11-15T11:09:35Z</time>
      </trkpt>
      <trkpt lat="48.11172" lon="7.69846">
        <ele>444</ele>
        <time>2017-11-15T11:09:42Z</time>
      </trkpt>
      <trkpt lat="48.11178" lon="7.69842">
        <ele>443</ele>
        <time>2017-11-15T11:09:46Z</time>
      </trkpt>
      <trkpt lat="48.11185" lon="7.6984">
        <ele>440</ele>
        <time>2017-11-15T11:09:54Z</time>
      </trkpt>
      <trkpt lat="48.11197" lon="7.69829">
        <ele>440</ele>
        <time>2017-11-15T11:10:05Z</time>
      </trkpt>
      <trkpt lat="48.11208" lon="7.69815">
        <ele>441</ele>
        <time>2017-11-15T11:10:14Z</time>
      </trkpt>
      <trkpt lat="48.11216" lon="7.69796">
        <ele>447</ele>
        <time>2017-11-15T11:10:24Z</time>
      </trkpt>
      <trkpt lat="48.1122" lon="7.69783">
        <ele>449</ele>
        <time>2017-11-15T11:10:32Z</time>
      </trkpt>
      <trkpt lat="48.11219" lon="7.69734">
        <ele>448</ele>
        <time>2017-11-15T11:11:06Z</time>
      </trkpt>
      <trkpt lat="48.11221" lon="7.69715">
        <ele>446</ele>
        <time>2017-11-15T11:11:21Z</time>
      </trkpt>
      <trkpt lat="48.11222" lon="7.69701">
        <ele>443</ele>
        <time>2017-11-15T11:11:29Z</time>
      </trkpt>
      <trkpt lat="48.1121" lon="7.69663">
        <ele>442</ele>
        <time>2017-11-15T11:11:53Z</time>
      </trkpt>
      <trkpt lat="48.11212" lon="7.69656">
        <ele>442</ele>
        <time>2017-11-15T11:11:59Z</time>
      </trkpt>
      <trkpt lat="48.11217" lon="7.6964">
        <ele>447</ele>
        <time>2017-11-15T11:12:15Z</time>
      </trkpt>
      <trkpt lat="48.11216" lon="7.69628">
        <ele>448</ele>
        <time>2017-11-15T11:12:23Z</time>
      </trkpt>
      <trkpt lat="48.11215" lon="7.69608">
        <ele>451</ele>
        <time>2017-11-15T11:12:34Z</time>
      </trkpt>
      <trkpt lat="48.11217" lon="7.69594">
        <ele>450</ele>
        <time>2017-11-15T11:12:43Z</time>
      </trkpt>
      <trkpt lat="48.1122" lon="7.69589">
        <ele>448</ele>
        <time>2017-11-15T11:12:47Z</time>
      </trkpt>
      <trkpt lat="48.1123" lon="7.69533">
        <ele>444</ele>
        <time>2017-11-15T11:13:19Z</time>
      </trkpt>
      <trkpt lat="48.11234" lon="7.69515">
        <ele>442</ele>
        <time>2017-11-15T11:13:31Z</time>
      </trkpt>
      <trkpt lat="48.11239" lon="7.69496">
        <ele>440</ele>
        <time>2017-11-15T11:13:45Z</time>
      </trkpt>
      <trkpt lat="48.11243" lon="7.69484">
        <ele>436</ele>
        <time>2017-11-15T11:13:53Z</time>
      </trkpt>
      <trkpt lat="48.11244" lon="7.69478">
        <ele>435</ele>
        <time>2017-11-15T11:13:58Z</time>
      </trkpt>
      <trkpt lat="48.11245" lon="7.69464">
        <ele>433</ele>
        <time>2017-11-15T11:14:06Z</time>
      </trkpt>
      <trkpt lat="48.11247" lon="7.6945">
        <ele>430</ele>
        <time>2017-11-15T11:14:15Z</time>
      </trkpt>
      <trkpt lat="48.11247" lon="7.69393">
        <ele>425</ele>
        <time>2017-11-15T11:14:47Z</time>
      </trkpt>
      <trkpt lat="48.11245" lon="7.6938">
        <ele>424</ele>
        <time>2017-11-15T11:14:56Z</time>
      </trkpt>
      <trkpt lat="48.11244" lon="7.69373">
        <ele>424</ele>
        <time>2017-11-15T11:15:00Z</time>
      </trkpt>
      <trkpt lat="48.11242" lon="7.69367">
        <ele>426</ele>
        <time>2017-11-15T11:15:06Z</time>
      </trkpt>
      <trkpt lat="48.11239" lon="7.69361">
        <ele>428</ele>
        <time>2017-11-15T11:15:19Z</time>
      </trkpt>
      <trkpt lat="48.11237" lon="7.69356">
        <ele>429</ele>
        <time>2017-11-15T11:15:23Z</time>
      </trkpt>
      <trkpt lat="48.1121" lon="7.69315">
        <ele>429</ele>
        <time>2017-11-15T11:16:00Z</time>
      </trkpt>
      <trkpt lat="48.11195" lon="7.6928">
        <ele>429</ele>
        <time>2017-11-15T11:16:25Z</time>
      </trkpt>
      <trkpt lat="48.1119" lon="7.6927">
        <ele>432</ele>
        <time>2017-11-15T11:16:33Z</time>
      </trkpt>
      <trkpt lat="48.11184" lon="7.69252">
        <ele>434</ele>
        <time>2017-11-15T11:16:48Z</time>
      </trkpt>
      <trkpt lat="48.11184" lon="7.69245">
        <ele>435</ele>
        <time>2017-11-15T11:16:54Z</time>
      </trkpt>
      <trkpt lat="48.11186" lon="7.69239">
        <ele>435</ele>
        <time>2017-11-15T11:16:59Z</time>
      </trkpt>
      <trkpt lat="48.11191" lon="7.69237">
        <ele>434</ele>
        <time>2017-11-15T11:17:03Z</time>
      </trkpt>
      <trkpt lat="48.11207" lon="7.69224">
        <ele>437</ele>
        <time>2017-11-15T11:17:42Z</time>
      </trkpt>
      <trkpt lat="48.11212" lon="7.69221">
        <ele>440</ele>
        <time>2017-11-15T11:18:00Z</time>
      </trkpt>
      <trkpt lat="48.11216" lon="7.69218">
        <ele>440</ele>
        <time>2017-11-15T11:18:05Z</time>
      </trkpt>
      <trkpt lat="48.11219" lon="7.69215">
        <ele>438</ele>
        <time>2017-11-15T11:18:08Z</time>
      </trkpt>
      <trkpt lat="48.11226" lon="7.69202">
        <ele>440</ele>
        <time>2017-11-15T11:18:19Z</time>
      </trkpt>
      <trkpt lat="48.11227" lon="7.69193">
        <ele>440</ele>
        <time>2017-11-15T11:18:23Z</time>
      </trkpt>
      <trkpt lat="48.11229" lon="7.69184">
        <ele>442</ele>
        <time>2017-11-15T11:18:28Z</time>
      </trkpt>
      <trkpt lat="48.11228" lon="7.69178">
        <ele>443</ele>
        <time>2017-11-15T11:18:33Z</time>
      </trkpt>
      <trkpt lat="48.11237" lon="7.69161">
        <ele>445</ele>
        <time>2017-11-15T11:18:50Z</time>
      </trkpt>
      <trkpt lat="48.11238" lon="7.69152">
        <ele>447</ele>
        <time>2017-11-15T11:18:55Z</time>
      </trkpt>
      <trkpt lat="48.11241" lon="7.69136">
        <ele>451</ele>
        <time>2017-11-15T11:19:05Z</time>
      </trkpt>
      <trkpt lat="48.11241" lon="7.6913">
        <ele>452</ele>
        <time>2017-11-15T11:19:08Z</time>
      </trkpt>
      <trkpt lat="48.11242" lon="7.69123">
        <ele>453</ele>
        <time>2017-11-15T11:19:14Z</time>
      </trkpt>
      <trkpt lat="48.11245" lon="7.69117">
        <ele>453</ele>
        <time>2017-11-15T11:19:19Z</time>
      </trkpt>
      <trkpt lat="48.11247" lon="7.69111">
        <ele>453</ele>
        <time>2017-11-15T11:19:23Z</time>
      </trkpt>
      <trkpt lat="48.11248" lon="7.69105">
        <ele>454</ele>
        <time>2017-11-15T11:19:28Z</time>
      </trkpt>
      <trkpt lat="48.11251" lon="7.691">
        <ele>454</ele>
        <time>2017-11-15T11:19:34Z</time>
      </trkpt>
      <trkpt lat="48.11266" lon="7.69089">
        <ele>453</ele>
        <time>2017-11-15T11:19:50Z</time>
      </trkpt>
      <trkpt lat="48.11269" lon="7.69082">
        <ele>456</ele>
        <time>2017-11-15T11:19:57Z</time>
      </trkpt>
      <trkpt lat="48.11279" lon="7.69075">
        <ele>459</ele>
        <time>2017-11-15T11:20:11Z</time>
      </trkpt>
      <trkpt lat="48.11302" lon="7.69076">
        <ele>460</ele>
        <time>2017-11-15T11:20:40Z</time>
      </trkpt>
      <trkpt lat="48.11343" lon="7.69077">
        <ele>455</ele>
        <time>2017-11-15T11:21:12Z</time>
      </trkpt>
      <trkpt lat="48.11356" lon="7.69074">
        <ele>456</ele>
        <time>2017-11-15T11:21:22Z</time>
      </trkpt>
      <trkpt lat="48.11385" lon="7.69063">
        <ele>453</ele>
        <time>2017-11-15T11:21:49Z</time>
      </trkpt>
      <trkpt lat="48.11393" lon="7.69054">
        <ele>453</ele>
        <time>2017-11-15T11:21:59Z</time>
      </trkpt>
      <trkpt lat="48.1141" lon="7.69044">
        <ele>457</ele>
        <time>2017-11-15T11:22:11Z</time>
      </trkpt>
      <trkpt lat="48.11419" lon="7.69042">
        <ele>462</ele>
        <time>2017-11-15T11:22:15Z</time>
      </trkpt>
      <trkpt lat="48.11441" lon="7.69026">
        <ele>466</ele>
        <time>2017-11-15T11:22:38Z</time>
      </trkpt>
      <trkpt lat="48.11457" lon="7.6901">
        <ele>465</ele>
        <time>2017-11-15T11:23:00Z</time>
      </trkpt>
      <trkpt lat="48.11462" lon="7.69006">
        <ele>465</ele>
        <time>2017-11-15T11:23:07Z</time>
      </trkpt>
      <trkpt lat="48.11479" lon="7.6898">
        <ele>464</ele>
        <time>2017-11-15T11:23:30Z</time>
      </trkpt>
      <trkpt lat="48.1149" lon="7.68965">
        <ele>469</ele>
        <time>2017-11-15T11:23:48Z</time>
      </trkpt>
      <trkpt lat="48.11499" lon="7.68962">
        <ele>473</ele>
        <time>2017-11-15T11:23:58Z</time>
      </trkpt>
      <trkpt lat="48.1151" lon="7.68959">
        <ele>476</ele>
        <time>2017-11-15T11:24:13Z</time>
      </trkpt>
      <trkpt lat="48.11512" lon="7.68966">
        <ele>477</ele>
        <time>2017-11-15T11:25:40Z</time>
      </trkpt>
      <trkpt lat="48.11516" lon="7.68963">
        <ele>476</ele>
        <time>2017-11-15T11:25:45Z</time>
      </trkpt>
      <trkpt lat="48.11521" lon="7.68959">
        <ele>472</ele>
        <time>2017-11-15T11:25:52Z</time>
      </trkpt>
      <trkpt lat="48.11532" lon="7.6896">
        <ele>471</ele>
        <time>2017-11-15T11:26:01Z</time>
      </trkpt>
      <trkpt lat="48.11536" lon="7.6896">
        <ele>469</ele>
        <time>2017-11-15T11:26:05Z</time>
      </trkpt>
      <trkpt lat="48.1154" lon="7.6896">
        <ele>469</ele>
        <time>2017-11-15T11:26:09Z</time>
      </trkpt>
      <trkpt lat="48.11545" lon="7.68959">
        <ele>468</ele>
        <time>2017-11-15T11:26:13Z</time>
      </trkpt>
      <trkpt lat="48.11561" lon="7.68953">
        <ele>470</ele>
        <time>2017-11-15T11:26:32Z</time>
      </trkpt>
      <trkpt lat="48.11566" lon="7.68953">
        <ele>472</ele>
        <time>2017-11-15T11:26:37Z</time>
      </trkpt>
      <trkpt lat="48.11571" lon="7.68954">
        <ele>471</ele>
        <time>2017-11-15T11:26:41Z</time>
      </trkpt>
      <trkpt lat="48.11594" lon="7.68949">
        <ele>475</ele>
        <time>2017-11-15T11:27:05Z</time>
      </trkpt>
      <trkpt lat="48.11612" lon="7.68941">
        <ele>477</ele>
        <time>2017-11-15T11:27:22Z</time>
      </trkpt>
      <trkpt lat="48.11616" lon="7.68938">
        <ele>478</ele>
        <time>2017-11-15T11:27:29Z</time>
      </trkpt>
      <trkpt lat="48.1162" lon="7.68934">
        <ele>482</ele>
        <time>2017-11-15T11:27:37Z</time>
      </trkpt>
      <trkpt lat="48.11628" lon="7.68933">
        <ele>480</ele>
        <time>2017-11-15T11:27:47Z</time>
      </trkpt>
      <trkpt lat="48.11632" lon="7.6893">
        <ele>480</ele>
        <time>2017-11-15T11:27:53Z</time>
      </trkpt>
      <trkpt lat="48.11637" lon="7.68931">
        <ele>482</ele>
        <time>2017-11-15T11:28:01Z</time>
      </trkpt>
      <trkpt lat="48.11641" lon="7.68928">
        <ele>482</ele>
        <time>2017-11-15T11:28:08Z</time>
      </trkpt>
      <trkpt lat="48.11649" lon="7.68923">
        <ele>484</ele>
        <time>2017-11-15T11:28:18Z</time>
      </trkpt>
      <trkpt lat="48.11658" lon="7.6892">
        <ele>485</ele>
        <time>2017-11-15T11:28:32Z</time>
      </trkpt>
      <trkpt lat="48.11669" lon="7.68908">
        <ele>494</ele>
        <time>2017-11-15T11:29:53Z</time>
      </trkpt>
      <trkpt lat="48.11672" lon="7.68902">
        <ele>496</ele>
        <time>2017-11-15T11:30:16Z</time>
      </trkpt>
      <trkpt lat="48.11673" lon="7.68896">
        <ele>496</ele>
        <time>2017-11-15T11:30:20Z</time>
      </trkpt>
      <trkpt lat="48.11674" lon="7.6889">
        <ele>496</ele>
        <time>2017-11-15T11:30:26Z</time>
      </trkpt>
      <trkpt lat="48.11673" lon="7.68884">
        <ele>496</ele>
        <time>2017-11-15T11:32:10Z</time>
      </trkpt>
      <trkpt lat="48.11677" lon="7.68881">
        <ele>496</ele>
        <time>2017-11-15T11:32:39Z</time>
      </trkpt>
      <trkpt lat="48.11676" lon="7.68883">
        <ele>494</ele>
        <time>2017-11-15T11:34:01Z</time>
      </trkpt>
      <trkpt lat="48.11674" lon="7.68885">
        <ele>495</ele>
        <time>2017-11-15T11:35:47Z</time>
      </trkpt>
      <trkpt lat="48.11674" lon="7.68886">
        <ele>493</ele>
        <time>2017-11-15T11:36:13Z</time>
      </trkpt>
      <trkpt lat="48.11674" lon="7.68885">
        <ele>498</ele>
        <time>2017-11-15T11:44:48Z</time>
      </trkpt>
      <trkpt lat="48.11674" lon="7.68885">
        <ele>498</ele>
        <time>2017-11-15T12:02:51Z</time>
      </trkpt>
      <trkpt lat="48.11672" lon="7.68878">
        <ele>498</ele>
        <time>2017-11-15T12:03:37Z</time>
      </trkpt>
      <trkpt lat="48.1167" lon="7.68873">
        <ele>498</ele>
        <time>2017-11-15T12:03:43Z</time>
      </trkpt>
      <trkpt lat="48.11666" lon="7.68869">
        <ele>493</ele>
        <time>2017-11-15T12:03:48Z</time>
      </trkpt>
      <trkpt lat="48.11663" lon="7.68865">
        <ele>492</ele>
        <time>2017-11-15T12:03:53Z</time>
      </trkpt>
      <trkpt lat="48.1166" lon="7.68837">
        <ele>492</ele>
        <time>2017-11-15T12:04:28Z</time>
      </trkpt>
      <trkpt lat="48.11654" lon="7.68818">
        <ele>492</ele>
        <time>2017-11-15T12:04:45Z</time>
      </trkpt>
      <trkpt lat="48.11647" lon="7.68795">
        <ele>486</ele>
        <time>2017-11-15T12:05:12Z</time>
      </trkpt>
      <trkpt lat="48.11646" lon="7.68787">
        <ele>482</ele>
        <time>2017-11-15T12:05:20Z</time>
      </trkpt>
      <trkpt lat="48.11636" lon="7.68754">
        <ele>476</ele>
        <time>2017-11-15T12:05:58Z</time>
      </trkpt>
      <trkpt lat="48.11637" lon="7.68747">
        <ele>473</ele>
        <time>2017-11-15T12:06:05Z</time>
      </trkpt>
      <trkpt lat="48.11638" lon="7.68741">
        <ele>471</ele>
        <time>2017-11-15T12:06:10Z</time>
      </trkpt>
      <trkpt lat="48.11639" lon="7.68735">
        <ele>469</ele>
        <time>2017-11-15T12:06:14Z</time>
      </trkpt>
      <trkpt lat="48.11636" lon="7.68718">
        <ele>465</ele>
        <time>2017-11-15T12:06:24Z</time>
      </trkpt>
      <trkpt lat="48.11631" lon="7.68705">
        <ele>463</ele>
        <time>2017-11-15T12:06:32Z</time>
      </trkpt>
      <trkpt lat="48.11631" lon="7.68695">
        <ele>462</ele>
        <time>2017-11-15T12:06:38Z</time>
      </trkpt>
      <trkpt lat="48.11628" lon="7.68691">
        <ele>460</ele>
        <time>2017-11-15T12:06:41Z</time>
      </trkpt>
      <trkpt lat="48.11625" lon="7.68688">
        <ele>460</ele>
        <time>2017-11-15T12:06:45Z</time>
      </trkpt>
      <trkpt lat="48.11621" lon="7.68682">
        <ele>460</ele>
        <time>2017-11-15T12:06:56Z</time>
      </trkpt>
      <trkpt lat="48.11619" lon="7.68675">
        <ele>457</ele>
        <time>2017-11-15T12:07:03Z</time>
      </trkpt>
      <trkpt lat="48.11604" lon="7.68632">
        <ele>449</ele>
        <time>2017-11-15T12:07:30Z</time>
      </trkpt>
      <trkpt lat="48.11601" lon="7.68626">
        <ele>449</ele>
        <time>2017-11-15T12:07:34Z</time>
      </trkpt>
      <trkpt lat="48.11598" lon="7.6862">
        <ele>448</ele>
        <time>2017-11-15T12:07:38Z</time>
      </trkpt>
      <trkpt lat="48.11595" lon="7.68614">
        <ele>447</ele>
        <time>2017-11-15T12:07:42Z</time>
      </trkpt>
      <trkpt lat="48.11591" lon="7.68616">
        <ele>446</ele>
        <time>2017-11-15T12:07:52Z</time>
      </trkpt>
      <trkpt lat="48.11591" lon="7.68619">
        <ele>442</ele>
        <time>2017-11-15T12:10:39Z</time>
      </trkpt>
      <trkpt lat="48.11587" lon="7.68622">
        <ele>442</ele>
        <time>2017-11-15T12:12:09Z</time>
      </trkpt>
      <trkpt lat="48.11581" lon="7.68624">
        <ele>440</ele>
        <time>2017-11-15T12:12:15Z</time>
      </trkpt>
      <trkpt lat="48.11577" lon="7.68626">
        <ele>437</ele>
        <time>2017-11-15T12:12:19Z</time>
      </trkpt>
      <trkpt lat="48.11573" lon="7.68629">
        <ele>434</ele>
        <time>2017-11-15T12:12:23Z</time>
      </trkpt>
      <trkpt lat="48.11555" lon="7.68641">
        <ele>427</ele>
        <time>2017-11-15T12:12:42Z</time>
      </trkpt>
      <trkpt lat="48.11547" lon="7.68646">
        <ele>425</ele>
        <time>2017-11-15T12:12:48Z</time>
      </trkpt>
      <trkpt lat="48.11543" lon="7.68646">
        <ele>425</ele>
        <time>2017-11-15T12:12:52Z</time>
      </trkpt>
      <trkpt lat="48.11538" lon="7.68647">
        <ele>422</ele>
        <time>2017-11-15T12:12:57Z</time>
      </trkpt>
      <trkpt lat="48.11533" lon="7.68648">
        <ele>421</ele>
        <time>2017-11-15T12:13:02Z</time>
      </trkpt>
      <trkpt lat="48.11527" lon="7.68649">
        <ele>418</ele>
        <time>2017-11-15T12:13:06Z</time>
      </trkpt>
      <trkpt lat="48.11523" lon="7.68651">
        <ele>416</ele>
        <time>2017-11-15T12:13:09Z</time>
      </trkpt>
      <trkpt lat="48.11519" lon="7.68653">
        <ele>416</ele>
        <time>2017-11-15T12:13:14Z</time>
      </trkpt>
      <trkpt lat="48.11511" lon="7.68659">
        <ele>414</ele>
        <time>2017-11-15T12:13:21Z</time>
      </trkpt>
      <trkpt lat="48.11484" lon="7.68665">
        <ele>417</ele>
        <time>2017-11-15T12:13:38Z</time>
      </trkpt>
      <trkpt lat="48.11465" lon="7.68661">
        <ele>415</ele>
        <time>2017-11-15T12:13:52Z</time>
      </trkpt>
      <trkpt lat="48.1146" lon="7.68661">
        <ele>414</ele>
        <time>2017-11-15T12:13:56Z</time>
      </trkpt>
      <trkpt lat="48.11455" lon="7.6866">
        <ele>413</ele>
        <time>2017-11-15T12:14:00Z</time>
      </trkpt>
      <trkpt lat="48.11451" lon="7.68657">
        <ele>412</ele>
        <time>2017-11-15T12:14:05Z</time>
      </trkpt>
      <trkpt lat="48.11447" lon="7.68653">
        <ele>412</ele>
        <time>2017-11-15T12:14:08Z</time>
      </trkpt>
      <trkpt lat="48.11442" lon="7.68653">
        <ele>411</ele>
        <time>2017-11-15T12:14:12Z</time>
      </trkpt>
      <trkpt lat="48.11434" lon="7.68645">
        <ele>409</ele>
        <time>2017-11-15T12:14:20Z</time>
      </trkpt>
      <trkpt lat="48.11425" lon="7.68639">
        <ele>409</ele>
        <time>2017-11-15T12:14:27Z</time>
      </trkpt>
      <trkpt lat="48.11406" lon="7.6862">
        <ele>406</ele>
        <time>2017-11-15T12:14:46Z</time>
      </trkpt>
      <trkpt lat="48.11401" lon="7.68617">
        <ele>406</ele>
        <time>2017-11-15T12:14:50Z</time>
      </trkpt>
      <trkpt lat="48.11376" lon="7.68578">
        <ele>400</ele>
        <time>2017-11-15T12:15:21Z</time>
      </trkpt>
      <trkpt lat="48.11362" lon="7.68561">
        <ele>397</ele>
        <time>2017-11-15T12:15:35Z</time>
      </trkpt>
      <trkpt lat="48.11358" lon="7.68559">
        <ele>397</ele>
        <time>2017-11-15T12:15:38Z</time>
      </trkpt>
      <trkpt lat="48.11354" lon="7.68563">
        <ele>393</ele>
        <time>2017-11-15T12:15:54Z</time>
      </trkpt>
      <trkpt lat="48.1134" lon="7.68564">
        <ele>388</ele>
        <time>2017-11-15T12:16:05Z</time>
      </trkpt>
      <trkpt lat="48.11295" lon="7.68565">
        <ele>388</ele>
        <time>2017-11-15T12:16:37Z</time>
      </trkpt>
      <trkpt lat="48.11255" lon="7.68566">
        <ele>386</ele>
        <time>2017-11-15T12:17:08Z</time>
      </trkpt>
      <trkpt lat="48.11216" lon="7.68566">
        <ele>383</ele>
        <time>2017-11-15T12:17:39Z</time>
      </trkpt>
      <trkpt lat="48.11197" lon="7.68565">
        <ele>381</ele>
        <time>2017-11-15T12:17:53Z</time>
      </trkpt>
      <trkpt lat="48.11193" lon="7.68567">
        <ele>380</ele>
        <time>2017-11-15T12:17:58Z</time>
      </trkpt>
      <trkpt lat="48.11148" lon="7.68561">
        <ele>376</ele>
        <time>2017-11-15T12:18:31Z</time>
      </trkpt>
      <trkpt lat="48.11135" lon="7.68559">
        <ele>375</ele>
        <time>2017-11-15T12:18:41Z</time>
      </trkpt>
      <trkpt lat="48.1113" lon="7.68557">
        <ele>375</ele>
        <time>2017-11-15T12:18:46Z</time>
      </trkpt>
      <trkpt lat="48.11102" lon="7.68547">
        <ele>373</ele>
        <time>2017-11-15T12:19:08Z</time>
      </trkpt>
      <trkpt lat="48.11063" lon="7.68526">
        <ele>371</ele>
        <time>2017-11-15T12:19:39Z</time>
      </trkpt>
      <trkpt lat="48.11049" lon="7.68515">
        <ele>368</ele>
        <time>2017-11-15T12:19:51Z</time>
      </trkpt>
      <trkpt lat="48.11032" lon="7.68494">
        <ele>367</ele>
        <time>2017-11-15T12:20:10Z</time>
      </trkpt>
      <trkpt lat="48.11016" lon="7.68458">
        <ele>363</ele>
        <time>2017-11-15T12:20:34Z</time>
      </trkpt>
      <trkpt lat="48.1099" lon="7.68426">
        <ele>362</ele>
        <time>2017-11-15T12:21:02Z</time>
      </trkpt>
      <trkpt lat="48.10955" lon="7.684">
        <ele>358</ele>
        <time>2017-11-15T12:21:32Z</time>
      </trkpt>
      <trkpt lat="48.10917" lon="7.68376">
        <ele>350</ele>
        <time>2017-11-15T12:22:04Z</time>
      </trkpt>
      <trkpt lat="48.10905" lon="7.68368">
        <ele>351</ele>
        <time>2017-11-15T12:22:15Z</time>
      </trkpt>
      <trkpt lat="48.1087" lon="7.68347">
        <ele>347</ele>
        <time>2017-11-15T12:22:46Z</time>
      </trkpt>
      <trkpt lat="48.1083" lon="7.68325">
        <ele>344</ele>
        <time>2017-11-15T12:23:20Z</time>
      </trkpt>
      <trkpt lat="48.10825" lon="7.68324">
        <ele>341</ele>
        <time>2017-11-15T12:23:28Z</time>
      </trkpt>
      <trkpt lat="48.10811" lon="7.68318">
        <ele>339</ele>
        <time>2017-11-15T12:23:41Z</time>
      </trkpt>
      <trkpt lat="48.10806" lon="7.68317">
        <ele>339</ele>
        <time>2017-11-15T12:23:45Z</time>
      </trkpt>
      <trkpt lat="48.10802" lon="7.68319">
        <ele>338</ele>
        <time>2017-11-15T12:23:48Z</time>
      </trkpt>
      <trkpt lat="48.10763" lon="7.68295">
        <ele>336</ele>
        <time>2017-11-15T12:24:24Z</time>
      </trkpt>
      <trkpt lat="48.1076" lon="7.6829">
        <ele>335</ele>
        <time>2017-11-15T12:24:29Z</time>
      </trkpt>
      <trkpt lat="48.10719" lon="7.68266">
        <ele>334</ele>
        <time>2017-11-15T12:25:02Z</time>
      </trkpt>
      <trkpt lat="48.10697" lon="7.68257">
        <ele>328</ele>
        <time>2017-11-15T12:25:21Z</time>
      </trkpt>
      <trkpt lat="48.10688" lon="7.68252">
        <ele>326</ele>
        <time>2017-11-15T12:25:29Z</time>
      </trkpt>
      <trkpt lat="48.10679" lon="7.68249">
        <ele>326</ele>
        <time>2017-11-15T12:25:35Z</time>
      </trkpt>
      <trkpt lat="48.10675" lon="7.68247">
        <ele>325</ele>
        <time>2017-11-15T12:25:39Z</time>
      </trkpt>
      <trkpt lat="48.10662" lon="7.68242">
        <ele>325</ele>
        <time>2017-11-15T12:25:49Z</time>
      </trkpt>
      <trkpt lat="48.10657" lon="7.68241">
        <ele>325</ele>
        <time>2017-11-15T12:25:52Z</time>
      </trkpt>
      <trkpt lat="48.10633" lon="7.68238">
        <ele>325</ele>
        <time>2017-11-15T12:26:10Z</time>
      </trkpt>
      <trkpt lat="48.10599" lon="7.68236">
        <ele>320</ele>
        <time>2017-11-15T12:26:40Z</time>
      </trkpt>
      <trkpt lat="48.10576" lon="7.6824">
        <ele>320</ele>
        <time>2017-11-15T12:26:59Z</time>
      </trkpt>
      <trkpt lat="48.10535" lon="7.6826">
        <ele>316</ele>
        <time>2017-11-15T12:27:32Z</time>
      </trkpt>
      <trkpt lat="48.10502" lon="7.68291">
        <ele>315</ele>
        <time>2017-11-15T12:28:05Z</time>
      </trkpt>
      <trkpt lat="48.10499" lon="7.68295">
        <ele>314</ele>
        <time>2017-11-15T12:28:08Z</time>
      </trkpt>
      <trkpt lat="48.10495" lon="7.68295">
        <ele>314</ele>
        <time>2017-11-15T12:28:12Z</time>
      </trkpt>
      <trkpt lat="48.10491" lon="7.68292">
        <ele>312</ele>
        <time>2017-11-15T12:28:17Z</time>
      </trkpt>
      <trkpt lat="48.10469" lon="7.68307">
        <ele>311</ele>
        <time>2017-11-15T12:28:35Z</time>
      </trkpt>
      <trkpt lat="48.10464" lon="7.68307">
        <ele>311</ele>
        <time>2017-11-15T12:28:39Z</time>
      </trkpt>
      <trkpt lat="48.10445" lon="7.68303">
        <ele>309</ele>
        <time>2017-11-15T12:28:55Z</time>
      </trkpt>
      <trkpt lat="48.10442" lon="7.68306">
        <ele>307</ele>
        <time>2017-11-15T12:28:59Z</time>
      </trkpt>
      <trkpt lat="48.1044" lon="7.68313">
        <ele>306</ele>
        <time>2017-11-15T12:29:04Z</time>
      </trkpt>
      <trkpt lat="48.10438" lon="7.68318">
        <ele>305</ele>
        <time>2017-11-15T12:29:08Z</time>
      </trkpt>
      <trkpt lat="48.10434" lon="7.68324">
        <ele>304</ele>
        <time>2017-11-15T12:29:13Z</time>
      </trkpt>
      <trkpt lat="48.10424" lon="7.6833">
        <ele>304</ele>
        <time>2017-11-15T12:29:25Z</time>
      </trkpt>
      <trkpt lat="48.10414" lon="7.68324">
        <ele>308</ele>
        <time>2017-11-15T12:29:33Z</time>
      </trkpt>
      <trkpt lat="48.10411" lon="7.6832">
        <ele>313</ele>
        <time>2017-11-15T12:31:14Z</time>
      </trkpt>
      <trkpt lat="48.10389" lon="7.68307">
        <ele>312</ele>
        <time>2017-11-15T12:31:29Z</time>
      </trkpt>
      <trkpt lat="48.10386" lon="7.68302">
        <ele>312</ele>
        <time>2017-11-15T12:31:32Z</time>
      </trkpt>
      <trkpt lat="48.10382" lon="7.68298">
        <ele>312</ele>
        <time>2017-11-15T12:31:35Z</time>
      </trkpt>
      <trkpt lat="48.10356" lon="7.68248">
        <ele>310</ele>
        <time>2017-11-15T12:32:06Z</time>
      </trkpt>
      <trkpt lat="48.1035" lon="7.68239">
        <ele>307</ele>
        <time>2017-11-15T12:32:13Z</time>
      </trkpt>
      <trkpt lat="48.10327" lon="7.68199">
        <ele>307</ele>
        <time>2017-11-15T12:32:35Z</time>
      </trkpt>
      <trkpt lat="48.10323" lon="7.68194">
        <ele>306</ele>
        <time>2017-11-15T12:32:38Z</time>
      </trkpt>
      <trkpt lat="48.10304" lon="7.68163">
        <ele>308</ele>
        <time>2017-11-15T12:32:57Z</time>
      </trkpt>
      <trkpt lat="48.10301" lon="7.68159">
        <ele>308</ele>
        <time>2017-11-15T12:33:00Z</time>
      </trkpt>
      <trkpt lat="48.10297" lon="7.68154">
        <ele>306</ele>
        <time>2017-11-15T12:33:04Z</time>
      </trkpt>
      <trkpt lat="48.10295" lon="7.68149">
        <ele>305</ele>
        <time>2017-11-15T12:33:07Z</time>
      </trkpt>
      <trkpt lat="48.10292" lon="7.68143">
        <ele>305</ele>
        <time>2017-11-15T12:33:10Z</time>
      </trkpt>
      <trkpt lat="48.10288" lon="7.68139">
        <ele>304</ele>
        <time>2017-11-15T12:33:14Z</time>
      </trkpt>
      <trkpt lat="48.1026" lon="7.68103">
        <ele>303</ele>
        <time>2017-11-15T12:33:39Z</time>
      </trkpt>
      <trkpt lat="48.10252" lon="7.68093">
        <ele>305</ele>
        <time>2017-11-15T12:33:47Z</time>
      </trkpt>
      <trkpt lat="48.10249" lon="7.68089">
        <ele>304</ele>
        <time>2017-11-15T12:33:52Z</time>
      </trkpt>
      <trkpt lat="48.10246" lon="7.68094">
        <ele>303</ele>
        <time>2017-11-15T12:34:29Z</time>
      </trkpt>
      <trkpt lat="48.10245" lon="7.681">
        <ele>301</ele>
        <time>2017-11-15T12:34:36Z</time>
      </trkpt>
      <trkpt lat="48.1023" lon="7.68117">
        <ele>303</ele>
        <time>2017-11-15T12:35:07Z</time>
      </trkpt>
      <trkpt lat="48.10222" lon="7.68125">
        <ele>304</ele>
        <time>2017-11-15T12:35:15Z</time>
      </trkpt>
      <trkpt lat="48.10191" lon="7.68153">
        <ele>310</ele>
        <time>2017-11-15T12:35:47Z</time>
      </trkpt>
      <trkpt lat="48.10164" lon="7.68182">
        <ele>314</ele>
        <time>2017-11-15T12:36:18Z</time>
      </trkpt>
      <trkpt lat="48.10156" lon="7.6819">
        <ele>315</ele>
        <time>2017-11-15T12:36:26Z</time>
      </trkpt>
      <trkpt lat="48.10152" lon="7.68194">
        <ele>315</ele>
        <time>2017-11-15T12:36:30Z</time>
      </trkpt>
      <trkpt lat="48.10147" lon="7.68196">
        <ele>315</ele>
        <time>2017-11-15T12:36:34Z</time>
      </trkpt>
      <trkpt lat="48.10143" lon="7.68195">
        <ele>315</ele>
        <time>2017-11-15T12:36:38Z</time>
      </trkpt>
      <trkpt lat="48.10139" lon="7.68191">
        <ele>314</ele>
        <time>2017-11-15T12:36:42Z</time>
      </trkpt>
      <trkpt lat="48.10137" lon="7.68186">
        <ele>314</ele>
        <time>2017-11-15T12:36:46Z</time>
      </trkpt>
      <trkpt lat="48.10133" lon="7.68167">
        <ele>315</ele>
        <time>2017-11-15T12:36:59Z</time>
      </trkpt>
      <trkpt lat="48.10132" lon="7.68131">
        <ele>316</ele>
        <time>2017-11-15T12:37:20Z</time>
      </trkpt>
      <trkpt lat="48.10138" lon="7.681">
        <ele>318</ele>
        <time>2017-11-15T12:37:46Z</time>
      </trkpt>
      <trkpt lat="48.10139" lon="7.68093">
        <ele>318</ele>
        <time>2017-11-15T12:37:50Z</time>
      </trkpt>
      <trkpt lat="48.10146" lon="7.68063">
        <ele>320</ele>
        <time>2017-11-15T12:38:12Z</time>
      </trkpt>
      <trkpt lat="48.10146" lon="7.68056">
        <ele>321</ele>
        <time>2017-11-15T12:38:17Z</time>
      </trkpt>
      <trkpt lat="48.10144" lon="7.6805">
        <ele>321</ele>
        <time>2017-11-15T12:38:23Z</time>
      </trkpt>
      <trkpt lat="48.10139" lon="7.68049">
        <ele>322</ele>
        <time>2017-11-15T12:38:27Z</time>
      </trkpt>
      <trkpt lat="48.10135" lon="7.68051">
        <ele>322</ele>
        <time>2017-11-15T12:38:31Z</time>
      </trkpt>
      <trkpt lat="48.10114" lon="7.68088">
        <ele>327</ele>
        <time>2017-11-15T12:39:05Z</time>
      </trkpt>
      <trkpt lat="48.101" lon="7.68115">
        <ele>330</ele>
        <time>2017-11-15T12:39:25Z</time>
      </trkpt>
      <trkpt lat="48.10085" lon="7.68157">
        <ele>332</ele>
        <time>2017-11-15T12:39:55Z</time>
      </trkpt>
      <trkpt lat="48.10079" lon="7.68167">
        <ele>333</ele>
        <time>2017-11-15T12:40:03Z</time>
      </trkpt>
      <trkpt lat="48.10055" lon="7.68189">
        <ele>334</ele>
        <time>2017-11-15T12:40:27Z</time>
      </trkpt>
      <trkpt lat="48.10052" lon="7.68195">
        <ele>335</ele>
        <time>2017-11-15T12:40:31Z</time>
      </trkpt>
      <trkpt lat="48.10049" lon="7.68207">
        <ele>335</ele>
        <time>2017-11-15T12:40:39Z</time>
      </trkpt>
      <trkpt lat="48.10047" lon="7.68263">
        <ele>338</ele>
        <time>2017-11-15T12:41:10Z</time>
      </trkpt>
      <trkpt lat="48.10044" lon="7.68298">
        <ele>340</ele>
        <time>2017-11-15T12:41:29Z</time>
      </trkpt>
      <trkpt lat="48.10041" lon="7.68303">
        <ele>340</ele>
        <time>2017-11-15T12:41:32Z</time>
      </trkpt>
      <trkpt lat="48.10037" lon="7.68307">
        <ele>339</ele>
        <time>2017-11-15T12:41:36Z</time>
      </trkpt>
      <trkpt lat="48.10023" lon="7.68315">
        <ele>340</ele>
        <time>2017-11-15T12:41:47Z</time>
      </trkpt>
      <trkpt lat="48.10018" lon="7.68316">
        <ele>340</ele>
        <time>2017-11-15T12:41:51Z</time>
      </trkpt>
      <trkpt lat="48.10014" lon="7.6832">
        <ele>340</ele>
        <time>2017-11-15T12:41:55Z</time>
      </trkpt>
      <trkpt lat="48.10011" lon="7.68326">
        <ele>340</ele>
        <time>2017-11-15T12:41:59Z</time>
      </trkpt>
      <trkpt lat="48.10011" lon="7.68333">
        <ele>340</ele>
        <time>2017-11-15T12:42:03Z</time>
      </trkpt>
      <trkpt lat="48.10018" lon="7.68375">
        <ele>341</ele>
        <time>2017-11-15T12:42:26Z</time>
      </trkpt>
      <trkpt lat="48.10024" lon="7.68403">
        <ele>343</ele>
        <time>2017-11-15T12:42:41Z</time>
      </trkpt>
      <trkpt lat="48.10024" lon="7.68409">
        <ele>343</ele>
        <time>2017-11-15T12:42:44Z</time>
      </trkpt>
      <trkpt lat="48.10023" lon="7.68417">
        <ele>343</ele>
        <time>2017-11-15T12:42:48Z</time>
      </trkpt>
      <trkpt lat="48.10019" lon="7.68422">
        <ele>344</ele>
        <time>2017-11-15T12:42:52Z</time>
      </trkpt>
      <trkpt lat="48.10015" lon="7.68424">
        <ele>345</ele>
        <time>2017-11-15T12:42:56Z</time>
      </trkpt>
      <trkpt lat="48.1001" lon="7.68424">
        <ele>346</ele>
        <time>2017-11-15T12:43:00Z</time>
      </trkpt>
      <trkpt lat="48.10005" lon="7.68423">
        <ele>346</ele>
        <time>2017-11-15T12:43:04Z</time>
      </trkpt>
      <trkpt lat="48.10001" lon="7.68418">
        <ele>346</ele>
        <time>2017-11-15T12:43:08Z</time>
      </trkpt>
      <trkpt lat="48.09979" lon="7.68371">
        <ele>349</ele>
        <time>2017-11-15T12:43:39Z</time>
      </trkpt>
      <trkpt lat="48.09958" lon="7.68323">
        <ele>352</ele>
        <time>2017-11-15T12:44:11Z</time>
      </trkpt>
      <trkpt lat="48.09954" lon="7.68318">
        <ele>352</ele>
        <time>2017-11-15T12:44:15Z</time>
      </trkpt>
      <trkpt lat="48.0995" lon="7.68318">
        <ele>352</ele>
        <time>2017-11-15T12:44:19Z</time>
      </trkpt>
      <trkpt lat="48.09945" lon="7.68319">
        <ele>353</ele>
        <time>2017-11-15T12:44:23Z</time>
      </trkpt>
      <trkpt lat="48.0994" lon="7.6833">
        <ele>353</ele>
        <time>2017-11-15T12:44:31Z</time>
      </trkpt>
      <trkpt lat="48.0994" lon="7.68338">
        <ele>353</ele>
        <time>2017-11-15T12:44:36Z</time>
      </trkpt>
      <trkpt lat="48.0996" lon="7.68396">
        <ele>355</ele>
        <time>2017-11-15T12:45:07Z</time>
      </trkpt>
      <trkpt lat="48.09979" lon="7.68451">
        <ele>355</ele>
        <time>2017-11-15T12:45:38Z</time>
      </trkpt>
      <trkpt lat="48.09996" lon="7.685">
        <ele>355</ele>
        <time>2017-11-15T12:46:05Z</time>
      </trkpt>
      <trkpt lat="48.10016" lon="7.68552">
        <ele>357</ele>
        <time>2017-11-15T12:46:35Z</time>
      </trkpt>
      <trkpt lat="48.10033" lon="7.68596">
        <ele>360</ele>
        <time>2017-11-15T12:47:03Z</time>
      </trkpt>
      <trkpt lat="48.10039" lon="7.68606">
        <ele>361</ele>
        <time>2017-11-15T12:47:11Z</time>
      </trkpt>
      <trkpt lat="48.10069" lon="7.68638">
        <ele>363</ele>
        <time>2017-11-15T12:47:43Z</time>
      </trkpt>
      <trkpt lat="48.10073" lon="7.68643">
        <ele>363</ele>
        <time>2017-11-15T12:47:47Z</time>
      </trkpt>
      <trkpt lat="48.1008" lon="7.6866">
        <ele>363</ele>
        <time>2017-11-15T12:47:57Z</time>
      </trkpt>
      <trkpt lat="48.10083" lon="7.68675">
        <ele>363</ele>
        <time>2017-11-15T12:48:04Z</time>
      </trkpt>
      <trkpt lat="48.10078" lon="7.68677">
        <ele>363</ele>
        <time>2017-11-15T12:48:08Z</time>
      </trkpt>
      <trkpt lat="48.10074" lon="7.68677">
        <ele>363</ele>
        <time>2017-11-15T12:48:11Z</time>
      </trkpt>
      <trkpt lat="48.10057" lon="7.68672">
        <ele>361</ele>
        <time>2017-11-15T12:48:42Z</time>
      </trkpt>
      <trkpt lat="48.10052" lon="7.68671">
        <ele>361</ele>
        <time>2017-11-15T12:48:55Z</time>
      </trkpt>
      <trkpt lat="48.10047" lon="7.6867">
        <ele>360</ele>
        <time>2017-11-15T12:49:00Z</time>
      </trkpt>
      <trkpt lat="48.10035" lon="7.68665">
        <ele>360</ele>
        <time>2017-11-15T12:49:12Z</time>
      </trkpt>
      <trkpt lat="48.10031" lon="7.68665">
        <ele>359</ele>
        <time>2017-11-15T12:49:16Z</time>
      </trkpt>
      <trkpt lat="48.10012" lon="7.68658">
        <ele>358</ele>
        <time>2017-11-15T12:49:31Z</time>
      </trkpt>
      <trkpt lat="48.10003" lon="7.68652">
        <ele>358</ele>
        <time>2017-11-15T12:49:39Z</time>
      </trkpt>
      <trkpt lat="48.09991" lon="7.68622">
        <ele>359</ele>
        <time>2017-11-15T12:49:58Z</time>
      </trkpt>
      <trkpt lat="48.09978" lon="7.68581">
        <ele>364</ele>
        <time>2017-11-15T12:50:19Z</time>
      </trkpt>
      <trkpt lat="48.09968" lon="7.6855">
        <ele>364</ele>
        <time>2017-11-15T12:50:37Z</time>
      </trkpt>
      <trkpt lat="48.09953" lon="7.68507">
        <ele>363</ele>
        <time>2017-11-15T12:51:03Z</time>
      </trkpt>
      <trkpt lat="48.09939" lon="7.68452">
        <ele>362</ele>
        <time>2017-11-15T12:51:34Z</time>
      </trkpt>
      <trkpt lat="48.09925" lon="7.68396">
        <ele>365</ele>
        <time>2017-11-15T12:52:07Z</time>
      </trkpt>
      <trkpt lat="48.09911" lon="7.68339">
        <ele>370</ele>
        <time>2017-11-15T12:52:40Z</time>
      </trkpt>
      <trkpt lat="48.09907" lon="7.6832">
        <ele>371</ele>
        <time>2017-11-15T12:52:52Z</time>
      </trkpt>
      <trkpt lat="48.09904" lon="7.68315">
        <ele>371</ele>
        <time>2017-11-15T12:52:55Z</time>
      </trkpt>
      <trkpt lat="48.09899" lon="7.68319">
        <ele>371</ele>
        <time>2017-11-15T12:52:59Z</time>
      </trkpt>
      <trkpt lat="48.09898" lon="7.68326">
        <ele>371</ele>
        <time>2017-11-15T12:53:03Z</time>
      </trkpt>
      <trkpt lat="48.09895" lon="7.68346">
        <ele>370</ele>
        <time>2017-11-15T12:53:14Z</time>
      </trkpt>
      <trkpt lat="48.09894" lon="7.68353">
        <ele>372</ele>
        <time>2017-11-15T12:53:18Z</time>
      </trkpt>
      <trkpt lat="48.09894" lon="7.68397">
        <ele>376</ele>
        <time>2017-11-15T12:53:42Z</time>
      </trkpt>
      <trkpt lat="48.09895" lon="7.6842">
        <ele>379</ele>
        <time>2017-11-15T12:53:54Z</time>
      </trkpt>
      <trkpt lat="48.09897" lon="7.68426">
        <ele>379</ele>
        <time>2017-11-15T12:53:58Z</time>
      </trkpt>
      <trkpt lat="48.09898" lon="7.6844">
        <ele>380</ele>
        <time>2017-11-15T12:54:06Z</time>
      </trkpt>
      <trkpt lat="48.09898" lon="7.68448">
        <ele>381</ele>
        <time>2017-11-15T12:54:10Z</time>
      </trkpt>
      <trkpt lat="48.09887" lon="7.68479">
        <ele>385</ele>
        <time>2017-11-15T12:54:34Z</time>
      </trkpt>
      <trkpt lat="48.0988" lon="7.68487">
        <ele>385</ele>
        <time>2017-11-15T12:54:42Z</time>
      </trkpt>
      <trkpt lat="48.09874" lon="7.68497">
        <ele>385</ele>
        <time>2017-11-15T12:54:49Z</time>
      </trkpt>
      <trkpt lat="48.09871" lon="7.68512">
        <ele>387</ele>
        <time>2017-11-15T12:54:58Z</time>
      </trkpt>
      <trkpt lat="48.09866" lon="7.68544">
        <ele>388</ele>
        <time>2017-11-15T12:55:19Z</time>
      </trkpt>
      <trkpt lat="48.09864" lon="7.68551">
        <ele>388</ele>
        <time>2017-11-15T12:55:23Z</time>
      </trkpt>
      <trkpt lat="48.0986" lon="7.6855">
        <ele>388</ele>
        <time>2017-11-15T12:55:28Z</time>
      </trkpt>
      <trkpt lat="48.09856" lon="7.68548">
        <ele>389</ele>
        <time>2017-11-15T12:55:33Z</time>
      </trkpt>
      <trkpt lat="48.09852" lon="7.68545">
        <ele>389</ele>
        <time>2017-11-15T12:55:39Z</time>
      </trkpt>
      <trkpt lat="48.09848" lon="7.68543">
        <ele>389</ele>
        <time>2017-11-15T12:55:46Z</time>
      </trkpt>
      <trkpt lat="48.0985" lon="7.68538">
        <ele>389</ele>
        <time>2017-11-15T12:58:13Z</time>
      </trkpt>
      <trkpt lat="48.09854" lon="7.68527">
        <ele>387</ele>
        <time>2017-11-15T12:58:25Z</time>
      </trkpt>
      <trkpt lat="48.09849" lon="7.68528">
        <ele>389</ele>
        <time>2017-11-15T13:01:40Z</time>
      </trkpt>
      <trkpt lat="48.09845" lon="7.68526">
        <ele>389</ele>
        <time>2017-11-15T13:01:48Z</time>
      </trkpt>
      <trkpt lat="48.09843" lon="7.6852">
        <ele>390</ele>
        <time>2017-11-15T13:01:54Z</time>
      </trkpt>
      <trkpt lat="48.09832" lon="7.68492">
        <ele>394</ele>
        <time>2017-11-15T13:02:24Z</time>
      </trkpt>
      <trkpt lat="48.09827" lon="7.68481">
        <ele>396</ele>
        <time>2017-11-15T13:02:34Z</time>
      </trkpt>
      <trkpt lat="48.09825" lon="7.68475">
        <ele>396</ele>
        <time>2017-11-15T13:02:39Z</time>
      </trkpt>
      <trkpt lat="48.09823" lon="7.6847">
        <ele>397</ele>
        <time>2017-11-15T13:02:44Z</time>
      </trkpt>
      <trkpt lat="48.09822" lon="7.68464">
        <ele>397</ele>
        <time>2017-11-15T13:02:50Z</time>
      </trkpt>
      <trkpt lat="48.0982" lon="7.68458">
        <ele>398</ele>
        <time>2017-11-15T13:02:55Z</time>
      </trkpt>
      <trkpt lat="48.09814" lon="7.68439">
        <ele>398</ele>
        <time>2017-11-15T13:03:16Z</time>
      </trkpt>
      <trkpt lat="48.09798" lon="7.68396">
        <ele>402</ele>
        <time>2017-11-15T13:03:45Z</time>
      </trkpt>
      <trkpt lat="48.09794" lon="7.68383">
        <ele>403</ele>
        <time>2017-11-15T13:03:53Z</time>
      </trkpt>
      <trkpt lat="48.09782" lon="7.68347">
        <ele>406</ele>
        <time>2017-11-15T13:04:17Z</time>
      </trkpt>
      <trkpt lat="48.09781" lon="7.68341">
        <ele>406</ele>
        <time>2017-11-15T13:04:21Z</time>
      </trkpt>
      <trkpt lat="48.09767" lon="7.68298">
        <ele>412</ele>
        <time>2017-11-15T13:04:54Z</time>
      </trkpt>
      <trkpt lat="48.09766" lon="7.68292">
        <ele>413</ele>
        <time>2017-11-15T13:05:00Z</time>
      </trkpt>
      <trkpt lat="48.09765" lon="7.68287">
        <ele>414</ele>
        <time>2017-11-15T13:05:05Z</time>
      </trkpt>
      <trkpt lat="48.0976" lon="7.68274">
        <ele>416</ele>
        <time>2017-11-15T13:05:19Z</time>
      </trkpt>
      <trkpt lat="48.09758" lon="7.68267">
        <ele>417</ele>
        <time>2017-11-15T13:05:28Z</time>
      </trkpt>
      <trkpt lat="48.09751" lon="7.68235">
        <ele>424</ele>
        <time>2017-11-15T13:06:04Z</time>
      </trkpt>
      <trkpt lat="48.0975" lon="7.68229">
        <ele>424</ele>
        <time>2017-11-15T13:06:10Z</time>
      </trkpt>
      <trkpt lat="48.09745" lon="7.68219">
        <ele>426</ele>
        <time>2017-11-15T13:06:24Z</time>
      </trkpt>
      <trkpt lat="48.09742" lon="7.68213">
        <ele>427</ele>
        <time>2017-11-15T13:06:30Z</time>
      </trkpt>
      <trkpt lat="48.0974" lon="7.68207">
        <ele>428</ele>
        <time>2017-11-15T13:06:37Z</time>
      </trkpt>
      <trkpt lat="48.09736" lon="7.68206">
        <ele>429</ele>
        <time>2017-11-15T13:06:44Z</time>
      </trkpt>
      <trkpt lat="48.09733" lon="7.6821">
        <ele>430</ele>
        <time>2017-11-15T13:07:27Z</time>
      </trkpt>
      <trkpt lat="48.09729" lon="7.68211">
        <ele>429</ele>
        <time>2017-11-15T13:09:09Z</time>
      </trkpt>
      <trkpt lat="48.09724" lon="7.6821">
        <ele>429</ele>
        <time>2017-11-15T13:09:16Z</time>
      </trkpt>
      <trkpt lat="48.09692" lon="7.68202">
        <ele>430</ele>
        <time>2017-11-15T13:09:48Z</time>
      </trkpt>
      <trkpt lat="48.09684" lon="7.68197">
        <ele>430</ele>
        <time>2017-11-15T13:09:58Z</time>
      </trkpt>
      <trkpt lat="48.09676" lon="7.68194">
        <ele>428</ele>
        <time>2017-11-15T13:10:07Z</time>
      </trkpt>
      <trkpt lat="48.09673" lon="7.68189">
        <ele>428</ele>
        <time>2017-11-15T13:10:12Z</time>
      </trkpt>
      <trkpt lat="48.09666" lon="7.68182">
        <ele>427</ele>
        <time>2017-11-15T13:10:20Z</time>
      </trkpt>
      <trkpt lat="48.09655" lon="7.68171">
        <ele>427</ele>
        <time>2017-11-15T13:10:31Z</time>
      </trkpt>
      <trkpt lat="48.0965" lon="7.68169">
        <ele>427</ele>
        <time>2017-11-15T13:10:36Z</time>
      </trkpt>
      <trkpt lat="48.09646" lon="7.68171">
        <ele>427</ele>
        <time>2017-11-15T13:10:40Z</time>
      </trkpt>
      <trkpt lat="48.09641" lon="7.68171">
        <ele>426</ele>
        <time>2017-11-15T13:10:45Z</time>
      </trkpt>
      <trkpt lat="48.09637" lon="7.68169">
        <ele>425</ele>
        <time>2017-11-15T13:10:49Z</time>
      </trkpt>
      <trkpt lat="48.09633" lon="7.68168">
        <ele>424</ele>
        <time>2017-11-15T13:10:53Z</time>
      </trkpt>
      <trkpt lat="48.0962" lon="7.68137">
        <ele>424</ele>
        <time>2017-11-15T13:11:12Z</time>
      </trkpt>
      <trkpt lat="48.09617" lon="7.68132">
        <ele>424</ele>
        <time>2017-11-15T13:11:16Z</time>
      </trkpt>
      <trkpt lat="48.09612" lon="7.68121">
        <ele>425</ele>
        <time>2017-11-15T13:11:24Z</time>
      </trkpt>
      <trkpt lat="48.09604" lon="7.68105">
        <ele>425</ele>
        <time>2017-11-15T13:11:36Z</time>
      </trkpt>
      <trkpt lat="48.09568" lon="7.68089">
        <ele>426</ele>
        <time>2017-11-15T13:12:07Z</time>
      </trkpt>
      <trkpt lat="48.09558" lon="7.68073">
        <ele>428</ele>
        <time>2017-11-15T13:12:21Z</time>
      </trkpt>
      <trkpt lat="48.09545" lon="7.68044">
        <ele>429</ele>
        <time>2017-11-15T13:12:41Z</time>
      </trkpt>
      <trkpt lat="48.0954" lon="7.67989">
        <ele>431</ele>
        <time>2017-11-15T13:13:14Z</time>
      </trkpt>
      <trkpt lat="48.09537" lon="7.67967">
        <ele>432</ele>
        <time>2017-11-15T13:13:28Z</time>
      </trkpt>
      <trkpt lat="48.09536" lon="7.6794">
        <ele>433</ele>
        <time>2017-11-15T13:13:52Z</time>
      </trkpt>
      <trkpt lat="48.09535" lon="7.67934">
        <ele>434</ele>
        <time>2017-11-15T13:14:04Z</time>
      </trkpt>
      <trkpt lat="48.09535" lon="7.67927">
        <ele>433</ele>
        <time>2017-11-15T13:16:10Z</time>
      </trkpt>
      <trkpt lat="48.09535" lon="7.67921">
        <ele>433</ele>
        <time>2017-11-15T13:16:16Z</time>
      </trkpt>
      <trkpt lat="48.09534" lon="7.67915">
        <ele>433</ele>
        <time>2017-11-15T13:16:23Z</time>
      </trkpt>
      <trkpt lat="48.09536" lon="7.67908">
        <ele>431</ele>
        <time>2017-11-15T13:16:34Z</time>
      </trkpt>
      <trkpt lat="48.09535" lon="7.67896">
        <ele>430</ele>
        <time>2017-11-15T13:17:01Z</time>
      </trkpt>
      <trkpt lat="48.0953" lon="7.67876">
        <ele>428</ele>
        <time>2017-11-15T13:17:19Z</time>
      </trkpt>
      <trkpt lat="48.09528" lon="7.67871">
        <ele>426</ele>
        <time>2017-11-15T13:17:23Z</time>
      </trkpt>
      <trkpt lat="48.09524" lon="7.67859">
        <ele>424</ele>
        <time>2017-11-15T13:17:31Z</time>
      </trkpt>
      <trkpt lat="48.09519" lon="7.6785">
        <ele>422</ele>
        <time>2017-11-15T13:17:39Z</time>
      </trkpt>
      <trkpt lat="48.09504" lon="7.67834">
        <ele>418</ele>
        <time>2017-11-15T13:17:57Z</time>
      </trkpt>
      <trkpt lat="48.095" lon="7.67832">
        <ele>418</ele>
        <time>2017-11-15T13:18:02Z</time>
      </trkpt>
      <trkpt lat="48.09496" lon="7.67828">
        <ele>418</ele>
        <time>2017-11-15T13:18:06Z</time>
      </trkpt>
      <trkpt lat="48.09479" lon="7.67816">
        <ele>416</ele>
        <time>2017-11-15T13:18:25Z</time>
      </trkpt>
      <trkpt lat="48.09449" lon="7.67789">
        <ele>415</ele>
        <time>2017-11-15T13:18:57Z</time>
      </trkpt>
      <trkpt lat="48.0944" lon="7.67776">
        <ele>415</ele>
        <time>2017-11-15T13:19:09Z</time>
      </trkpt>
      <trkpt lat="48.09427" lon="7.67731">
        <ele>415</ele>
        <time>2017-11-15T13:19:39Z</time>
      </trkpt>
      <trkpt lat="48.09423" lon="7.67718">
        <ele>415</ele>
        <time>2017-11-15T13:19:49Z</time>
      </trkpt>
      <trkpt lat="48.09424" lon="7.67712">
        <ele>414</ele>
        <time>2017-11-15T13:20:03Z</time>
      </trkpt>
      <trkpt lat="48.09422" lon="7.67699">
        <ele>411</ele>
        <time>2017-11-15T13:20:11Z</time>
      </trkpt>
      <trkpt lat="48.09418" lon="7.67687">
        <ele>409</ele>
        <time>2017-11-15T13:20:20Z</time>
      </trkpt>
      <trkpt lat="48.09412" lon="7.67668">
        <ele>406</ele>
        <time>2017-11-15T13:20:34Z</time>
      </trkpt>
      <trkpt lat="48.09409" lon="7.67663">
        <ele>404</ele>
        <time>2017-11-15T13:20:40Z</time>
      </trkpt>
      <trkpt lat="48.09409" lon="7.67656">
        <ele>403</ele>
        <time>2017-11-15T13:20:46Z</time>
      </trkpt>
      <trkpt lat="48.09397" lon="7.67637">
        <ele>395</ele>
        <time>2017-11-15T13:21:08Z</time>
      </trkpt>
      <trkpt lat="48.09396" lon="7.6763">
        <ele>391</ele>
        <time>2017-11-15T13:21:16Z</time>
      </trkpt>
      <trkpt lat="48.09394" lon="7.67623">
        <ele>390</ele>
        <time>2017-11-15T13:21:22Z</time>
      </trkpt>
      <trkpt lat="48.09384" lon="7.676">
        <ele>381</ele>
        <time>2017-11-15T13:21:43Z</time>
      </trkpt>
      <trkpt lat="48.09381" lon="7.67595">
        <ele>379</ele>
        <time>2017-11-15T13:21:50Z</time>
      </trkpt>
      <trkpt lat="48.09377" lon="7.67584">
        <ele>376</ele>
        <time>2017-11-15T13:21:59Z</time>
      </trkpt>
      <trkpt lat="48.09369" lon="7.67568">
        <ele>371</ele>
        <time>2017-11-15T13:22:14Z</time>
      </trkpt>
      <trkpt lat="48.09368" lon="7.67561">
        <ele>370</ele>
        <time>2017-11-15T13:22:19Z</time>
      </trkpt>
      <trkpt lat="48.09366" lon="7.67556">
        <ele>368</ele>
        <time>2017-11-15T13:22:24Z</time>
      </trkpt>
      <trkpt lat="48.09363" lon="7.67551">
        <ele>366</ele>
        <time>2017-11-15T13:22:30Z</time>
      </trkpt>
      <trkpt lat="48.09358" lon="7.67539">
        <ele>363</ele>
        <time>2017-11-15T13:22:41Z</time>
      </trkpt>
      <trkpt lat="48.09353" lon="7.67529">
        <ele>360</ele>
        <time>2017-11-15T13:22:52Z</time>
      </trkpt>
      <trkpt lat="48.09352" lon="7.67522">
        <ele>358</ele>
        <time>2017-11-15T13:22:57Z</time>
      </trkpt>
      <trkpt lat="48.09347" lon="7.67511">
        <ele>355</ele>
        <time>2017-11-15T13:23:06Z</time>
      </trkpt>
      <trkpt lat="48.09344" lon="7.67506">
        <ele>354</ele>
        <time>2017-11-15T13:23:13Z</time>
      </trkpt>
      <trkpt lat="48.0933" lon="7.67481">
        <ele>346</ele>
        <time>2017-11-15T13:23:39Z</time>
      </trkpt>
      <trkpt lat="48.09328" lon="7.67474">
        <ele>345</ele>
        <time>2017-11-15T13:23:44Z</time>
      </trkpt>
      <trkpt lat="48.09326" lon="7.67468">
        <ele>343</ele>
        <time>2017-11-15T13:23:49Z</time>
      </trkpt>
      <trkpt lat="48.09326" lon="7.67461">
        <ele>342</ele>
        <time>2017-11-15T13:23:55Z</time>
      </trkpt>
      <trkpt lat="48.09327" lon="7.67453">
        <ele>341</ele>
        <time>2017-11-15T13:24:00Z</time>
      </trkpt>
      <trkpt lat="48.0933" lon="7.67449">
        <ele>342</ele>
        <time>2017-11-15T13:26:01Z</time>
      </trkpt>
      <trkpt lat="48.09328" lon="7.67443">
        <ele>336</ele>
        <time>2017-11-15T13:27:13Z</time>
      </trkpt>
      <trkpt lat="48.09341" lon="7.67419">
        <ele>331</ele>
        <time>2017-11-15T13:28:08Z</time>
      </trkpt>
      <trkpt lat="48.09346" lon="7.67419">
        <ele>329</ele>
        <time>2017-11-15T13:28:14Z</time>
      </trkpt>
      <trkpt lat="48.09361" lon="7.67415">
        <ele>329</ele>
        <time>2017-11-15T13:28:32Z</time>
      </trkpt>
      <trkpt lat="48.09361" lon="7.67407">
        <ele>323</ele>
        <time>2017-11-15T13:28:49Z</time>
      </trkpt>
      <trkpt lat="48.09356" lon="7.67399">
        <ele>322</ele>
        <time>2017-11-15T13:28:56Z</time>
      </trkpt>
      <trkpt lat="48.09352" lon="7.67393">
        <ele>321</ele>
        <time>2017-11-15T13:29:07Z</time>
      </trkpt>
      <trkpt lat="48.09348" lon="7.67385">
        <ele>319</ele>
        <time>2017-11-15T13:29:12Z</time>
      </trkpt>
      <trkpt lat="48.09345" lon="7.67381">
        <ele>319</ele>
        <time>2017-11-15T13:29:16Z</time>
      </trkpt>
      <trkpt lat="48.0934" lon="7.67377">
        <ele>315</ele>
        <time>2017-11-15T13:29:23Z</time>
      </trkpt>
      <trkpt lat="48.09332" lon="7.67371">
        <ele>313</ele>
        <time>2017-11-15T13:29:38Z</time>
      </trkpt>
      <trkpt lat="48.09326" lon="7.67362">
        <ele>312</ele>
        <time>2017-11-15T13:29:43Z</time>
      </trkpt>
      <trkpt lat="48.09303" lon="7.67354">
        <ele>303</ele>
        <time>2017-11-15T13:30:11Z</time>
      </trkpt>
      <trkpt lat="48.09293" lon="7.67351">
        <ele>298</ele>
        <time>2017-11-15T13:30:24Z</time>
      </trkpt>
      <trkpt lat="48.09287" lon="7.67352">
        <ele>297</ele>
        <time>2017-11-15T13:30:33Z</time>
      </trkpt>
      <trkpt lat="48.09282" lon="7.67356">
        <ele>297</ele>
        <time>2017-11-15T13:31:26Z</time>
      </trkpt>
      <trkpt lat="48.09277" lon="7.67349">
        <ele>308</ele>
        <time>2017-11-15T13:34:12Z</time>
      </trkpt>
      <trkpt lat="48.0928" lon="7.67343">
        <ele>299</ele>
        <time>2017-11-15T13:34:16Z</time>
      </trkpt>
      <trkpt lat="48.09283" lon="7.67338">
        <ele>293</ele>
        <time>2017-11-15T13:34:20Z</time>
      </trkpt>
      <trkpt lat="48.09271" lon="7.67334">
        <ele>290</ele>
        <time>2017-11-15T13:34:34Z</time>
      </trkpt>
      <trkpt lat="48.09265" lon="7.67332">
        <ele>285</ele>
        <time>2017-11-15T13:34:41Z</time>
      </trkpt>
      <trkpt lat="48.09255" lon="7.67335">
        <ele>285</ele>
        <time>2017-11-15T13:34:51Z</time>
      </trkpt>
      <trkpt lat="48.09248" lon="7.67341">
        <ele>284</ele>
        <time>2017-11-15T13:35:03Z</time>
      </trkpt>
      <trkpt lat="48.09245" lon="7.67346">
        <ele>285</ele>
        <time>2017-11-15T13:35:07Z</time>
      </trkpt>
      <trkpt lat="48.09244" lon="7.67352">
        <ele>288</ele>
        <time>2017-11-15T13:35:13Z</time>
      </trkpt>
      <trkpt lat="48.09245" lon="7.67365">
        <ele>288</ele>
        <time>2017-11-15T13:35:21Z</time>
      </trkpt>
      <trkpt lat="48.09249" lon="7.67369">
        <ele>289</ele>
        <time>2017-11-15T13:35:40Z</time>
      </trkpt>
      <trkpt lat="48.0925" lon="7.67375">
        <ele>289</ele>
        <time>2017-11-15T13:36:32Z</time>
      </trkpt>
      <trkpt lat="48.09251" lon="7.6739">
        <ele>288</ele>
        <time>2017-11-15T13:36:41Z</time>
      </trkpt>
      <trkpt lat="48.09251" lon="7.67419">
        <ele>289</ele>
        <time>2017-11-15T13:36:57Z</time>
      </trkpt>
      <trkpt lat="48.09253" lon="7.67426">
        <ele>289</ele>
        <time>2017-11-15T13:37:02Z</time>
      </trkpt>
      <trkpt lat="48.09254" lon="7.67433">
        <ele>289</ele>
        <time>2017-11-15T13:37:06Z</time>
      </trkpt>
      <trkpt lat="48.0926" lon="7.67445">
        <ele>290</ele>
        <time>2017-11-15T13:37:13Z</time>
      </trkpt>
      <trkpt lat="48.09262" lon="7.67455">
        <ele>291</ele>
        <time>2017-11-15T13:37:19Z</time>
      </trkpt>
      <trkpt lat="48.09265" lon="7.6747">
        <ele>292</ele>
        <time>2017-11-15T13:37:27Z</time>
      </trkpt>
      <trkpt lat="48.09266" lon="7.67476">
        <ele>292</ele>
        <time>2017-11-15T13:37:31Z</time>
      </trkpt>
      <trkpt lat="48.0927" lon="7.67511">
        <ele>294</ele>
        <time>2017-11-15T13:37:52Z</time>
      </trkpt>
      <trkpt lat="48.09271" lon="7.67525">
        <ele>293</ele>
        <time>2017-11-15T13:38:00Z</time>
      </trkpt>
      <trkpt lat="48.0927" lon="7.67532">
        <ele>294</ele>
        <time>2017-11-15T13:38:04Z</time>
      </trkpt>
      <trkpt lat="48.0927" lon="7.67546">
        <ele>294</ele>
        <time>2017-11-15T13:38:12Z</time>
      </trkpt>
      <trkpt lat="48.09272" lon="7.67593">
        <ele>299</ele>
        <time>2017-11-15T13:38:39Z</time>
      </trkpt>
      <trkpt lat="48.09272" lon="7.67601">
        <ele>299</ele>
        <time>2017-11-15T13:38:42Z</time>
      </trkpt>
      <trkpt lat="48.09271" lon="7.6761">
        <ele>301</ele>
        <time>2017-11-15T13:38:47Z</time>
      </trkpt>
      <trkpt lat="48.09273" lon="7.67619">
        <ele>302</ele>
        <time>2017-11-15T13:38:52Z</time>
      </trkpt>
      <trkpt lat="48.09274" lon="7.67627">
        <ele>302</ele>
        <time>2017-11-15T13:38:56Z</time>
      </trkpt>
      <trkpt lat="48.09276" lon="7.67638">
        <ele>303</ele>
        <time>2017-11-15T13:39:03Z</time>
      </trkpt>
      <trkpt lat="48.09277" lon="7.67648">
        <ele>304</ele>
        <time>2017-11-15T13:39:08Z</time>
      </trkpt>
      <trkpt lat="48.09277" lon="7.67656">
        <ele>304</ele>
        <time>2017-11-15T13:39:12Z</time>
      </trkpt>
      <trkpt lat="48.09276" lon="7.67668">
        <ele>305</ele>
        <time>2017-11-15T13:39:18Z</time>
      </trkpt>
      <trkpt lat="48.0928" lon="7.67713">
        <ele>306</ele>
        <time>2017-11-15T13:39:46Z</time>
      </trkpt>
      <trkpt lat="48.09282" lon="7.67721">
        <ele>306</ele>
        <time>2017-11-15T13:39:50Z</time>
      </trkpt>
      <trkpt lat="48.09282" lon="7.67729">
        <ele>307</ele>
        <time>2017-11-15T13:39:54Z</time>
      </trkpt>
      <trkpt lat="48.09282" lon="7.67736">
        <ele>307</ele>
        <time>2017-11-15T13:39:58Z</time>
      </trkpt>
      <trkpt lat="48.0928" lon="7.67743">
        <ele>309</ele>
        <time>2017-11-15T13:40:02Z</time>
      </trkpt>
      <trkpt lat="48.09279" lon="7.67751">
        <ele>312</ele>
        <time>2017-11-15T13:40:05Z</time>
      </trkpt>
      <trkpt lat="48.09282" lon="7.67757">
        <ele>311</ele>
        <time>2017-11-15T13:40:09Z</time>
      </trkpt>
      <trkpt lat="48.09285" lon="7.67782">
        <ele>310</ele>
        <time>2017-11-15T13:40:26Z</time>
      </trkpt>
      <trkpt lat="48.09286" lon="7.67788">
        <ele>311</ele>
        <time>2017-11-15T13:40:30Z</time>
      </trkpt>
      <trkpt lat="48.09289" lon="7.67793">
        <ele>309</ele>
        <time>2017-11-15T13:40:34Z</time>
      </trkpt>
      <trkpt lat="48.09296" lon="7.67849">
        <ele>310</ele>
        <time>2017-11-15T13:41:07Z</time>
      </trkpt>
      <trkpt lat="48.093" lon="7.67863">
        <ele>311</ele>
        <time>2017-11-15T13:41:16Z</time>
      </trkpt>
      <trkpt lat="48.09307" lon="7.67873">
        <ele>312</ele>
        <time>2017-11-15T13:41:28Z</time>
      </trkpt>
      <trkpt lat="48.0931" lon="7.67878">
        <ele>313</ele>
        <time>2017-11-15T13:41:33Z</time>
      </trkpt>
      <trkpt lat="48.0932" lon="7.67888">
        <ele>315</ele>
        <time>2017-11-15T13:41:40Z</time>
      </trkpt>
      <trkpt lat="48.09329" lon="7.67909">
        <ele>310</ele>
        <time>2017-11-15T13:41:57Z</time>
      </trkpt>
      <trkpt lat="48.09331" lon="7.67915">
        <ele>309</ele>
        <time>2017-11-15T13:42:01Z</time>
      </trkpt>
      <trkpt lat="48.09332" lon="7.67922">
        <ele>309</ele>
        <time>2017-11-15T13:42:05Z</time>
      </trkpt>
      <trkpt lat="48.09338" lon="7.67942">
        <ele>312</ele>
        <time>2017-11-15T13:42:17Z</time>
      </trkpt>
      <trkpt lat="48.0934" lon="7.67949">
        <ele>312</ele>
        <time>2017-11-15T13:42:21Z</time>
      </trkpt>
      <trkpt lat="48.09341" lon="7.67955">
        <ele>310</ele>
        <time>2017-11-15T13:42:25Z</time>
      </trkpt>
      <trkpt lat="48.09339" lon="7.6797">
        <ele>312</ele>
        <time>2017-11-15T13:42:33Z</time>
      </trkpt>
      <trkpt lat="48.09341" lon="7.67984">
        <ele>315</ele>
        <time>2017-11-15T13:42:39Z</time>
      </trkpt>
      <trkpt lat="48.09345" lon="7.67989">
        <ele>315</ele>
        <time>2017-11-15T13:42:43Z</time>
      </trkpt>
      <trkpt lat="48.09349" lon="7.68002">
        <ele>313</ele>
        <time>2017-11-15T13:42:51Z</time>
      </trkpt>
      <trkpt lat="48.09352" lon="7.68014">
        <ele>313</ele>
        <time>2017-11-15T13:42:59Z</time>
      </trkpt>
      <trkpt lat="48.09355" lon="7.68066">
        <ele>317</ele>
        <time>2017-11-15T13:43:29Z</time>
      </trkpt>
      <trkpt lat="48.09354" lon="7.68115">
        <ele>322</ele>
        <time>2017-11-15T13:43:57Z</time>
      </trkpt>
      <trkpt lat="48.09362" lon="7.68134">
        <ele>322</ele>
        <time>2017-11-15T13:44:09Z</time>
      </trkpt>
      <trkpt lat="48.09363" lon="7.68146">
        <ele>323</ele>
        <time>2017-11-15T13:44:17Z</time>
      </trkpt>
      <trkpt lat="48.09361" lon="7.68168">
        <ele>325</ele>
        <time>2017-11-15T13:44:30Z</time>
      </trkpt>
      <trkpt lat="48.09359" lon="7.68174">
        <ele>326</ele>
        <time>2017-11-15T13:44:33Z</time>
      </trkpt>
      <trkpt lat="48.09354" lon="7.68216">
        <ele>325</ele>
        <time>2017-11-15T13:45:01Z</time>
      </trkpt>
      <trkpt lat="48.09355" lon="7.6823">
        <ele>326</ele>
        <time>2017-11-15T13:45:10Z</time>
      </trkpt>
      <trkpt lat="48.0936" lon="7.68243">
        <ele>327</ele>
        <time>2017-11-15T13:45:18Z</time>
      </trkpt>
      <trkpt lat="48.09365" lon="7.68279">
        <ele>326</ele>
        <time>2017-11-15T13:45:38Z</time>
      </trkpt>
      <trkpt lat="48.09376" lon="7.68332">
        <ele>325</ele>
        <time>2017-11-15T13:46:09Z</time>
      </trkpt>
      <trkpt lat="48.09376" lon="7.68338">
        <ele>326</ele>
        <time>2017-11-15T13:46:12Z</time>
      </trkpt>
      <trkpt lat="48.09373" lon="7.68351">
        <ele>322</ele>
        <time>2017-11-15T13:46:38Z</time>
      </trkpt>
      <trkpt lat="48.09369" lon="7.68354">
        <ele>322</ele>
        <time>2017-11-15T13:46:42Z</time>
      </trkpt>
      <trkpt lat="48.09366" lon="7.68358">
        <ele>325</ele>
        <time>2017-11-15T13:49:01Z</time>
      </trkpt>
      <trkpt lat="48.09369" lon="7.68359">
        <ele>328</ele>
        <time>2017-11-15T13:56:22Z</time>
      </trkpt>
      <trkpt lat="48.09369" lon="7.68365">
        <ele>328</ele>
        <time>2017-11-15T13:56:28Z</time>
      </trkpt>
      <trkpt lat="48.0936" lon="7.68387">
        <ele>324</ele>
        <time>2017-11-15T13:56:50Z</time>
      </trkpt>
      <trkpt lat="48.09356" lon="7.68389">
        <ele>325</ele>
        <time>2017-11-15T13:56:55Z</time>
      </trkpt>
      <trkpt lat="48.0935" lon="7.68398">
        <ele>328</ele>
        <time>2017-11-15T13:57:06Z</time>
      </trkpt>
      <trkpt lat="48.09329" lon="7.68425">
        <ele>325</ele>
        <time>2017-11-15T13:57:30Z</time>
      </trkpt>
      <trkpt lat="48.09294" lon="7.68447">
        <ele>327</ele>
        <time>2017-11-15T13:58:01Z</time>
      </trkpt>
      <trkpt lat="48.09289" lon="7.68448">
        <ele>326</ele>
        <time>2017-11-15T13:58:05Z</time>
      </trkpt>
      <trkpt lat="48.0928" lon="7.6845">
        <ele>327</ele>
        <time>2017-11-15T13:58:13Z</time>
      </trkpt>
      <trkpt lat="48.09276" lon="7.68448">
        <ele>327</ele>
        <time>2017-11-15T13:58:18Z</time>
      </trkpt>
      <trkpt lat="48.09271" lon="7.68447">
        <ele>327</ele>
        <time>2017-11-15T13:58:23Z</time>
      </trkpt>
      <trkpt lat="48.09263" lon="7.68441">
        <ele>326</ele>
        <time>2017-11-15T13:58:31Z</time>
      </trkpt>
      <trkpt lat="48.09259" lon="7.68444">
        <ele>326</ele>
        <time>2017-11-15T13:58:35Z</time>
      </trkpt>
      <trkpt lat="48.09245" lon="7.68462">
        <ele>325</ele>
        <time>2017-11-15T13:58:50Z</time>
      </trkpt>
      <trkpt lat="48.09229" lon="7.68476">
        <ele>325</ele>
        <time>2017-11-15T13:59:06Z</time>
      </trkpt>
      <trkpt lat="48.09225" lon="7.68478">
        <ele>325</ele>
        <time>2017-11-15T13:59:10Z</time>
      </trkpt>
      <trkpt lat="48.0922" lon="7.68479">
        <ele>325</ele>
        <time>2017-11-15T13:59:14Z</time>
      </trkpt>
      <trkpt lat="48.09217" lon="7.68481">
        <ele>324</ele>
        <time>2017-11-15T13:59:19Z</time>
      </trkpt>
      <trkpt lat="48.09213" lon="7.68479">
        <ele>325</ele>
        <time>2017-11-15T13:59:27Z</time>
      </trkpt>
      <trkpt lat="48.09208" lon="7.68479">
        <ele>325</ele>
        <time>2017-11-15T13:59:32Z</time>
      </trkpt>
      <trkpt lat="48.09205" lon="7.68473">
        <ele>325</ele>
        <time>2017-11-15T13:59:39Z</time>
      </trkpt>
      <trkpt lat="48.09202" lon="7.68451">
        <ele>326</ele>
        <time>2017-11-15T13:59:52Z</time>
      </trkpt>
      <trkpt lat="48.09197" lon="7.68438">
        <ele>328</ele>
        <time>2017-11-15T13:59:59Z</time>
      </trkpt>
      <trkpt lat="48.09182" lon="7.68402">
        <ele>330</ele>
        <time>2017-11-15T14:00:24Z</time>
      </trkpt>
      <trkpt lat="48.09172" lon="7.68347">
        <ele>334</ele>
        <time>2017-11-15T14:00:56Z</time>
      </trkpt>
      <trkpt lat="48.09163" lon="7.68331">
        <ele>335</ele>
        <time>2017-11-15T14:01:09Z</time>
      </trkpt>
      <trkpt lat="48.09144" lon="7.68313">
        <ele>337</ele>
        <time>2017-11-15T14:01:30Z</time>
      </trkpt>
      <trkpt lat="48.09135" lon="7.68308">
        <ele>335</ele>
        <time>2017-11-15T14:01:39Z</time>
      </trkpt>
      <trkpt lat="48.09103" lon="7.68318">
        <ele>337</ele>
        <time>2017-11-15T14:02:11Z</time>
      </trkpt>
      <trkpt lat="48.09079" lon="7.68337">
        <ele>338</ele>
        <time>2017-11-15T14:02:36Z</time>
      </trkpt>
      <trkpt lat="48.0907" lon="7.68339">
        <ele>340</ele>
        <time>2017-11-15T14:02:45Z</time>
      </trkpt>
      <trkpt lat="48.09066" lon="7.6834">
        <ele>339</ele>
        <time>2017-11-15T14:02:50Z</time>
      </trkpt>
      <trkpt lat="48.09032" lon="7.68353">
        <ele>340</ele>
        <time>2017-11-15T14:03:19Z</time>
      </trkpt>
      <trkpt lat="48.08998" lon="7.68359">
        <ele>342</ele>
        <time>2017-11-15T14:03:49Z</time>
      </trkpt>
      <trkpt lat="48.08961" lon="7.68345">
        <ele>345</ele>
        <time>2017-11-15T14:04:22Z</time>
      </trkpt>
      <trkpt lat="48.0894" lon="7.68332">
        <ele>348</ele>
        <time>2017-11-15T14:04:42Z</time>
      </trkpt>
      <trkpt lat="48.08931" lon="7.6833">
        <ele>349</ele>
        <time>2017-11-15T14:04:50Z</time>
      </trkpt>
      <trkpt lat="48.08927" lon="7.68332">
        <ele>350</ele>
        <time>2017-11-15T14:04:55Z</time>
      </trkpt>
      <trkpt lat="48.0892" lon="7.68339">
        <ele>349</ele>
        <time>2017-11-15T14:05:04Z</time>
      </trkpt>
      <trkpt lat="48.08914" lon="7.6835">
        <ele>349</ele>
        <time>2017-11-15T14:05:12Z</time>
      </trkpt>
      <trkpt lat="48.08909" lon="7.68362">
        <ele>350</ele>
        <time>2017-11-15T14:05:20Z</time>
      </trkpt>
      <trkpt lat="48.0889" lon="7.68402">
        <ele>354</ele>
        <time>2017-11-15T14:05:47Z</time>
      </trkpt>
      <trkpt lat="48.08875" lon="7.68442">
        <ele>354</ele>
        <time>2017-11-15T14:06:13Z</time>
      </trkpt>
      <trkpt lat="48.0887" lon="7.68492">
        <ele>352</ele>
        <time>2017-11-15T14:06:43Z</time>
      </trkpt>
      <trkpt lat="48.08866" lon="7.6855">
        <ele>351</ele>
        <time>2017-11-15T14:07:17Z</time>
      </trkpt>
      <trkpt lat="48.08865" lon="7.68587">
        <ele>354</ele>
        <time>2017-11-15T14:07:38Z</time>
      </trkpt>
      <trkpt lat="48.08865" lon="7.6863">
        <ele>359</ele>
        <time>2017-11-15T14:08:08Z</time>
      </trkpt>
      <trkpt lat="48.08865" lon="7.68674">
        <ele>364</ele>
        <time>2017-11-15T14:08:39Z</time>
      </trkpt>
      <trkpt lat="48.08864" lon="7.68694">
        <ele>368</ele>
        <time>2017-11-15T14:08:54Z</time>
      </trkpt>
      <trkpt lat="48.08862" lon="7.687">
        <ele>368</ele>
        <time>2017-11-15T14:08:58Z</time>
      </trkpt>
      <trkpt lat="48.08861" lon="7.68712">
        <ele>369</ele>
        <time>2017-11-15T14:09:06Z</time>
      </trkpt>
      <trkpt lat="48.08863" lon="7.68726">
        <ele>370</ele>
        <time>2017-11-15T14:09:16Z</time>
      </trkpt>
      <trkpt lat="48.08863" lon="7.68732">
        <ele>371</ele>
        <time>2017-11-15T14:09:21Z</time>
      </trkpt>
      <trkpt lat="48.08833" lon="7.68758">
        <ele>372</ele>
        <time>2017-11-15T14:09:54Z</time>
      </trkpt>
      <trkpt lat="48.08828" lon="7.68759">
        <ele>372</ele>
        <time>2017-11-15T14:09:58Z</time>
      </trkpt>
      <trkpt lat="48.08802" lon="7.68789">
        <ele>374</ele>
        <time>2017-11-15T14:10:26Z</time>
      </trkpt>
      <trkpt lat="48.08797" lon="7.68794">
        <ele>374</ele>
        <time>2017-11-15T14:10:31Z</time>
      </trkpt>
      <trkpt lat="48.08793" lon="7.68792">
        <ele>374</ele>
        <time>2017-11-15T14:10:35Z</time>
      </trkpt>
      <trkpt lat="48.08791" lon="7.68786">
        <ele>374</ele>
        <time>2017-11-15T14:10:39Z</time>
      </trkpt>
      <trkpt lat="48.08791" lon="7.68778">
        <ele>373</ele>
        <time>2017-11-15T14:10:43Z</time>
      </trkpt>
      <trkpt lat="48.08788" lon="7.68765">
        <ele>374</ele>
        <time>2017-11-15T14:10:51Z</time>
      </trkpt>
      <trkpt lat="48.08773" lon="7.68714">
        <ele>377</ele>
        <time>2017-11-15T14:11:22Z</time>
      </trkpt>
      <trkpt lat="48.08767" lon="7.68696">
        <ele>379</ele>
        <time>2017-11-15T14:11:35Z</time>
      </trkpt>
      <trkpt lat="48.08762" lon="7.68685">
        <ele>381</ele>
        <time>2017-11-15T14:11:44Z</time>
      </trkpt>
      <trkpt lat="48.08757" lon="7.68686">
        <ele>381</ele>
        <time>2017-11-15T14:11:49Z</time>
      </trkpt>
      <trkpt lat="48.08752" lon="7.68689">
        <ele>381</ele>
        <time>2017-11-15T14:11:54Z</time>
      </trkpt>
      <trkpt lat="48.08748" lon="7.68694">
        <ele>382</ele>
        <time>2017-11-15T14:11:58Z</time>
      </trkpt>
      <trkpt lat="48.08744" lon="7.68698">
        <ele>382</ele>
        <time>2017-11-15T14:12:02Z</time>
      </trkpt>
      <trkpt lat="48.08713" lon="7.68731">
        <ele>385</ele>
        <time>2017-11-15T14:12:34Z</time>
      </trkpt>
      <trkpt lat="48.08701" lon="7.68741">
        <ele>386</ele>
        <time>2017-11-15T14:12:46Z</time>
      </trkpt>
      <trkpt lat="48.08667" lon="7.68764">
        <ele>389</ele>
        <time>2017-11-15T14:13:18Z</time>
      </trkpt>
      <trkpt lat="48.08656" lon="7.68777">
        <ele>391</ele>
        <time>2017-11-15T14:13:33Z</time>
      </trkpt>
      <trkpt lat="48.08648" lon="7.68784">
        <ele>392</ele>
        <time>2017-11-15T14:13:44Z</time>
      </trkpt>
      <trkpt lat="48.08644" lon="7.68787">
        <ele>392</ele>
        <time>2017-11-15T14:13:49Z</time>
      </trkpt>
      <trkpt lat="48.08636" lon="7.6879">
        <ele>394</ele>
        <time>2017-11-15T14:13:59Z</time>
      </trkpt>
      <trkpt lat="48.08631" lon="7.68792">
        <ele>394</ele>
        <time>2017-11-15T14:14:03Z</time>
      </trkpt>
      <trkpt lat="48.08628" lon="7.68794">
        <ele>395</ele>
        <time>2017-11-15T14:14:08Z</time>
      </trkpt>
      <trkpt lat="48.08621" lon="7.68802">
        <ele>395</ele>
        <time>2017-11-15T14:14:18Z</time>
      </trkpt>
      <trkpt lat="48.08617" lon="7.68805">
        <ele>395</ele>
        <time>2017-11-15T14:14:22Z</time>
      </trkpt>
      <trkpt lat="48.08605" lon="7.68815">
        <ele>396</ele>
        <time>2017-11-15T14:14:36Z</time>
      </trkpt>
      <trkpt lat="48.08593" lon="7.68825">
        <ele>397</ele>
        <time>2017-11-15T14:14:49Z</time>
      </trkpt>
      <trkpt lat="48.08573" lon="7.68854">
        <ele>401</ele>
        <time>2017-11-15T14:15:22Z</time>
      </trkpt>
      <trkpt lat="48.0857" lon="7.68858">
        <ele>403</ele>
        <time>2017-11-15T14:15:27Z</time>
      </trkpt>
      <trkpt lat="48.08566" lon="7.68854">
        <ele>404</ele>
        <time>2017-11-15T14:15:35Z</time>
      </trkpt>
      <trkpt lat="48.08565" lon="7.6885">
        <ele>405</ele>
        <time>2017-11-15T14:18:59Z</time>
      </trkpt>
      <trkpt lat="48.08564" lon="7.68837">
        <ele>403</ele>
        <time>2017-11-15T14:19:11Z</time>
      </trkpt>
      <trkpt lat="48.08556" lon="7.68813">
        <ele>406</ele>
        <time>2017-11-15T14:19:33Z</time>
      </trkpt>
      <trkpt lat="48.08555" lon="7.68808">
        <ele>407</ele>
        <time>2017-11-15T14:19:38Z</time>
      </trkpt>
      <trkpt lat="48.08553" lon="7.68801">
        <ele>407</ele>
        <time>2017-11-15T14:19:43Z</time>
      </trkpt>
      <trkpt lat="48.08546" lon="7.68778">
        <ele>412</ele>
        <time>2017-11-15T14:20:03Z</time>
      </trkpt>
      <trkpt lat="48.08543" lon="7.68773">
        <ele>413</ele>
        <time>2017-11-15T14:20:08Z</time>
      </trkpt>
      <trkpt lat="48.08525" lon="7.68737">
        <ele>424</ele>
        <time>2017-11-15T14:20:44Z</time>
      </trkpt>
      <trkpt lat="48.08522" lon="7.68726">
        <ele>427</ele>
        <time>2017-11-15T14:20:56Z</time>
      </trkpt>
      <trkpt lat="48.0852" lon="7.68712">
        <ele>427</ele>
        <time>2017-11-15T14:21:04Z</time>
      </trkpt>
      <trkpt lat="48.08507" lon="7.68681">
        <ele>429</ele>
        <time>2017-11-15T14:21:30Z</time>
      </trkpt>
      <trkpt lat="48.08504" lon="7.68675">
        <ele>428</ele>
        <time>2017-11-15T14:21:34Z</time>
      </trkpt>
      <trkpt lat="48.08502" lon="7.68669">
        <ele>429</ele>
        <time>2017-11-15T14:21:38Z</time>
      </trkpt>
      <trkpt lat="48.08485" lon="7.6864">
        <ele>436</ele>
        <time>2017-11-15T14:22:04Z</time>
      </trkpt>
      <trkpt lat="48.0848" lon="7.68632">
        <ele>437</ele>
        <time>2017-11-15T14:22:09Z</time>
      </trkpt>
      <trkpt lat="48.08469" lon="7.68615">
        <ele>435</ele>
        <time>2017-11-15T14:22:22Z</time>
      </trkpt>
      <trkpt lat="48.08463" lon="7.68606">
        <ele>435</ele>
        <time>2017-11-15T14:22:28Z</time>
      </trkpt>
      <trkpt lat="48.08447" lon="7.68585">
        <ele>437</ele>
        <time>2017-11-15T14:22:47Z</time>
      </trkpt>
      <trkpt lat="48.08417" lon="7.68546">
        <ele>439</ele>
        <time>2017-11-15T14:23:18Z</time>
      </trkpt>
      <trkpt lat="48.08403" lon="7.68537">
        <ele>438</ele>
        <time>2017-11-15T14:23:34Z</time>
      </trkpt>
      <trkpt lat="48.08397" lon="7.68527">
        <ele>438</ele>
        <time>2017-11-15T14:23:43Z</time>
      </trkpt>
      <trkpt lat="48.08395" lon="7.68514">
        <ele>438</ele>
        <time>2017-11-15T14:23:51Z</time>
      </trkpt>
      <trkpt lat="48.08395" lon="7.68508">
        <ele>438</ele>
        <time>2017-11-15T14:23:55Z</time>
      </trkpt>
      <trkpt lat="48.08394" lon="7.68501">
        <ele>437</ele>
        <time>2017-11-15T14:24:00Z</time>
      </trkpt>
      <trkpt lat="48.08395" lon="7.68492">
        <ele>436</ele>
        <time>2017-11-15T14:24:06Z</time>
      </trkpt>
      <trkpt lat="48.08393" lon="7.6846">
        <ele>439</ele>
        <time>2017-11-15T14:24:25Z</time>
      </trkpt>
      <trkpt lat="48.08394" lon="7.68439">
        <ele>438</ele>
        <time>2017-11-15T14:24:36Z</time>
      </trkpt>
      <trkpt lat="48.084" lon="7.684">
        <ele>440</ele>
        <time>2017-11-15T14:24:57Z</time>
      </trkpt>
      <trkpt lat="48.08407" lon="7.68372">
        <ele>440</ele>
        <time>2017-11-15T14:25:11Z</time>
      </trkpt>
      <trkpt lat="48.08412" lon="7.68355">
        <ele>444</ele>
        <time>2017-11-15T14:25:24Z</time>
      </trkpt>
      <trkpt lat="48.08414" lon="7.68343">
        <ele>443</ele>
        <time>2017-11-15T14:25:30Z</time>
      </trkpt>
      <trkpt lat="48.08417" lon="7.68331">
        <ele>442</ele>
        <time>2017-11-15T14:25:36Z</time>
      </trkpt>
      <trkpt lat="48.08421" lon="7.68322">
        <ele>439</ele>
        <time>2017-11-15T14:25:42Z</time>
      </trkpt>
      <trkpt lat="48.0843" lon="7.6829">
        <ele>439</ele>
        <time>2017-11-15T14:26:00Z</time>
      </trkpt>
      <trkpt lat="48.08431" lon="7.6824">
        <ele>449</ele>
        <time>2017-11-15T14:26:24Z</time>
      </trkpt>
      <trkpt lat="48.08427" lon="7.68231">
        <ele>449</ele>
        <time>2017-11-15T14:26:30Z</time>
      </trkpt>
      <trkpt lat="48.08424" lon="7.68224">
        <ele>449</ele>
        <time>2017-11-15T14:26:34Z</time>
      </trkpt>
      <trkpt lat="48.08411" lon="7.68192">
        <ele>449</ele>
        <time>2017-11-15T14:27:02Z</time>
      </trkpt>
      <trkpt lat="48.08399" lon="7.68172">
        <ele>452</ele>
        <time>2017-11-15T14:27:19Z</time>
      </trkpt>
      <trkpt lat="48.08388" lon="7.68146">
        <ele>456</ele>
        <time>2017-11-15T14:27:40Z</time>
      </trkpt>
      <trkpt lat="48.08382" lon="7.68113">
        <ele>457</ele>
        <time>2017-11-15T14:29:48Z</time>
      </trkpt>
      <trkpt lat="48.08381" lon="7.68103">
        <ele>455</ele>
        <time>2017-11-15T14:29:57Z</time>
      </trkpt>
      <trkpt lat="48.08377" lon="7.68087">
        <ele>453</ele>
        <time>2017-11-15T14:30:06Z</time>
      </trkpt>
      <trkpt lat="48.08374" lon="7.68077">
        <ele>450</ele>
        <time>2017-11-15T14:30:13Z</time>
      </trkpt>
      <trkpt lat="48.0837" lon="7.68065">
        <ele>451</ele>
        <time>2017-11-15T14:30:20Z</time>
      </trkpt>
      <trkpt lat="48.0836" lon="7.68041">
        <ele>454</ele>
        <time>2017-11-15T14:30:34Z</time>
      </trkpt>
      <trkpt lat="48.08348" lon="7.6802">
        <ele>456</ele>
        <time>2017-11-15T14:30:48Z</time>
      </trkpt>
      <trkpt lat="48.08332" lon="7.67995">
        <ele>456</ele>
        <time>2017-11-15T14:31:04Z</time>
      </trkpt>
      <trkpt lat="48.08324" lon="7.67985">
        <ele>459</ele>
        <time>2017-11-15T14:31:12Z</time>
      </trkpt>
      <trkpt lat="48.08311" lon="7.67971">
        <ele>464</ele>
        <time>2017-11-15T14:31:24Z</time>
      </trkpt>
      <trkpt lat="48.08295" lon="7.6796">
        <ele>466</ele>
        <time>2017-11-15T14:31:36Z</time>
      </trkpt>
      <trkpt lat="48.0829" lon="7.67955">
        <ele>467</ele>
        <time>2017-11-15T14:31:43Z</time>
      </trkpt>
      <trkpt lat="48.08263" lon="7.67932">
        <ele>468</ele>
        <time>2017-11-15T14:32:12Z</time>
      </trkpt>
      <trkpt lat="48.08258" lon="7.67926">
        <ele>471</ele>
        <time>2017-11-15T14:32:18Z</time>
      </trkpt>
      <trkpt lat="48.0825" lon="7.67908">
        <ele>471</ele>
        <time>2017-11-15T14:32:31Z</time>
      </trkpt>
      <trkpt lat="48.08248" lon="7.67898">
        <ele>470</ele>
        <time>2017-11-15T14:32:40Z</time>
      </trkpt>
      <trkpt lat="48.0824" lon="7.6789">
        <ele>469</ele>
        <time>2017-11-15T14:33:12Z</time>
      </trkpt>
      <trkpt lat="48.08237" lon="7.67883">
        <ele>473</ele>
        <time>2017-11-15T14:33:23Z</time>
      </trkpt>
      <trkpt lat="48.08234" lon="7.67879">
        <ele>473</ele>
        <time>2017-11-15T14:33:28Z</time>
      </trkpt>
      <trkpt lat="48.08231" lon="7.67874">
        <ele>473</ele>
        <time>2017-11-15T14:33:33Z</time>
      </trkpt>
      <trkpt lat="48.08228" lon="7.67869">
        <ele>473</ele>
        <time>2017-11-15T14:33:37Z</time>
      </trkpt>
      <trkpt lat="48.08217" lon="7.67857">
        <ele>470</ele>
        <time>2017-11-15T14:33:49Z</time>
      </trkpt>
      <trkpt lat="48.082" lon="7.67834">
        <ele>471</ele>
        <time>2017-11-15T14:34:10Z</time>
      </trkpt>
      <trkpt lat="48.08172" lon="7.67795">
        <ele>471</ele>
        <time>2017-11-15T14:34:46Z</time>
      </trkpt>
      <trkpt lat="48.08167" lon="7.67788">
        <ele>471</ele>
        <time>2017-11-15T14:34:52Z</time>
      </trkpt>
      <trkpt lat="48.08152" lon="7.6777">
        <ele>471</ele>
        <time>2017-11-15T14:35:11Z</time>
      </trkpt>
      <trkpt lat="48.08143" lon="7.67763">
        <ele>475</ele>
        <time>2017-11-15T14:35:17Z</time>
      </trkpt>
      <trkpt lat="48.08126" lon="7.67752">
        <ele>476</ele>
        <time>2017-11-15T14:35:31Z</time>
      </trkpt>
      <trkpt lat="48.08118" lon="7.67745">
        <ele>475</ele>
        <time>2017-11-15T14:35:40Z</time>
      </trkpt>
      <trkpt lat="48.08098" lon="7.67729">
        <ele>471</ele>
        <time>2017-11-15T14:35:57Z</time>
      </trkpt>
      <trkpt lat="48.08082" lon="7.67708">
        <ele>473</ele>
        <time>2017-11-15T14:36:23Z</time>
      </trkpt>
      <trkpt lat="48.08079" lon="7.67703">
        <ele>473</ele>
        <time>2017-11-15T14:36:28Z</time>
      </trkpt>
      <trkpt lat="48.08074" lon="7.677">
        <ele>472</ele>
        <time>2017-11-15T14:36:33Z</time>
      </trkpt>
      <trkpt lat="48.08071" lon="7.67695">
        <ele>472</ele>
        <time>2017-11-15T14:36:38Z</time>
      </trkpt>
      <trkpt lat="48.08067" lon="7.67691">
        <ele>474</ele>
        <time>2017-11-15T14:36:43Z</time>
      </trkpt>
      <trkpt lat="48.08065" lon="7.67686">
        <ele>475</ele>
        <time>2017-11-15T14:36:48Z</time>
      </trkpt>
      <trkpt lat="48.08062" lon="7.67674">
        <ele>475</ele>
        <time>2017-11-15T14:36:58Z</time>
      </trkpt>
      <trkpt lat="48.08056" lon="7.67664">
        <ele>478</ele>
        <time>2017-11-15T14:37:05Z</time>
      </trkpt>
      <trkpt lat="48.08051" lon="7.67647">
        <ele>478</ele>
        <time>2017-11-15T14:37:17Z</time>
      </trkpt>
      <trkpt lat="48.08048" lon="7.67629">
        <ele>474</ele>
        <time>2017-11-15T14:37:29Z</time>
      </trkpt>
      <trkpt lat="48.08047" lon="7.67599">
        <ele>475</ele>
        <time>2017-11-15T14:37:46Z</time>
      </trkpt>
      <trkpt lat="48.08041" lon="7.67564">
        <ele>477</ele>
        <time>2017-11-15T14:38:08Z</time>
      </trkpt>
      <trkpt lat="48.0803" lon="7.67503">
        <ele>479</ele>
        <time>2017-11-15T14:38:43Z</time>
      </trkpt>
      <trkpt lat="48.08018" lon="7.67478">
        <ele>464</ele>
        <time>2017-11-15T14:39:00Z</time>
      </trkpt>
      <trkpt lat="48.08005" lon="7.67465">
        <ele>468</ele>
        <time>2017-11-15T14:39:11Z</time>
      </trkpt>
      <trkpt lat="48.07987" lon="7.67449">
        <ele>471</ele>
        <time>2017-11-15T14:39:25Z</time>
      </trkpt>
      <trkpt lat="48.0798" lon="7.67442">
        <ele>473</ele>
        <time>2017-11-15T14:39:31Z</time>
      </trkpt>
      <trkpt lat="48.07964" lon="7.67407">
        <ele>479</ele>
        <time>2017-11-15T14:40:06Z</time>
      </trkpt>
      <trkpt lat="48.07959" lon="7.67396">
        <ele>482</ele>
        <time>2017-11-15T14:40:14Z</time>
      </trkpt>
      <trkpt lat="48.07955" lon="7.67361">
        <ele>483</ele>
        <time>2017-11-15T14:40:36Z</time>
      </trkpt>
      <trkpt lat="48.07952" lon="7.67351">
        <ele>482</ele>
        <time>2017-11-15T14:40:50Z</time>
      </trkpt>
      <trkpt lat="48.07946" lon="7.67317">
        <ele>481</ele>
        <time>2017-11-15T14:41:22Z</time>
      </trkpt>
      <trkpt lat="48.07945" lon="7.67287">
        <ele>485</ele>
        <time>2017-11-15T14:41:43Z</time>
      </trkpt>
      <trkpt lat="48.07945" lon="7.67278">
        <ele>487</ele>
        <time>2017-11-15T14:41:51Z</time>
      </trkpt>
      <trkpt lat="48.07957" lon="7.67234">
        <ele>485</ele>
        <time>2017-11-15T14:42:26Z</time>
      </trkpt>
      <trkpt lat="48.0796" lon="7.67222">
        <ele>480</ele>
        <time>2017-11-15T14:42:35Z</time>
      </trkpt>
      <trkpt lat="48.07963" lon="7.6721">
        <ele>481</ele>
        <time>2017-11-15T14:42:42Z</time>
      </trkpt>
      <trkpt lat="48.07965" lon="7.672">
        <ele>481</ele>
        <time>2017-11-15T14:42:48Z</time>
      </trkpt>
      <trkpt lat="48.07966" lon="7.67186">
        <ele>480</ele>
        <time>2017-11-15T14:42:57Z</time>
      </trkpt>
      <trkpt lat="48.07964" lon="7.67158">
        <ele>476</ele>
        <time>2017-11-15T14:43:16Z</time>
      </trkpt>
      <trkpt lat="48.07957" lon="7.6713">
        <ele>476</ele>
        <time>2017-11-15T14:43:36Z</time>
      </trkpt>
      <trkpt lat="48.07953" lon="7.67115">
        <ele>479</ele>
        <time>2017-11-15T14:43:44Z</time>
      </trkpt>
      <trkpt lat="48.07948" lon="7.67096">
        <ele>481</ele>
        <time>2017-11-15T14:43:55Z</time>
      </trkpt>
      <trkpt lat="48.07941" lon="7.67089">
        <ele>483</ele>
        <time>2017-11-15T14:44:01Z</time>
      </trkpt>
      <trkpt lat="48.07934" lon="7.67087">
        <ele>483</ele>
        <time>2017-11-15T14:44:05Z</time>
      </trkpt>
      <trkpt lat="48.07919" lon="7.67075">
        <ele>483</ele>
        <time>2017-11-15T14:44:17Z</time>
      </trkpt>
      <trkpt lat="48.07915" lon="7.67072">
        <ele>480</ele>
        <time>2017-11-15T14:44:22Z</time>
      </trkpt>
      <trkpt lat="48.07908" lon="7.6707">
        <ele>478</ele>
        <time>2017-11-15T14:44:27Z</time>
      </trkpt>
      <trkpt lat="48.07902" lon="7.67065">
        <ele>475</ele>
        <time>2017-11-15T14:44:34Z</time>
      </trkpt>
      <trkpt lat="48.07891" lon="7.67059">
        <ele>473</ele>
        <time>2017-11-15T14:44:50Z</time>
      </trkpt>
      <trkpt lat="48.07885" lon="7.67059">
        <ele>473</ele>
        <time>2017-11-15T14:44:55Z</time>
      </trkpt>
      <trkpt lat="48.07876" lon="7.67053">
        <ele>471</ele>
        <time>2017-11-15T14:45:08Z</time>
      </trkpt>
      <trkpt lat="48.07859" lon="7.67051">
        <ele>471</ele>
        <time>2017-11-15T14:45:21Z</time>
      </trkpt>
      <trkpt lat="48.07849" lon="7.67041">
        <ele>475</ele>
        <time>2017-11-15T14:45:31Z</time>
      </trkpt>
      <trkpt lat="48.07846" lon="7.67036">
        <ele>475</ele>
        <time>2017-11-15T14:45:35Z</time>
      </trkpt>
      <trkpt lat="48.07836" lon="7.6702">
        <ele>473</ele>
        <time>2017-11-15T14:45:50Z</time>
      </trkpt>
      <trkpt lat="48.07829" lon="7.67009">
        <ele>475</ele>
        <time>2017-11-15T14:45:57Z</time>
      </trkpt>
      <trkpt lat="48.07826" lon="7.67005">
        <ele>478</ele>
        <time>2017-11-15T14:46:02Z</time>
      </trkpt>
      <trkpt lat="48.07824" lon="7.66995">
        <ele>479</ele>
        <time>2017-11-15T14:46:09Z</time>
      </trkpt>
      <trkpt lat="48.0782" lon="7.66989">
        <ele>477</ele>
        <time>2017-11-15T14:46:14Z</time>
      </trkpt>
      <trkpt lat="48.07818" lon="7.6698">
        <ele>476</ele>
        <time>2017-11-15T14:46:20Z</time>
      </trkpt>
      <trkpt lat="48.07812" lon="7.66962">
        <ele>475</ele>
        <time>2017-11-15T14:46:33Z</time>
      </trkpt>
      <trkpt lat="48.07811" lon="7.66951">
        <ele>475</ele>
        <time>2017-11-15T14:46:40Z</time>
      </trkpt>
      <trkpt lat="48.07806" lon="7.66897">
        <ele>476</ele>
        <time>2017-11-15T14:47:13Z</time>
      </trkpt>
      <trkpt lat="48.07805" lon="7.66885">
        <ele>480</ele>
        <time>2017-11-15T14:47:21Z</time>
      </trkpt>
      <trkpt lat="48.07803" lon="7.66877">
        <ele>481</ele>
        <time>2017-11-15T14:47:30Z</time>
      </trkpt>
      <trkpt lat="48.078" lon="7.66866">
        <ele>484</ele>
        <time>2017-11-15T14:47:39Z</time>
      </trkpt>
      <trkpt lat="48.07796" lon="7.66859">
        <ele>485</ele>
        <time>2017-11-15T14:47:49Z</time>
      </trkpt>
      <trkpt lat="48.07795" lon="7.66852">
        <ele>487</ele>
        <time>2017-11-15T14:49:24Z</time>
      </trkpt>
      <trkpt lat="48.07793" lon="7.66847">
        <ele>485</ele>
        <time>2017-11-15T14:49:30Z</time>
      </trkpt>
      <trkpt lat="48.07789" lon="7.66844">
        <ele>484</ele>
        <time>2017-11-15T14:49:34Z</time>
      </trkpt>
      <trkpt lat="48.07779" lon="7.66834">
        <ele>483</ele>
        <time>2017-11-15T14:49:44Z</time>
      </trkpt>
      <trkpt lat="48.07764" lon="7.66823">
        <ele>481</ele>
        <time>2017-11-15T14:49:58Z</time>
      </trkpt>
      <trkpt lat="48.07748" lon="7.66817">
        <ele>479</ele>
        <time>2017-11-15T14:50:11Z</time>
      </trkpt>
      <trkpt lat="48.07734" lon="7.66818">
        <ele>477</ele>
        <time>2017-11-15T14:50:22Z</time>
      </trkpt>
      <trkpt lat="48.07725" lon="7.66819">
        <ele>476</ele>
        <time>2017-11-15T14:50:30Z</time>
      </trkpt>
      <trkpt lat="48.07687" lon="7.66837">
        <ele>478</ele>
        <time>2017-11-15T14:51:00Z</time>
      </trkpt>
      <trkpt lat="48.07669" lon="7.66845">
        <ele>477</ele>
        <time>2017-11-15T14:51:15Z</time>
      </trkpt>
      <trkpt lat="48.0766" lon="7.66848">
        <ele>477</ele>
        <time>2017-11-15T14:51:23Z</time>
      </trkpt>
      <trkpt lat="48.07657" lon="7.66853">
        <ele>476</ele>
        <time>2017-11-15T14:51:33Z</time>
      </trkpt>
      <trkpt lat="48.0765" lon="7.6686">
        <ele>473</ele>
        <time>2017-11-15T14:51:40Z</time>
      </trkpt>
      <trkpt lat="48.07622" lon="7.66877">
        <ele>470</ele>
        <time>2017-11-15T14:52:07Z</time>
      </trkpt>
      <trkpt lat="48.07588" lon="7.66894">
        <ele>462</ele>
        <time>2017-11-15T14:52:36Z</time>
      </trkpt>
      <trkpt lat="48.07584" lon="7.66893">
        <ele>461</ele>
        <time>2017-11-15T14:52:40Z</time>
      </trkpt>
      <trkpt lat="48.0758" lon="7.66895">
        <ele>460</ele>
        <time>2017-11-15T14:52:44Z</time>
      </trkpt>
      <trkpt lat="48.07575" lon="7.66895">
        <ele>459</ele>
        <time>2017-11-15T14:52:57Z</time>
      </trkpt>
      <trkpt lat="48.07566" lon="7.66894">
        <ele>456</ele>
        <time>2017-11-15T14:53:06Z</time>
      </trkpt>
      <trkpt lat="48.07561" lon="7.66895">
        <ele>457</ele>
        <time>2017-11-15T14:53:10Z</time>
      </trkpt>
      <trkpt lat="48.07557" lon="7.66895">
        <ele>455</ele>
        <time>2017-11-15T14:53:14Z</time>
      </trkpt>
      <trkpt lat="48.07532" lon="7.66915">
        <ele>447</ele>
        <time>2017-11-15T14:53:46Z</time>
      </trkpt>
      <trkpt lat="48.07515" lon="7.66936">
        <ele>444</ele>
        <time>2017-11-15T14:54:10Z</time>
      </trkpt>
      <trkpt lat="48.07512" lon="7.66941">
        <ele>442</ele>
        <time>2017-11-15T14:54:14Z</time>
      </trkpt>
      <trkpt lat="48.07508" lon="7.66946">
        <ele>441</ele>
        <time>2017-11-15T14:54:18Z</time>
      </trkpt>
      <trkpt lat="48.07496" lon="7.66955">
        <ele>439</ele>
        <time>2017-11-15T14:54:31Z</time>
      </trkpt>
      <trkpt lat="48.07477" lon="7.6696">
        <ele>437</ele>
        <time>2017-11-15T14:54:49Z</time>
      </trkpt>
      <trkpt lat="48.07468" lon="7.66964">
        <ele>436</ele>
        <time>2017-11-15T14:54:57Z</time>
      </trkpt>
      <trkpt lat="48.07449" lon="7.66966">
        <ele>434</ele>
        <time>2017-11-15T14:55:17Z</time>
      </trkpt>
      <trkpt lat="48.07438" lon="7.6697">
        <ele>432</ele>
        <time>2017-11-15T14:55:24Z</time>
      </trkpt>
      <trkpt lat="48.07417" lon="7.66972">
        <ele>427</ele>
        <time>2017-11-15T14:55:39Z</time>
      </trkpt>
      <trkpt lat="48.07408" lon="7.6697">
        <ele>426</ele>
        <time>2017-11-15T14:55:47Z</time>
      </trkpt>
      <trkpt lat="48.07404" lon="7.66968">
        <ele>425</ele>
        <time>2017-11-15T14:55:50Z</time>
      </trkpt>
      <trkpt lat="48.07399" lon="7.66968">
        <ele>425</ele>
        <time>2017-11-15T14:55:56Z</time>
      </trkpt>
      <trkpt lat="48.07364" lon="7.66948">
        <ele>420</ele>
        <time>2017-11-15T14:56:26Z</time>
      </trkpt>
      <trkpt lat="48.07357" lon="7.66939">
        <ele>419</ele>
        <time>2017-11-15T14:56:33Z</time>
      </trkpt>
      <trkpt lat="48.07337" lon="7.66922">
        <ele>420</ele>
        <time>2017-11-15T14:56:52Z</time>
      </trkpt>
      <trkpt lat="48.07332" lon="7.66918">
        <ele>418</ele>
        <time>2017-11-15T14:56:56Z</time>
      </trkpt>
      <trkpt lat="48.07328" lon="7.66916">
        <ele>417</ele>
        <time>2017-11-15T14:57:00Z</time>
      </trkpt>
      <trkpt lat="48.07324" lon="7.66915">
        <ele>417</ele>
        <time>2017-11-15T14:57:03Z</time>
      </trkpt>
      <trkpt lat="48.07321" lon="7.66909">
        <ele>418</ele>
        <time>2017-11-15T14:58:57Z</time>
      </trkpt>
      <trkpt lat="48.07291" lon="7.66891">
        <ele>416</ele>
        <time>2017-11-15T14:59:28Z</time>
      </trkpt>
      <trkpt lat="48.07265" lon="7.66874">
        <ele>415</ele>
        <time>2017-11-15T14:59:54Z</time>
      </trkpt>
      <trkpt lat="48.07245" lon="7.66858">
        <ele>412</ele>
        <time>2017-11-15T15:00:40Z</time>
      </trkpt>
      <trkpt lat="48.07238" lon="7.66852">
        <ele>411</ele>
        <time>2017-11-15T15:00:49Z</time>
      </trkpt>
      <trkpt lat="48.0723" lon="7.66848">
        <ele>412</ele>
        <time>2017-11-15T15:00:58Z</time>
      </trkpt>
      <trkpt lat="48.07222" lon="7.66847">
        <ele>410</ele>
        <time>2017-11-15T15:01:32Z</time>
      </trkpt>
      <trkpt lat="48.07193" lon="7.66846">
        <ele>408</ele>
        <time>2017-11-15T15:01:53Z</time>
      </trkpt>
      <trkpt lat="48.07188" lon="7.66846">
        <ele>408</ele>
        <time>2017-11-15T15:01:57Z</time>
      </trkpt>
      <trkpt lat="48.07174" lon="7.66845">
        <ele>407</ele>
        <time>2017-11-15T15:02:07Z</time>
      </trkpt>
      <trkpt lat="48.07168" lon="7.66846">
        <ele>407</ele>
        <time>2017-11-15T15:02:11Z</time>
      </trkpt>
      <trkpt lat="48.07163" lon="7.66846">
        <ele>407</ele>
        <time>2017-11-15T15:02:15Z</time>
      </trkpt>
      <trkpt lat="48.07158" lon="7.66847">
        <ele>408</ele>
        <time>2017-11-15T15:02:19Z</time>
      </trkpt>
      <trkpt lat="48.07119" lon="7.6687">
        <ele>404</ele>
        <time>2017-11-15T15:02:51Z</time>
      </trkpt>
      <trkpt lat="48.0711" lon="7.66874">
        <ele>405</ele>
        <time>2017-11-15T15:02:58Z</time>
      </trkpt>
      <trkpt lat="48.07106" lon="7.66878">
        <ele>405</ele>
        <time>2017-11-15T15:03:01Z</time>
      </trkpt>
      <trkpt lat="48.07078" lon="7.66882">
        <ele>401</ele>
        <time>2017-11-15T15:03:19Z</time>
      </trkpt>
      <trkpt lat="48.07073" lon="7.66883">
        <ele>401</ele>
        <time>2017-11-15T15:03:22Z</time>
      </trkpt>
      <trkpt lat="48.07069" lon="7.66883">
        <ele>400</ele>
        <time>2017-11-15T15:03:25Z</time>
      </trkpt>
      <trkpt lat="48.07046" lon="7.66881">
        <ele>395</ele>
        <time>2017-11-15T15:03:43Z</time>
      </trkpt>
      <trkpt lat="48.07042" lon="7.66882">
        <ele>395</ele>
        <time>2017-11-15T15:03:47Z</time>
      </trkpt>
      <trkpt lat="48.07008" lon="7.66877">
        <ele>390</ele>
        <time>2017-11-15T15:04:12Z</time>
      </trkpt>
      <trkpt lat="48.07003" lon="7.66874">
        <ele>390</ele>
        <time>2017-11-15T15:04:16Z</time>
      </trkpt>
      <trkpt lat="48.06999" lon="7.6687">
        <ele>389</ele>
        <time>2017-11-15T15:04:20Z</time>
      </trkpt>
      <trkpt lat="48.06997" lon="7.66864">
        <ele>388</ele>
        <time>2017-11-15T15:04:24Z</time>
      </trkpt>
      <trkpt lat="48.06968" lon="7.66827">
        <ele>378</ele>
        <time>2017-11-15T15:04:56Z</time>
      </trkpt>
      <trkpt lat="48.06956" lon="7.66815">
        <ele>377</ele>
        <time>2017-11-15T15:05:08Z</time>
      </trkpt>
      <trkpt lat="48.06949" lon="7.66807">
        <ele>377</ele>
        <time>2017-11-15T15:05:15Z</time>
      </trkpt>
      <trkpt lat="48.06919" lon="7.66789">
        <ele>375</ele>
        <time>2017-11-15T15:05:41Z</time>
      </trkpt>
      <trkpt lat="48.06893" lon="7.66785">
        <ele>367</ele>
        <time>2017-11-15T15:06:04Z</time>
      </trkpt>
      <trkpt lat="48.06889" lon="7.66786">
        <ele>365</ele>
        <time>2017-11-15T15:06:08Z</time>
      </trkpt>
      <trkpt lat="48.06884" lon="7.66788">
        <ele>363</ele>
        <time>2017-11-15T15:06:12Z</time>
      </trkpt>
      <trkpt lat="48.06879" lon="7.66788">
        <ele>362</ele>
        <time>2017-11-15T15:06:16Z</time>
      </trkpt>
      <trkpt lat="48.06873" lon="7.66791">
        <ele>362</ele>
        <time>2017-11-15T15:06:21Z</time>
      </trkpt>
      <trkpt lat="48.06869" lon="7.66795">
        <ele>362</ele>
        <time>2017-11-15T15:06:25Z</time>
      </trkpt>
      <trkpt lat="48.06862" lon="7.66832">
        <ele>360</ele>
        <time>2017-11-15T15:06:56Z</time>
      </trkpt>
      <trkpt lat="48.06859" lon="7.66854">
        <ele>356</ele>
        <time>2017-11-15T15:07:09Z</time>
      </trkpt>
      <trkpt lat="48.06856" lon="7.66865">
        <ele>355</ele>
        <time>2017-11-15T15:07:13Z</time>
      </trkpt>
      <trkpt lat="48.06855" lon="7.66877">
        <ele>354</ele>
        <time>2017-11-15T15:07:19Z</time>
      </trkpt>
      <trkpt lat="48.06852" lon="7.66905">
        <ele>352</ele>
        <time>2017-11-15T15:07:37Z</time>
      </trkpt>
      <trkpt lat="48.06849" lon="7.66913">
        <ele>353</ele>
        <time>2017-11-15T15:07:41Z</time>
      </trkpt>
      <trkpt lat="48.06839" lon="7.66931">
        <ele>356</ele>
        <time>2017-11-15T15:07:54Z</time>
      </trkpt>
      <trkpt lat="48.06823" lon="7.66946">
        <ele>362</ele>
        <time>2017-11-15T15:08:13Z</time>
      </trkpt>
      <trkpt lat="48.06819" lon="7.66949">
        <ele>361</ele>
        <time>2017-11-15T15:08:22Z</time>
      </trkpt>
      <trkpt lat="48.06815" lon="7.6695">
        <ele>361</ele>
        <time>2017-11-15T15:08:34Z</time>
      </trkpt>
      <trkpt lat="48.06806" lon="7.66948">
        <ele>359</ele>
        <time>2017-11-15T15:08:42Z</time>
      </trkpt>
      <trkpt lat="48.06801" lon="7.66947">
        <ele>359</ele>
        <time>2017-11-15T15:08:47Z</time>
      </trkpt>
      <trkpt lat="48.06769" lon="7.6695">
        <ele>355</ele>
        <time>2017-11-15T15:09:16Z</time>
      </trkpt>
      <trkpt lat="48.06752" lon="7.66959">
        <ele>350</ele>
        <time>2017-11-15T15:09:33Z</time>
      </trkpt>
      <trkpt lat="48.06748" lon="7.6697">
        <ele>348</ele>
        <time>2017-11-15T15:09:41Z</time>
      </trkpt>
      <trkpt lat="48.06746" lon="7.66979">
        <ele>347</ele>
        <time>2017-11-15T15:09:46Z</time>
      </trkpt>
      <trkpt lat="48.06746" lon="7.66986">
        <ele>347</ele>
        <time>2017-11-15T15:09:50Z</time>
      </trkpt>
      <trkpt lat="48.0675" lon="7.67001">
        <ele>348</ele>
        <time>2017-11-15T15:10:00Z</time>
      </trkpt>
      <trkpt lat="48.06753" lon="7.67006">
        <ele>349</ele>
        <time>2017-11-15T15:10:03Z</time>
      </trkpt>
      <trkpt lat="48.06787" lon="7.67026">
        <ele>350</ele>
        <time>2017-11-15T15:10:35Z</time>
      </trkpt>
      <trkpt lat="48.06798" lon="7.67033">
        <ele>352</ele>
        <time>2017-11-15T15:10:44Z</time>
      </trkpt>
      <trkpt lat="48.06803" lon="7.67035">
        <ele>350</ele>
        <time>2017-11-15T15:10:48Z</time>
      </trkpt>
      <trkpt lat="48.06808" lon="7.67036">
        <ele>350</ele>
        <time>2017-11-15T15:10:52Z</time>
      </trkpt>
      <trkpt lat="48.06822" lon="7.67056">
        <ele>347</ele>
        <time>2017-11-15T15:11:09Z</time>
      </trkpt>
      <trkpt lat="48.06837" lon="7.67094">
        <ele>346</ele>
        <time>2017-11-15T15:11:31Z</time>
      </trkpt>
      <trkpt lat="48.06841" lon="7.67099">
        <ele>345</ele>
        <time>2017-11-15T15:11:37Z</time>
      </trkpt>
      <trkpt lat="48.06845" lon="7.67103">
        <ele>344</ele>
        <time>2017-11-15T15:11:41Z</time>
      </trkpt>
      <trkpt lat="48.06849" lon="7.67107">
        <ele>343</ele>
        <time>2017-11-15T15:11:45Z</time>
      </trkpt>
      <trkpt lat="48.06857" lon="7.67114">
        <ele>341</ele>
        <time>2017-11-15T15:12:02Z</time>
      </trkpt>
      <trkpt lat="48.06865" lon="7.67121">
        <ele>338</ele>
        <time>2017-11-15T15:12:11Z</time>
      </trkpt>
      <trkpt lat="48.06877" lon="7.67132">
        <ele>338</ele>
        <time>2017-11-15T15:12:22Z</time>
      </trkpt>
      <trkpt lat="48.06886" lon="7.6714">
        <ele>338</ele>
        <time>2017-11-15T15:12:29Z</time>
      </trkpt>
      <trkpt lat="48.06897" lon="7.67152">
        <ele>336</ele>
        <time>2017-11-15T15:12:42Z</time>
      </trkpt>
      <trkpt lat="48.06899" lon="7.67158">
        <ele>337</ele>
        <time>2017-11-15T15:12:47Z</time>
      </trkpt>
      <trkpt lat="48.06903" lon="7.67161">
        <ele>337</ele>
        <time>2017-11-15T15:12:49Z</time>
      </trkpt>
      <trkpt lat="48.06917" lon="7.67191">
        <ele>333</ele>
        <time>2017-11-15T15:13:11Z</time>
      </trkpt>
      <trkpt lat="48.06917" lon="7.67206">
        <ele>331</ele>
        <time>2017-11-15T15:13:18Z</time>
      </trkpt>
      <trkpt lat="48.06918" lon="7.67213">
        <ele>331</ele>
        <time>2017-11-15T15:13:22Z</time>
      </trkpt>
      <trkpt lat="48.06918" lon="7.67235">
        <ele>330</ele>
        <time>2017-11-15T15:13:32Z</time>
      </trkpt>
      <trkpt lat="48.0693" lon="7.67282">
        <ele>326</ele>
        <time>2017-11-15T15:14:06Z</time>
      </trkpt>
      <trkpt lat="48.0693" lon="7.67285">
        <ele>326</ele>
        <time>2017-11-15T15:14:34Z</time>
      </trkpt>
      <trkpt lat="48.06941" lon="7.67295">
        <ele>326</ele>
        <time>2017-11-15T15:14:45Z</time>
      </trkpt>
      <trkpt lat="48.06948" lon="7.67299">
        <ele>324</ele>
        <time>2017-11-15T15:14:56Z</time>
      </trkpt>
      <trkpt lat="48.06956" lon="7.673">
        <ele>321</ele>
        <time>2017-11-15T15:15:04Z</time>
      </trkpt>
      <trkpt lat="48.06968" lon="7.67314">
        <ele>314</ele>
        <time>2017-11-15T15:15:19Z</time>
      </trkpt>
      <trkpt lat="48.06972" lon="7.67327">
        <ele>311</ele>
        <time>2017-11-15T15:15:26Z</time>
      </trkpt>
      <trkpt lat="48.06977" lon="7.67337">
        <ele>308</ele>
        <time>2017-11-15T15:15:32Z</time>
      </trkpt>
      <trkpt lat="48.0698" lon="7.67349">
        <ele>307</ele>
        <time>2017-11-15T15:15:38Z</time>
      </trkpt>
      <trkpt lat="48.06986" lon="7.67367">
        <ele>307</ele>
        <time>2017-11-15T15:15:48Z</time>
      </trkpt>
      <trkpt lat="48.06989" lon="7.67385">
        <ele>307</ele>
        <time>2017-11-15T15:15:55Z</time>
      </trkpt>
      <trkpt lat="48.06987" lon="7.67451">
        <ele>315</ele>
        <time>2017-11-15T15:16:24Z</time>
      </trkpt>
      <trkpt lat="48.06986" lon="7.67458">
        <ele>314</ele>
        <time>2017-11-15T15:16:29Z</time>
      </trkpt>
      <trkpt lat="48.06985" lon="7.6747">
        <ele>311</ele>
        <time>2017-11-15T15:16:37Z</time>
      </trkpt>
      <trkpt lat="48.06983" lon="7.67487">
        <ele>310</ele>
        <time>2017-11-15T15:16:44Z</time>
      </trkpt>
      <trkpt lat="48.06985" lon="7.67494">
        <ele>309</ele>
        <time>2017-11-15T15:16:49Z</time>
      </trkpt>
      <trkpt lat="48.06995" lon="7.67511">
        <ele>309</ele>
        <time>2017-11-15T15:17:00Z</time>
      </trkpt>
      <trkpt lat="48.07022" lon="7.67529">
        <ele>307</ele>
        <time>2017-11-15T15:17:25Z</time>
      </trkpt>
      <trkpt lat="48.07031" lon="7.67532">
        <ele>308</ele>
        <time>2017-11-15T15:17:33Z</time>
      </trkpt>
      <trkpt lat="48.07049" lon="7.67534">
        <ele>310</ele>
        <time>2017-11-15T15:17:47Z</time>
      </trkpt>
      <trkpt lat="48.07063" lon="7.67531">
        <ele>314</ele>
        <time>2017-11-15T15:18:01Z</time>
      </trkpt>
      <trkpt lat="48.0708" lon="7.67536">
        <ele>317</ele>
        <time>2017-11-15T15:18:11Z</time>
      </trkpt>
      <trkpt lat="48.07085" lon="7.6754">
        <ele>316</ele>
        <time>2017-11-15T15:18:16Z</time>
      </trkpt>
      <trkpt lat="48.07086" lon="7.67542">
        <ele>310</ele>
        <time>2017-11-15T15:19:09Z</time>
      </trkpt>
      <trkpt lat="48.07084" lon="7.67548">
        <ele>309</ele>
        <time>2017-11-15T15:19:23Z</time>
      </trkpt>
      <trkpt lat="48.07085" lon="7.67556">
        <ele>308</ele>
        <time>2017-11-15T15:19:32Z</time>
      </trkpt>
      <trkpt lat="48.07083" lon="7.67566">
        <ele>303</ele>
        <time>2017-11-15T15:19:38Z</time>
      </trkpt>
      <trkpt lat="48.07079" lon="7.67571">
        <ele>300</ele>
        <time>2017-11-15T15:19:46Z</time>
      </trkpt>
      <trkpt lat="48.07074" lon="7.67574">
        <ele>300</ele>
        <time>2017-11-15T15:19:49Z</time>
      </trkpt>
      <trkpt lat="48.07066" lon="7.67578">
        <ele>299</ele>
        <time>2017-11-15T15:19:55Z</time>
      </trkpt>
      <trkpt lat="48.07022" lon="7.67582">
        <ele>297</ele>
        <time>2017-11-15T15:20:28Z</time>
      </trkpt>
      <trkpt lat="48.07" lon="7.67575">
        <ele>295</ele>
        <time>2017-11-15T15:20:47Z</time>
      </trkpt>
      <trkpt lat="48.06968" lon="7.67546">
        <ele>288</ele>
        <time>2017-11-15T15:21:18Z</time>
      </trkpt>
      <trkpt lat="48.06963" lon="7.6754">
        <ele>286</ele>
        <time>2017-11-15T15:21:26Z</time>
      </trkpt>
      <trkpt lat="48.06954" lon="7.67529">
        <ele>283</ele>
        <time>2017-11-15T15:21:36Z</time>
      </trkpt>
      <trkpt lat="48.06946" lon="7.67518">
        <ele>281</ele>
        <time>2017-11-15T15:21:45Z</time>
      </trkpt>
      <trkpt lat="48.06911" lon="7.67484">
        <ele>280</ele>
        <time>2017-11-15T15:22:18Z</time>
      </trkpt>
      <trkpt lat="48.06904" lon="7.67479">
        <ele>281</ele>
        <time>2017-11-15T15:22:24Z</time>
      </trkpt>
      <trkpt lat="48.06893" lon="7.67474">
        <ele>281</ele>
        <time>2017-11-15T15:22:34Z</time>
      </trkpt>
      <trkpt lat="48.06883" lon="7.67466">
        <ele>283</ele>
        <time>2017-11-15T15:22:42Z</time>
      </trkpt>
      <trkpt lat="48.06865" lon="7.67461">
        <ele>286</ele>
        <time>2017-11-15T15:22:54Z</time>
      </trkpt>
      <trkpt lat="48.0686" lon="7.67459">
        <ele>288</ele>
        <time>2017-11-15T15:22:59Z</time>
      </trkpt>
      <trkpt lat="48.0685" lon="7.67459">
        <ele>288</ele>
        <time>2017-11-15T15:23:28Z</time>
      </trkpt>
      <trkpt lat="48.06846" lon="7.67457">
        <ele>291</ele>
        <time>2017-11-15T15:26:03Z</time>
      </trkpt>
      <trkpt lat="48.06814" lon="7.6747">
        <ele>288</ele>
        <time>2017-11-15T15:26:32Z</time>
      </trkpt>
      <trkpt lat="48.06805" lon="7.67471">
        <ele>285</ele>
        <time>2017-11-15T15:26:40Z</time>
      </trkpt>
      <trkpt lat="48.06797" lon="7.67472">
        <ele>284</ele>
        <time>2017-11-15T15:26:48Z</time>
      </trkpt>
      <trkpt lat="48.06792" lon="7.67477">
        <ele>283</ele>
        <time>2017-11-15T15:26:54Z</time>
      </trkpt>
      <trkpt lat="48.06777" lon="7.67517">
        <ele>282</ele>
        <time>2017-11-15T15:27:26Z</time>
      </trkpt>
      <trkpt lat="48.06772" lon="7.6752">
        <ele>282</ele>
        <time>2017-11-15T15:27:30Z</time>
      </trkpt>
      <trkpt lat="48.06768" lon="7.67526">
        <ele>281</ele>
        <time>2017-11-15T15:27:35Z</time>
      </trkpt>
      <trkpt lat="48.06765" lon="7.67532">
        <ele>282</ele>
        <time>2017-11-15T15:27:39Z</time>
      </trkpt>
      <trkpt lat="48.06759" lon="7.67568">
        <ele>285</ele>
        <time>2017-11-15T15:28:00Z</time>
      </trkpt>
      <trkpt lat="48.06754" lon="7.67579">
        <ele>284</ele>
        <time>2017-11-15T15:28:10Z</time>
      </trkpt>
      <trkpt lat="48.06745" lon="7.67584">
        <ele>285</ele>
        <time>2017-11-15T15:28:19Z</time>
      </trkpt>
      <trkpt lat="48.06741" lon="7.67584">
        <ele>285</ele>
        <time>2017-11-15T15:28:24Z</time>
      </trkpt>
      <trkpt lat="48.06736" lon="7.67582">
        <ele>286</ele>
        <time>2017-11-15T15:28:29Z</time>
      </trkpt>
      <trkpt lat="48.06732" lon="7.67583">
        <ele>286</ele>
        <time>2017-11-15T15:28:34Z</time>
      </trkpt>
      <trkpt lat="48.06724" lon="7.67585">
        <ele>287</ele>
        <time>2017-11-15T15:28:45Z</time>
      </trkpt>
      <trkpt lat="48.0672" lon="7.67589">
        <ele>288</ele>
        <time>2017-11-15T15:28:49Z</time>
      </trkpt>
      <trkpt lat="48.06719" lon="7.67595">
        <ele>288</ele>
        <time>2017-11-15T15:28:56Z</time>
      </trkpt>
    </trkseg>
  </trk>
</gpx>